Provisional Data: Loyalsock Creek near Ringdale, PA


Please select a monitoring station.
Please select start date.
Please select start date.

Toggle Unit: C/F Toggle Unit: C/F
Sample Time Temperature (C) Temperature (F) Specific Conductivity (mS/cm) pH   Turbidity (NTU+) DO (mg/L)
3/7/2021 12:00:00 AM -0.08 31.856 0.028 5.24 4.21 13.94
3/7/2021 12:15:00 AM -0.09 31.838 0.027 5.25 4.27 13.95
3/7/2021 12:30:00 AM -0.08 31.856 0.028 5.25 4.4 13.95
3/7/2021 12:45:00 AM -0.09 31.838 0.028 5.25 4.27 13.95
3/7/2021 1:00:00 AM -0.09 31.838 0.028 5.27 4.3 13.95
3/7/2021 1:15:00 AM -0.08 31.856 0.028 5.26 4.28 13.95
3/7/2021 1:30:00 AM -0.08 31.856 0.028 5.26 4.24 13.94
3/7/2021 1:45:00 AM -0.08 31.856 0.028 5.27 4.1 13.94
3/7/2021 2:00:00 AM -0.08 31.856 0.028 5.25 4.26 13.95
3/7/2021 2:15:00 AM -0.09 31.838 0.027 5.26 4.13 13.95
3/7/2021 2:30:00 AM -0.09 31.838 0.028 5.28 4.09 13.95
3/7/2021 2:45:00 AM -0.08 31.856 0.028 5.26 4.14 13.96
3/7/2021 3:00:00 AM -0.08 31.856 0.028 5.26 4.25 13.96
3/7/2021 3:15:00 AM -0.08 31.856 0.029 5.27 4.26 13.96
3/7/2021 3:30:00 AM -0.08 31.856 0.029 5.27 4.05 13.95
3/7/2021 3:45:00 AM -0.09 31.838 0.028 5.26 4.09 13.97
3/7/2021 4:00:00 AM -0.09 31.838 0.028 5.28 4.02 13.96
3/7/2021 4:15:00 AM -0.08 31.856 0.029 5.28 4.18 13.97
3/7/2021 4:30:00 AM -0.08 31.856 0.029 5.28 4.14 13.97
3/7/2021 4:45:00 AM -0.09 31.838 0.029 5.29 4.1 13.98
3/7/2021 5:00:00 AM -0.08 31.856 0.029 5.29 4.12 13.98
3/7/2021 5:15:00 AM -0.09 31.838 0.028 5.29 4.14 13.97
3/7/2021 5:30:00 AM -0.09 31.838 0.028 5.29 4.12 13.99
3/7/2021 5:45:00 AM -0.08 31.856 0.029 5.28 4.22 14
3/7/2021 6:00:00 AM -0.09 31.838 0.028 5.29 4.19 14.01
3/7/2021 6:15:00 AM -0.08 31.856 0.029 5.28 4.17 14
3/7/2021 6:30:00 AM -0.08 31.856 0.029 5.27 4.22 14.01
3/7/2021 6:45:00 AM -0.08 31.856 0.029 5.27 4.1 14.01
3/7/2021 7:00:00 AM -0.07 31.874 0.03 5.28 4.21 14.01
3/7/2021 7:15:00 AM -0.07 31.874 0.03 5.27 4.22 14.02
3/7/2021 7:30:00 AM -0.08 31.856 0.029 5.27 4.15 14.03
3/7/2021 7:45:00 AM -0.08 31.856 0.029 5.29 4.1 14.04
3/7/2021 8:00:00 AM -0.07 31.874 0.03 5.3 4.08 14.03
3/7/2021 8:15:00 AM -0.08 31.856 0.029 5.31 4.1 14.05
3/7/2021 8:30:00 AM -0.07 31.874 0.03 5.3 4.07 14.05
3/7/2021 8:45:00 AM -0.07 31.874 0.029 5.29 4.08 14.05
3/7/2021 9:00:00 AM -0.07 31.874 0.029 5.3 4.11 14.05
3/7/2021 9:15:00 AM -0.07 31.874 0.029 5.29 4.1 14.04
3/7/2021 9:30:00 AM -0.06 31.892 0.029 5.28 4.12 14.03
3/7/2021 9:45:00 AM -0.06 31.892 0.028 5.26 4.11 14.02
3/7/2021 10:00:00 AM -0.06 31.892 0.028 5.24 4.26 14.01
3/7/2021 10:15:00 AM -0.06 31.892 0.028 5.24 4.32 14
3/7/2021 10:30:00 AM -0.04 31.928 0.029 5.24 4.42 13.98
3/7/2021 10:45:00 AM -0.03 31.946 0.029 5.24 4.46 13.97
3/7/2021 11:00:00 AM 0 32 0.029 5.27 4.47 13.95
3/7/2021 11:15:00 AM 0.04 32.072 0.029 5.26 4.55 13.94
3/7/2021 11:30:00 AM 0.13 32.234 0.028 5.27 4.55 13.93
3/7/2021 11:45:00 AM 0.24 32.432 0.028 5.27 4.45 13.91
3/7/2021 12:00:00 PM 0.35 32.63 0.028 5.28 4.57 13.91
3/7/2021 12:15:00 PM 0.44 32.792 0.027 5.28 4.44 13.89
3/7/2021 12:30:00 PM 0.5 32.9 0.026 5.29 4.41 13.88
3/7/2021 12:45:00 PM 0.57 33.026 0.027 5.28 4.33 13.88
3/7/2021 1:00:00 PM 0.62 33.116 0.027 5.27 4.44 13.87
3/7/2021 1:15:00 PM 0.63 33.134 0.027 5.27 4.37 13.85
3/7/2021 1:30:00 PM 0.66 33.188 0.027 5.27 4.5 13.85
3/7/2021 1:45:00 PM 0.7 33.26 0.026 5.27 4.35 13.86
3/7/2021 2:00:00 PM 0.73 33.314 0.027 5.26 4.42 13.85
3/7/2021 2:15:00 PM 0.73 33.314 0.027 5.26 4.45 13.82
3/7/2021 2:30:00 PM 0.75 33.35 0.027 5.27 4.59 13.82
3/7/2021 2:45:00 PM 0.75 33.35 0.027 5.28 4.53 13.82
3/7/2021 3:00:00 PM 0.74 33.332 0.027 5.28 4.73 13.81
3/7/2021 3:15:00 PM 0.74 33.332 0.027 5.28 4.75 13.81
3/7/2021 3:30:00 PM 0.74 33.332 0.027 5.29 5.39 13.8
3/7/2021 3:45:00 PM 0.74 33.332 0.027 5.28 5.29 13.78
3/7/2021 4:00:00 PM 0.71 33.278 0.027 5.28 5.61 13.79
3/7/2021 4:15:00 PM 0.66 33.188 0.027 5.28 6.06 13.78
3/7/2021 4:30:00 PM 0.59 33.062 0.027 5.29 6.66 13.8
3/7/2021 4:45:00 PM 0.53 32.954 0.027 5.28 6.29 13.81
3/7/2021 5:00:00 PM 0.46 32.828 0.027 5.29 6.18 13.82
3/7/2021 5:15:00 PM 0.39 32.702 0.027 5.29 6.5 13.83
3/7/2021 5:30:00 PM 0.32 32.576 0.027 5.28 6.24 13.85
3/7/2021 5:45:00 PM 0.25 32.45 0.027 5.29 6.24 13.86
3/7/2021 6:00:00 PM 0.2 32.36 0.028 5.28 6.24 13.86
3/7/2021 6:15:00 PM 0.14 32.252 0.028 5.27 5.84 13.89
3/7/2021 6:30:00 PM 0.09 32.162 0.027 5.27 5.73 13.9
3/7/2021 6:45:00 PM 0.05 32.09 0.028 5.27 5.4 13.91
3/7/2021 7:00:00 PM 0.02 32.036 0.028 5.28 5.44 13.92
3/7/2021 7:15:00 PM -0.01 31.982 0.028 5.27 5.33 13.92
3/7/2021 7:30:00 PM -0.05 31.91 0.028 5.29 5.05 13.94
3/7/2021 7:45:00 PM -0.06 31.892 0.029 5.29 5.04 13.95
3/7/2021 8:00:00 PM -0.1 31.82 0.028 5.29 4.72 13.96
3/7/2021 8:15:00 PM -0.12 31.784 0.028 5.28 4.78 13.98
3/7/2021 8:30:00 PM -0.11 31.802 0.028 5.27 4.81 14
3/7/2021 8:45:00 PM -0.09 31.838 0.029 5.28 4.6 14
3/7/2021 9:00:00 PM -0.09 31.838 0.028 5.33 4.53 14.01
3/7/2021 9:15:00 PM -0.1 31.82 0.027 5.32 4.51 14.03
3/7/2021 9:30:00 PM -0.1 31.82 0.028 5.32 4.65 14.04
3/7/2021 9:45:00 PM -0.09 31.838 0.028 5.28 4.46 14.05
3/7/2021 10:00:00 PM -0.1 31.82 0.028 5.28 4.43 14.05
3/7/2021 10:15:00 PM -0.09 31.838 0.028 5.28 4.58 14.05
3/7/2021 10:30:00 PM -0.09 31.838 0.028 5.29 4.47 14.06
3/7/2021 10:45:00 PM -0.09 31.838 0.028 5.26 4.57 14.06
3/7/2021 11:00:00 PM -0.09 31.838 0.028 5.26 4.38 14.07
3/7/2021 11:15:00 PM -0.09 31.838 0.028 5.25 4.32 14.07
3/7/2021 11:30:00 PM -0.09 31.838 0.028 5.26 4.36 14.08
3/7/2021 11:45:00 PM -0.1 31.82 0.028 5.27 4.32 14.08
3/8/2021 12:00:00 AM -0.09 31.838 0.028 5.26 4.46 14.08
3/8/2021 12:15:00 AM -0.09 31.838 0.028 5.26 4.31 14.09
3/8/2021 12:30:00 AM -0.09 31.838 0.028 5.28 4.24 14.08
3/8/2021 12:45:00 AM -0.1 31.82 0.028 5.29 4.2 14.09
3/8/2021 1:00:00 AM -0.09 31.838 0.028 5.28 4.28 14.08
3/8/2021 1:15:00 AM -0.09 31.838 0.028 5.3 4.25 14.09
3/8/2021 1:30:00 AM -0.09 31.838 0.029 5.34 4.24 14.09
3/8/2021 1:45:00 AM -0.09 31.838 0.028 5.35 4.29 14.08
3/8/2021 2:00:00 AM -0.1 31.82 0.028 5.32 4.2 14.09
3/8/2021 2:15:00 AM -0.09 31.838 0.029 5.29 4.21 14.1
3/8/2021 2:30:00 AM -0.09 31.838 0.029 5.25 4.23 14.1
3/8/2021 2:45:00 AM -0.09 31.838 0.029 5.24 4.23 14.1
3/8/2021 3:00:00 AM -0.09 31.838 0.029 5.25 4.19 14.1
3/8/2021 3:15:00 AM -0.09 31.838 0.029 5.25 4.13 14.1
3/8/2021 3:30:00 AM -0.1 31.82 0.029 5.26 4.25 14.11
3/8/2021 3:45:00 AM -0.09 31.838 0.029 5.26 4.19 14.1
3/8/2021 4:00:00 AM -0.09 31.838 0.029 5.27 4.16 14.1
3/8/2021 4:15:00 AM -0.09 31.838 0.029 5.28 4.17 14.11
3/8/2021 4:30:00 AM -0.09 31.838 0.029 5.28 4.16 14.1
3/8/2021 4:45:00 AM -0.09 31.838 0.029 5.28 4.12 14.11
3/8/2021 5:00:00 AM -0.09 31.838 0.03 5.28 4.14 14.11
3/8/2021 5:15:00 AM -0.09 31.838 0.03 5.29 4.25 14.11
3/8/2021 5:30:00 AM -0.09 31.838 0.03 5.29 4.13 14.1
3/8/2021 5:45:00 AM -0.09 31.838 0.03 5.29 4.13 14.11
3/8/2021 6:00:00 AM -0.09 31.838 0.03 5.29 4.2 14.11
3/8/2021 6:15:00 AM -0.09 31.838 0.03 5.31 4.18 14.11
3/8/2021 6:30:00 AM -0.09 31.838 0.031 5.33 4.11 14.11
3/8/2021 6:45:00 AM -0.09 31.838 0.031 5.32 4.11 14.11
3/8/2021 7:00:00 AM -0.09 31.838 0.031 5.33 4 14.12
3/8/2021 7:15:00 AM -0.09 31.838 0.031 5.34 4.17 14.12
3/8/2021 7:30:00 AM -0.09 31.838 0.031 5.33 4.02 14.14
3/8/2021 7:45:00 AM -0.09 31.838 0.031 5.32 4.03 14.14
3/8/2021 8:00:00 AM -0.09 31.838 0.031 5.34 4.2 14.14
3/8/2021 8:15:00 AM -0.08 31.856 0.031 5.34 4.03 14.15
3/8/2021 8:30:00 AM -0.08 31.856 0.03 5.34 4.09 14.15
3/8/2021 8:45:00 AM -0.08 31.856 0.031 5.32 4.08 14.15
3/8/2021 9:00:00 AM -0.07 31.874 0.03 5.33 4.15 14.14
3/8/2021 9:15:00 AM -0.07 31.874 0.03 5.32 4.22 14.13
3/8/2021 9:30:00 AM -0.07 31.874 0.03 5.31 5.28 14.11
3/8/2021 9:45:00 AM -0.07 31.874 0.03 5.31 5.37 14.1
3/8/2021 10:00:00 AM -0.07 31.874 0.03 5.29 5.03 14.07
3/8/2021 10:15:00 AM -0.07 31.874 0.03 5.3 5.09 14.05
3/8/2021 10:30:00 AM -0.06 31.892 0.03 5.31 5.1 14.03
3/8/2021 10:45:00 AM -0.06 31.892 0.03 5.32 5.27 14.02
3/8/2021 11:00:00 AM -0.06 31.892 0.03 5.34 5.35 13.99
3/8/2021 11:15:00 AM -0.05 31.91 0.03 5.36 5.35 13.99
3/8/2021 11:30:00 AM -0.04 31.928 0.031 5.32 5.69 13.97
3/8/2021 11:45:00 AM -0.03 31.946 0.03 5.27 6.16 13.95
3/8/2021 12:00:00 PM -0.01 31.982 0.031 5.29 5.84 13.93
3/8/2021 12:15:00 PM 0.02 32.036 0.03 5.29 4.95 13.92
3/8/2021 12:30:00 PM 0.06 32.108 0.029 5.29 4.94 13.91
3/8/2021 12:45:00 PM 0.15 32.27 0.028 5.29 4.86 13.91
3/8/2021 1:00:00 PM 0.22 32.396 0.028 5.29 4.96 13.91
3/8/2021 1:15:00 PM 0.3 32.54 0.028 5.3 4.92 13.89
3/8/2021 1:30:00 PM 0.32 32.576 0.027 5.28 4.76 13.9
3/8/2021 1:45:00 PM 0.33 32.594 0.027 5.29 4.74 13.91
3/8/2021 2:00:00 PM 0.3 32.54 0.027 5.27 4.75 13.93
3/8/2021 2:15:00 PM 0.3 32.54 0.027 5.28 4.83 13.93
3/8/2021 2:30:00 PM 0.34 32.612 0.026 5.27 4.8 13.95
3/8/2021 2:45:00 PM 0.41 32.738 0.026 5.29 4.86 13.93
3/8/2021 3:00:00 PM 0.48 32.864 0.026 5.29 4.96 13.93
3/8/2021 3:15:00 PM 0.51 32.918 0.026 5.29 4.93 13.91
3/8/2021 3:30:00 PM 0.48 32.864 0.027 5.28 5.13 13.92
3/8/2021 3:45:00 PM 0.45 32.81 0.027 5.26 5.12 13.92
3/8/2021 4:00:00 PM 0.41 32.738 0.027 5.28 5.46 13.92
3/8/2021 4:15:00 PM 0.36 32.648 0.027 5.28 5.79 13.94
3/8/2021 4:30:00 PM 0.32 32.576 0.027 5.29 5.85 13.94
3/8/2021 4:45:00 PM 0.29 32.522 0.028 5.28 5.76 13.93
3/8/2021 5:00:00 PM 0.27 32.486 0.027 5.29 5.98 13.93
3/8/2021 5:15:00 PM 0.25 32.45 0.028 5.29 5.83 13.93
3/8/2021 5:30:00 PM 0.23 32.414 0.027 5.29 5.77 13.93
3/8/2021 5:45:00 PM 0.21 32.378 0.028 5.29 5.58 13.93
3/8/2021 6:00:00 PM 0.18 32.324 0.028 5.29 5.83 13.92
3/8/2021 6:15:00 PM 0.15 32.27 0.028 5.3 5.47 13.92
3/8/2021 6:30:00 PM 0.13 32.234 0.028 5.28 5 13.91
3/8/2021 6:45:00 PM 0.11 32.198 0.028 5.29 5.38 13.91
3/8/2021 7:00:00 PM 0.1 32.18 0.028 5.3 5.09 13.9
3/8/2021 7:15:00 PM 0.09 32.162 0.027 5.3 4.98 13.9
3/8/2021 7:30:00 PM 0.08 32.144 0.028 5.29 4.7 13.9
3/8/2021 7:45:00 PM 0.07 32.126 0.028 5.29 4.84 13.91
3/8/2021 8:00:00 PM 0.06 32.108 0.028 5.31 4.72 13.91
3/8/2021 8:15:00 PM 0.06 32.108 0.029 5.3 4.76 13.91
3/8/2021 8:30:00 PM 0.05 32.09 0.028 5.29 4.56 13.92
3/8/2021 8:45:00 PM 0.05 32.09 0.028 5.29 4.67 13.91
3/8/2021 9:00:00 PM 0.05 32.09 0.029 5.3 4.6 13.92
3/8/2021 9:15:00 PM 0.06 32.108 0.028 5.3 4.61 13.92
3/8/2021 9:30:00 PM 0.07 32.126 0.028 5.31 4.59 13.91
3/8/2021 9:45:00 PM 0.08 32.144 0.029 5.31 4.53 13.92
3/8/2021 10:00:00 PM 0.08 32.144 0.028 5.32 4.49 13.92
3/8/2021 10:15:00 PM 0.09 32.162 0.028 5.31 4.53 13.92
3/8/2021 10:30:00 PM 0.1 32.18 0.028 5.29 4.56 13.92
3/8/2021 10:45:00 PM 0.1 32.18 0.028 5.31 4.42 13.91
3/8/2021 11:00:00 PM 0.11 32.198 0.029 5.31 4.38 13.91
3/8/2021 11:15:00 PM 0.11 32.198 0.028 5.31 4.41 13.91
3/8/2021 11:30:00 PM 0.12 32.216 0.029 5.3 4.58 13.91
3/8/2021 11:45:00 PM 0.13 32.234 0.028 5.31 4.41 13.9
3/9/2021 12:00:00 AM 0.14 32.252 0.028 5.32 4.38 13.9
3/9/2021 12:15:00 AM 0.15 32.27 0.029 5.31 4.33 13.89
3/9/2021 12:30:00 AM 0.16 32.288 0.029 5.32 4.49 13.88
3/9/2021 12:45:00 AM 0.17 32.306 0.029 5.32 4.37 13.88
3/9/2021 1:00:00 AM 0.19 32.342 0.029 5.32 4.28 13.88
3/9/2021 1:15:00 AM 0.21 32.378 0.029 5.32 4.33 13.86
3/9/2021 1:30:00 AM 0.23 32.414 0.029 5.3 4.28 13.86
3/9/2021 1:45:00 AM 0.24 32.432 0.028 5.33 4.24 13.84
3/9/2021 2:00:00 AM 0.26 32.468 0.029 5.31 4.22 13.84
3/9/2021 2:15:00 AM 0.27 32.486 0.028 5.32 4.16 13.82
3/9/2021 2:30:00 AM 0.26 32.468 0.028 5.32 4.24 13.82
3/9/2021 2:45:00 AM 0.25 32.45 0.029 5.32 4.31 13.83
3/9/2021 3:00:00 AM 0.24 32.432 0.029 5.32 4.25 13.82
3/9/2021 3:15:00 AM 0.23 32.414 0.029 5.33 4.21 13.82
3/9/2021 3:30:00 AM 0.21 32.378 0.029 5.33 4.38 13.83
3/9/2021 3:45:00 AM 0.19 32.342 0.028 5.34 4.2 13.82
3/9/2021 4:00:00 AM 0.18 32.324 0.028 5.34 4.26 13.82
3/9/2021 4:15:00 AM 0.18 32.324 0.029 5.31 4.29 13.83
3/9/2021 4:30:00 AM 0.18 32.324 0.028 5.32 4.25 13.82
3/9/2021 4:45:00 AM 0.18 32.324 0.028 5.32 4.25 13.83
3/9/2021 5:00:00 AM 0.2 32.36 0.029 5.32 4.35 13.82
3/9/2021 5:15:00 AM 0.2 32.36 0.029 5.32 4.3 13.82
3/9/2021 5:30:00 AM 0.18 32.324 0.029 5.31 4.25 13.83
3/9/2021 5:45:00 AM 0.17 32.306 0.029 5.32 4.24 13.83
3/9/2021 6:00:00 AM 0.15 32.27 0.029 5.32 4.3 13.84
3/9/2021 6:15:00 AM 0.14 32.252 0.029 5.32 4.28 13.84
3/9/2021 6:30:00 AM 0.13 32.234 0.029 5.32 4.16 13.84
3/9/2021 6:45:00 AM 0.12 32.216 0.029 5.32 4.28 13.85
3/9/2021 7:00:00 AM 0.12 32.216 0.029 5.32 4.34 13.86
3/9/2021 7:15:00 AM 0.11 32.198 0.029 5.31 4.31 13.88
3/9/2021 7:30:00 AM 0.12 32.216 0.029 5.32 4.15 13.89
3/9/2021 7:45:00 AM 0.15 32.27 0.029 5.32 4.26 13.9
3/9/2021 8:00:00 AM 0.17 32.306 0.029 5.34 4.36 13.9
3/9/2021 8:15:00 AM 0.2 32.36 0.029 5.34 4.3 13.92
3/9/2021 8:30:00 AM 0.25 32.45 0.029 5.32 4.37 13.91
3/9/2021 8:45:00 AM 0.31 32.558 0.029 5.33 4.17 13.91
3/9/2021 9:00:00 AM 0.4 32.72 0.028 5.33 4.19 13.9
3/9/2021 9:15:00 AM 0.51 32.918 0.028 5.33 4.16 13.88
3/9/2021 9:30:00 AM 0.62 33.116 0.029 5.35 4.11 13.86
3/9/2021 9:45:00 AM 0.79 33.422 0.028 5.34 4.1 13.84
3/9/2021 10:00:00 AM 0.92 33.656 0.029 5.36 4.08 13.8
3/9/2021 10:15:00 AM 1.08 33.944 0.028 5.37 4.03 13.76
3/9/2021 10:30:00 AM 1.25 34.25 0.028 5.38 4.08 13.72
3/9/2021 10:45:00 AM 1.41 34.538 0.028 5.38 4.15 13.68
3/9/2021 11:00:00 AM 1.57 34.826 0.028 5.39 4.04 13.64
3/9/2021 11:15:00 AM 1.73 35.114 0.028 5.39 4.24 13.59
3/9/2021 11:30:00 AM 1.88 35.384 0.029 5.39 4.09 13.55
3/9/2021 11:45:00 AM 2.05 35.69 0.028 5.4 4.02 13.5
3/9/2021 12:00:00 PM 2.2 35.96 0.028 5.41 4.07 13.46
3/9/2021 12:15:00 PM 2.33 36.194 0.028 5.41 4.03 13.41
3/9/2021 12:30:00 PM 2.45 36.41 0.028 5.42 4.1 13.36
3/9/2021 12:45:00 PM 2.56 36.608 0.028 5.41 4.3 13.32
3/9/2021 1:00:00 PM 2.67 36.806 0.029 5.41 4.2 13.28
3/9/2021 1:15:00 PM 2.76 36.968 0.03 5.41 4.15 13.24
3/9/2021 1:30:00 PM 2.84 37.112 0.029 5.41 4.3 13.2
3/9/2021 1:45:00 PM 2.94 37.292 0.03 5.42 4.27 13.16
3/9/2021 2:00:00 PM 3.04 37.472 0.029 5.42 4.3 13.12
3/9/2021 2:15:00 PM 3.1 37.58 0.03 5.43 4.52 13.09
3/9/2021 2:30:00 PM 3.15 37.67 0.03 5.44 4.63 13.05
3/9/2021 2:45:00 PM 3.2 37.76 0.03 5.44 4.57 13.03
3/9/2021 3:00:00 PM 3.23 37.814 0.03 5.44 4.65 13.02
3/9/2021 3:15:00 PM 3.23 37.814 0.03 5.43 4.89 12.99
3/9/2021 3:30:00 PM 3.21 37.778 0.03 5.43 4.94 13
3/9/2021 3:45:00 PM 3.15 37.67 0.03 5.43 5.17 12.98
3/9/2021 4:00:00 PM 3.07 37.526 0.03 5.42 5.32 13
3/9/2021 4:15:00 PM 2.98 37.364 0.03 5.43 5.23 13
3/9/2021 4:30:00 PM 2.88 37.184 0.03 5.43 5.59 13.02
3/9/2021 4:45:00 PM 2.76 36.968 0.03 5.43 6.18 13.05
3/9/2021 5:00:00 PM 2.65 36.77 0.031 5.41 6.15 13.06
3/9/2021 5:15:00 PM 2.52 36.536 0.03 5.41 6 13.1
3/9/2021 5:30:00 PM 2.39 36.302 0.03 5.4 6.41 13.12
3/9/2021 5:45:00 PM 2.25 36.05 0.03 5.4 5.93 13.15
3/9/2021 6:00:00 PM 2.09 35.762 0.03 5.38 6.08 13.18
3/9/2021 6:15:00 PM 1.97 35.546 0.031 5.37 6.57 13.2
3/9/2021 6:30:00 PM 1.85 35.33 0.03 5.37 6.44 13.24
3/9/2021 6:45:00 PM 1.75 35.15 0.031 5.35 6.35 13.26
3/9/2021 7:00:00 PM 1.65 34.97 0.031 5.37 6.85 13.3
3/9/2021 7:15:00 PM 1.55 34.79 0.031 5.36 6.75 13.33
3/9/2021 7:30:00 PM 1.48 34.664 0.031 5.36 6.52 13.36
3/9/2021 7:45:00 PM 1.39 34.502 0.031 5.36 6.74 13.4
3/9/2021 8:00:00 PM 1.32 34.376 0.031 5.36 6.83 13.41
3/9/2021 8:15:00 PM 1.26 34.268 0.031 5.36 6.65 13.44
3/9/2021 8:30:00 PM 1.2 34.16 0.031 5.36 7.08 13.46
3/9/2021 8:45:00 PM 1.14 34.052 0.031 5.35 6.48 13.49
3/9/2021 9:00:00 PM 1.08 33.944 0.032 5.35 6.27 13.51
3/9/2021 9:15:00 PM 1.03 33.854 0.031 5.34 6.18 13.53
3/9/2021 9:30:00 PM 0.98 33.764 0.031 5.33 6.45 13.56
3/9/2021 9:45:00 PM 0.93 33.674 0.031 5.35 6.05 13.59
3/9/2021 10:00:00 PM 0.89 33.602 0.031 5.33 6.29 13.59
3/9/2021 10:15:00 PM 0.85 33.53 0.03 5.33 6.3 13.62
3/9/2021 10:30:00 PM 0.83 33.494 0.031 5.33 6.34 13.62
3/9/2021 10:45:00 PM 0.79 33.422 0.03 5.33 5.59 13.63
3/9/2021 11:00:00 PM 0.75 33.35 0.03 5.32 5.83 13.65
3/9/2021 11:15:00 PM 0.72 33.296 0.03 5.32 5.68 13.67
3/9/2021 11:30:00 PM 0.7 33.26 0.03 5.32 5.58 13.68
3/9/2021 11:45:00 PM 0.69 33.242 0.03 5.32 5.55 13.69
3/10/2021 12:00:00 AM 0.66 33.188 0.03 5.33 5.18 13.7
3/10/2021 12:15:00 AM 0.64 33.152 0.029 5.31 5.51 13.7
3/10/2021 12:30:00 AM 0.63 33.134 0.03 5.31 5.31 13.71
3/10/2021 12:45:00 AM 0.61 33.098 0.03 5.3 5.33 13.73
3/10/2021 1:00:00 AM 0.6 33.08 0.03 5.3 5.4 13.71
3/10/2021 1:15:00 AM 0.58 33.044 0.03 5.3 5.36 13.74
3/10/2021 1:30:00 AM 0.56 33.008 0.029 5.3 5.18 13.73
3/10/2021 1:45:00 AM 0.55 32.99 0.03 5.29 5.53 13.76
3/10/2021 2:00:00 AM 0.53 32.954 0.029 5.3 5.43 13.76
3/10/2021 2:15:00 AM 0.52 32.936 0.029 5.3 5.58 13.76
3/10/2021 2:30:00 AM 0.51 32.918 0.03 5.29 5.3 13.78
3/10/2021 2:45:00 AM 0.49 32.882 0.03 5.29 5.33 13.77
3/10/2021 3:00:00 AM 0.48 32.864 0.029 5.3 5.59 13.78
3/10/2021 3:15:00 AM 0.47 32.846 0.03 5.29 5.6 13.79
3/10/2021 3:30:00 AM 0.45 32.81 0.029 5.29 5.48 13.81
3/10/2021 3:45:00 AM 0.43 32.774 0.029 5.29 5.41 13.81
3/10/2021 4:00:00 AM 0.42 32.756 0.029 5.3 5.55 13.81
3/10/2021 4:15:00 AM 0.4 32.72 0.029 5.3 5.87 13.84
3/10/2021 4:30:00 AM 0.39 32.702 0.03 5.29 5.08 13.84
3/10/2021 4:45:00 AM 0.37 32.666 0.03 5.28 5.36 13.84
3/10/2021 5:00:00 AM 0.35 32.63 0.029 5.3 5.25 13.84
3/10/2021 5:15:00 AM 0.35 32.63 0.03 5.29 5.21 13.85
3/10/2021 5:30:00 AM 0.32 32.576 0.029 5.3 5.24 13.87
3/10/2021 5:45:00 AM 0.31 32.558 0.03 5.3 5.08 13.87
3/10/2021 6:00:00 AM 0.29 32.522 0.03 5.29 5.11 13.88
3/10/2021 6:15:00 AM 0.27 32.486 0.029 5.29 4.93 13.89
3/10/2021 6:30:00 AM 0.25 32.45 0.029 5.29 4.92 13.9
3/10/2021 6:45:00 AM 0.25 32.45 0.03 5.28 5.28 13.91
3/10/2021 7:00:00 AM 0.24 32.432 0.03 5.28 5.1 13.92
3/10/2021 7:15:00 AM 0.23 32.414 0.03 5.29 4.88 13.95
3/10/2021 7:30:00 AM 0.24 32.432 0.029 5.3 5.01 13.94
3/10/2021 7:45:00 AM 0.26 32.468 0.029 5.3 4.94 13.95
3/10/2021 8:00:00 AM 0.27 32.486 0.029 5.31 4.76 13.96
3/10/2021 8:15:00 AM 0.31 32.558 0.03 5.3 5.01 13.96
3/10/2021 8:30:00 AM 0.36 32.648 0.03 5.3 4.67 13.98
3/10/2021 8:45:00 AM 0.43 32.774 0.029 5.31 4.78 13.98
3/10/2021 9:00:00 AM 0.53 32.954 0.029 5.31 4.75 13.95
3/10/2021 9:15:00 AM 0.65 33.17 0.03 5.3 4.81 13.92
3/10/2021 9:30:00 AM 0.78 33.404 0.029 5.32 4.68 13.9
3/10/2021 9:45:00 AM 0.93 33.674 0.029 5.34 4.61 13.87
3/10/2021 10:00:00 AM 1.09 33.962 0.03 5.33 4.6 13.84
3/10/2021 10:15:00 AM 1.27 34.286 0.029 5.34 4.78 13.8
3/10/2021 10:30:00 AM 1.45 34.61 0.029 5.35 4.81 13.75
3/10/2021 10:45:00 AM 1.62 34.916 0.029 5.34 4.66 13.7
3/10/2021 11:00:00 AM 1.79 35.222 0.028 5.35 4.77 13.65
3/10/2021 11:15:00 AM 1.97 35.546 0.029 5.37 4.68 13.6
3/10/2021 11:30:00 AM 2.15 35.87 0.028 5.36 4.62 13.55
3/10/2021 11:45:00 AM 2.33 36.194 0.028 5.37 4.49 13.49
3/10/2021 12:00:00 PM 2.48 36.464 0.029 5.38 4.6 13.43
3/10/2021 12:15:00 PM 2.64 36.752 0.029 5.37 4.64 13.39
3/10/2021 12:30:00 PM 2.82 37.076 0.028 5.37 4.57 13.32
3/10/2021 12:45:00 PM 2.98 37.364 0.029 5.38 4.64 13.26
3/10/2021 1:00:00 PM 3.14 37.652 0.028 5.39 4.84 13.2
3/10/2021 1:15:00 PM 3.27 37.886 0.03 5.4 4.92 13.15
3/10/2021 1:30:00 PM 3.4 38.12 0.029 5.41 5.03 13.1
3/10/2021 1:45:00 PM 3.49 38.282 0.028 5.41 5.06 13.06
3/10/2021 2:00:00 PM 3.58 38.444 0.029 5.4 4.81 13.02
3/10/2021 2:15:00 PM 3.65 38.57 0.028 5.4 5.31 12.98
3/10/2021 2:30:00 PM 3.68 38.624 0.029 5.39 5.39 12.96
3/10/2021 2:45:00 PM 3.69 38.642 0.029 5.4 5.48 12.94
3/10/2021 3:00:00 PM 3.69 38.642 0.029 5.4 5.55 12.91
3/10/2021 3:15:00 PM 3.67 38.606 0.029 5.41 5.81 12.9
3/10/2021 3:30:00 PM 3.62 38.516 0.029 5.42 6.09 12.9
3/10/2021 3:45:00 PM 3.55 38.39 0.029 5.4 6.3 12.9
3/10/2021 4:00:00 PM 3.44 38.192 0.029 5.4 6.59 12.92
3/10/2021 4:15:00 PM 3.31 37.958 0.03 5.39 6.45 12.92
3/10/2021 4:30:00 PM 3.2 37.76 0.032 5.39 6.74 12.93
3/10/2021 4:45:00 PM 3.08 37.544 0.03 5.41 6.77 12.95
3/10/2021 5:00:00 PM 2.95 37.31 0.03 5.4 6.95 12.97
3/10/2021 5:15:00 PM 2.82 37.076 0.031 5.38 7.22 12.99
3/10/2021 5:30:00 PM 2.69 36.842 0.031 5.37 8.05 13.02
3/10/2021 5:45:00 PM 2.56 36.608 0.031 5.38 7.85 13.04
3/10/2021 6:00:00 PM 2.44 36.392 0.031 5.38 8.31 13.06
3/10/2021 6:15:00 PM 2.34 36.212 0.031 5.37 8.7 13.08
3/10/2021 6:30:00 PM 2.25 36.05 0.032 5.35 8.89 13.1
3/10/2021 6:45:00 PM 2.18 35.924 0.031 5.36 9.05 13.11
3/10/2021 7:00:00 PM 2.11 35.798 0.031 5.36 9.67 13.13
3/10/2021 7:15:00 PM 2.07 35.726 0.031 5.35 8.95 13.15
3/10/2021 7:30:00 PM 2.02 35.636 0.031 5.34 9.05 13.16
3/10/2021 7:45:00 PM 1.98 35.564 0.03 5.32 9.68 13.17
3/10/2021 8:00:00 PM 1.92 35.456 0.03 5.32 22.39 13.19
3/10/2021 8:15:00 PM 1.87 35.366 0.03 5.37 9.45 13.21
3/10/2021 8:30:00 PM 1.82 35.276 0.029 5.33 9.41 13.23
3/10/2021 8:45:00 PM 1.76 35.168 0.029 5.31 10.45 13.25
3/10/2021 9:00:00 PM 1.74 35.132 0.029 5.31 9.89 13.27
3/10/2021 9:15:00 PM 1.71 35.078 0.028 5.3 9.99 13.27
3/10/2021 9:30:00 PM 1.67 35.006 0.029 5.3 9.36 13.29
3/10/2021 9:45:00 PM 1.63 34.934 0.028 5.27 9.32 13.31
3/10/2021 10:00:00 PM 1.62 34.916 0.029 5.29 9.56 13.31
3/10/2021 10:15:00 PM 1.6 34.88 0.028 5.27 9.44 13.32
3/10/2021 10:30:00 PM 1.57 34.826 0.028 5.28 9.75 13.33
3/10/2021 10:45:00 PM 1.54 34.772 0.028 5.26 9.47 13.35
3/10/2021 11:00:00 PM 1.55 34.79 0.028 5.28 9.33 13.34
3/10/2021 11:15:00 PM 1.54 34.772 0.028 5.27 9.27 13.35
3/10/2021 11:30:00 PM 1.49 34.682 0.028 5.27 9.95 13.37
3/10/2021 11:45:00 PM 1.39 34.502 0.027 5.27 10.45 13.4
3/11/2021 12:00:00 AM 1.35 34.43 0.028 5.26 9.48 13.43
3/11/2021 12:15:00 AM 1.36 34.448 0.028 5.27 9.7 13.43
3/11/2021 12:30:00 AM 1.39 34.502 0.028 5.27 9.55 13.43
3/11/2021 12:45:00 AM 1.4 34.52 0.028 5.29 9.23 13.43
3/11/2021 1:00:00 AM 1.4 34.52 0.028 5.28 9.31 13.43
3/11/2021 1:15:00 AM 1.39 34.502 0.028 5.26 9.1 13.44
3/11/2021 1:30:00 AM 1.37 34.466 0.028 5.26 8.91 13.44
3/11/2021 1:45:00 AM 1.35 34.43 0.028 5.27 8.75 13.45
3/11/2021 2:00:00 AM 1.34 34.412 0.028 5.28 8.89 13.45
3/11/2021 2:15:00 AM 1.32 34.376 0.028 5.26 8.71 13.46
3/11/2021 2:30:00 AM 1.31 34.358 0.028 5.25 8.69 13.47
3/11/2021 2:45:00 AM 1.3 34.34 0.028 5.25 8.52 13.47
3/11/2021 3:00:00 AM 1.3 34.34 0.028 5.25 8.3 13.48
3/11/2021 3:15:00 AM 1.3 34.34 0.028 5.25 8.06 13.47
3/11/2021 3:30:00 AM 1.3 34.34 0.027 5.24 8.48 13.48
3/11/2021 3:45:00 AM 1.3 34.34 0.028 5.25 7.92 13.47
3/11/2021 4:00:00 AM 1.3 34.34 0.028 5.23 8.09 13.48
3/11/2021 4:15:00 AM 1.3 34.34 0.028 5.24 7.79 13.47
3/11/2021 4:30:00 AM 1.31 34.358 0.028 5.25 7.87 13.47
3/11/2021 4:45:00 AM 1.31 34.358 0.027 5.24 7.97 13.47
3/11/2021 5:00:00 AM 1.31 34.358 0.028 5.23 7.56 13.47
3/11/2021 5:15:00 AM 1.31 34.358 0.027 5.25 7.56 13.47
3/11/2021 5:30:00 AM 1.31 34.358 0.027 5.22 7.72 13.47
3/11/2021 5:45:00 AM 1.32 34.376 0.028 5.23 7.42 13.47
3/11/2021 6:00:00 AM 1.32 34.376 0.027 5.21 7.77 13.47
3/11/2021 6:15:00 AM 1.31 34.358 0.027 5.23 7.53 13.47
3/11/2021 6:30:00 AM 1.31 34.358 0.027 5.2 7.48 13.47
3/11/2021 6:45:00 AM 1.32 34.376 0.027 5.22 7.52 13.47
3/11/2021 7:00:00 AM 1.33 34.394 0.027 5.2 7.51 13.48
3/11/2021 7:15:00 AM 1.34 34.412 0.027 5.2 7.03 13.48
3/11/2021 7:30:00 AM 1.35 34.43 0.026 5.21 7.29 13.48
3/11/2021 7:45:00 AM 1.37 34.466 0.027 5.2 7.33 13.49
3/11/2021 8:00:00 AM 1.4 34.52 0.027 5.23 7.1 13.49
3/11/2021 8:15:00 AM 1.44 34.592 0.027 5.22 7.1 13.49
3/11/2021 8:30:00 AM 1.47 34.646 0.027 5.24 6.89 13.48
3/11/2021 8:45:00 AM 1.51 34.718 0.026 5.22 7.22 13.48
3/11/2021 9:00:00 AM 1.57 34.826 0.026 5.23 7.32 13.47
3/11/2021 9:15:00 AM 1.62 34.916 0.026 5.22 7.05 13.46
3/11/2021 9:30:00 AM 1.68 35.024 0.026 5.21 7.03 13.45
3/11/2021 9:45:00 AM 1.79 35.222 0.026 5.23 6.97 13.43
3/11/2021 10:00:00 AM 1.93 35.474 0.026 5.26 6.79 13.4
3/11/2021 10:15:00 AM 2.08 35.744 0.026 5.25 6.78 13.37
3/11/2021 10:30:00 AM 2.21 35.978 0.026 5.24 7.03 13.33
3/11/2021 10:45:00 AM 2.35 36.23 0.026 5.25 7.02 13.29
3/11/2021 11:00:00 AM 2.51 36.518 0.026 5.26 7.23 13.26
3/11/2021 11:15:00 AM 2.67 36.806 0.026 5.25 7.17 13.21
3/11/2021 11:30:00 AM 2.82 37.076 0.026 5.26 6.99 13.16
3/11/2021 11:45:00 AM 2.94 37.292 0.026 5.26 7.4 13.12
3/11/2021 12:00:00 PM 3.09 37.562 0.026 5.27 7.71 13.09
3/11/2021 12:15:00 PM 3.24 37.832 0.026 5.27 8.06 13.04
3/11/2021 12:30:00 PM 3.31 37.958 0.026 5.29 8.59 13.01
3/11/2021 12:45:00 PM 3.29 37.922 0.027 5.28 9.38 12.98
3/11/2021 1:00:00 PM 3.29 37.922 0.027 5.29 10.2 12.97
3/11/2021 1:15:00 PM 3.22 37.796 0.027 5.28 10.76 12.97
3/11/2021 1:30:00 PM 3.11 37.598 0.027 5.28 11.99 12.96
3/11/2021 1:45:00 PM 3.02 37.436 0.026 5.27 12.57 12.98
3/11/2021 2:00:00 PM 2.97 37.346 0.026 5.28 14.45 12.98
3/11/2021 2:15:00 PM 2.9 37.22 0.027 5.26 15.41 12.97
3/11/2021 2:30:00 PM 2.79 37.022 0.026 5.25 16.38 12.99
3/11/2021 2:45:00 PM 2.73 36.914 0.026 5.24 17.95 13
3/11/2021 3:00:00 PM 2.75 36.95 0.026 5.26 18.13 13
3/11/2021 3:15:00 PM 2.74 36.932 0.026 5.24 26.77 13
3/11/2021 3:30:00 PM 2.74 36.932 0.025 5.24 19.38 13.01
3/11/2021 3:45:00 PM 2.71 36.878 0.025 5.24 23.54 13.01
3/11/2021 4:00:00 PM 2.66 36.788 0.025 5.2 20.85 13.02
3/11/2021 4:15:00 PM 2.58 36.644 0.025 5.19 27.3 13.03
3/11/2021 4:30:00 PM 2.51 36.518 0.025 5.17 37.78 13.05
3/11/2021 4:45:00 PM 2.44 36.392 0.029 5.17 33.23 13.06
3/11/2021 5:00:00 PM 2.36 36.248 0.027 5.15 28.62 13.09
3/11/2021 5:15:00 PM 2.29 36.122 0.026 5.14 31.05 13.1
3/11/2021 5:30:00 PM 2.18 35.924 0.026 5.13 25 13.12
3/11/2021 5:45:00 PM 2.12 35.816 0.026 5.13 29.37 13.15
3/11/2021 6:00:00 PM 2.06 35.708 0.025 5.13 29.79 13.18
3/11/2021 6:15:00 PM 1.99 35.582 0.025 5.1 39.77 13.21
3/11/2021 6:30:00 PM 1.93 35.474 0.025 5.1 26.48 13.23
3/11/2021 6:45:00 PM 1.87 35.366 0.025 5.09 32.89 13.25
3/11/2021 7:00:00 PM 1.81 35.258 0.025 5.08 32.6 13.26
3/11/2021 7:15:00 PM 1.75 35.15 0.025 5.07 36.15 13.29
3/11/2021 7:30:00 PM 1.68 35.024 0.024 5.05 42.37 13.3
3/11/2021 7:45:00 PM 1.64 34.952 0.024 5.06 30.13 13.32
3/11/2021 8:00:00 PM 1.6 34.88 0.024 5.04 32.2 13.33
3/11/2021 8:15:00 PM 1.55 34.79 0.024 5.03 35.79 13.35
3/11/2021 8:30:00 PM 1.52 34.736 0.024 5.01 28.79 13.36
3/11/2021 8:45:00 PM 1.5 34.7 0.024 5.03 32.66 13.37
3/11/2021 9:00:00 PM 1.48 34.664 0.023 5.01 26.92 13.38
3/11/2021 9:15:00 PM 1.47 34.646 0.024 5 37.73 13.38
3/11/2021 9:30:00 PM 1.45 34.61 0.023 5 34.29 13.39
3/11/2021 9:45:00 PM 1.46 34.628 0.023 4.97 28.59 13.39
3/11/2021 10:00:00 PM 1.48 34.664 0.023 4.98 28.89 13.4
3/11/2021 10:15:00 PM 1.48 34.664 0.023 4.98 27.83 13.4
3/11/2021 10:30:00 PM 1.47 34.646 0.023 4.97 26.83 13.4
3/11/2021 10:45:00 PM 1.46 34.628 0.023 4.96 30.82 13.4
3/11/2021 11:00:00 PM 1.48 34.664 0.022 4.98 30.58 13.4
3/11/2021 11:15:00 PM 1.49 34.682 0.022 4.95 29.68 13.4
3/11/2021 11:30:00 PM 1.5 34.7 0.022 4.96 25.1 13.4
3/11/2021 11:45:00 PM 1.5 34.7 0.022 4.93 24.17 13.39
3/12/2021 12:00:00 AM 1.52 34.736 0.022 4.94 24.47 13.38
3/12/2021 12:15:00 AM 1.52 34.736 0.022 4.94 27.55 13.38
3/12/2021 12:30:00 AM 1.51 34.718 0.022 4.91 22.25 13.38
3/12/2021 12:45:00 AM 1.5 34.7 0.022 4.93 23.3 13.37
3/12/2021 1:00:00 AM 1.5 34.7 0.022 4.92 23.74 13.38
3/12/2021 1:15:00 AM 1.49 34.682 0.022 4.9 23.35 13.38
3/12/2021 1:30:00 AM 1.47 34.646 0.022 4.89 27.91 13.38
3/12/2021 1:45:00 AM 1.45 34.61 0.022 4.91 22.41 13.39
3/12/2021 2:00:00 AM 1.43 34.574 0.021 4.88 21.89 13.4
3/12/2021 2:15:00 AM 1.41 34.538 0.021 4.87 23.89 13.4
3/12/2021 2:30:00 AM 1.39 34.502 0.021 4.88 24.21 13.41
3/12/2021 2:45:00 AM 1.36 34.448 0.021 4.85 23.07 13.41
3/12/2021 3:00:00 AM 1.34 34.412 0.021 4.84 22.84 13.43
3/12/2021 3:15:00 AM 1.32 34.376 0.021 4.81 29.76 13.43
3/12/2021 3:30:00 AM 1.31 34.358 0.021 4.83 25.45 13.44
3/12/2021 3:45:00 AM 1.31 34.358 0.021 4.81 22.09 13.45
3/12/2021 4:00:00 AM 1.29 34.322 0.021 4.8 18.75 13.45
3/12/2021 4:15:00 AM 1.28 34.304 0.02 4.84 23.7 13.46
3/12/2021 4:30:00 AM 1.26 34.268 0.02 4.81 22.11 13.46
3/12/2021 4:45:00 AM 1.24 34.232 0.02 4.79 22.95 13.47
3/12/2021 5:00:00 AM 1.23 34.214 0.02 4.79 21.45 13.48
3/12/2021 5:15:00 AM 1.22 34.196 0.02 4.82 21.5 13.49
3/12/2021 5:30:00 AM 1.2 34.16 0.02 4.81 19.98 13.5
3/12/2021 5:45:00 AM 1.18 34.124 0.02 4.79 17.68 13.51
3/12/2021 6:00:00 AM 1.16 34.088 0.02 4.79 30.4 13.51
3/12/2021 6:15:00 AM 1.13 34.034 0.019 4.78 18.52 13.52
3/12/2021 6:30:00 AM 1.11 33.998 0.019 4.79 18.8 13.53
3/12/2021 6:45:00 AM 1.08 33.944 0.019 4.78 17.96 13.54
3/12/2021 7:00:00 AM 1.06 33.908 0.019 4.78 17.51 13.55
3/12/2021 7:15:00 AM 1.04 33.872 0.019 4.79 17.66 13.56
3/12/2021 7:30:00 AM 1.03 33.854 0.019 4.76 16.2 13.57
3/12/2021 7:45:00 AM 1.03 33.854 0.019 4.77 16.47 13.58
3/12/2021 8:00:00 AM 1.04 33.872 0.019 4.76 16.23 13.59
3/12/2021 8:15:00 AM 1.05 33.89 0.019 4.76 15.72 13.59
3/12/2021 8:30:00 AM 1.08 33.944 0.018 4.77 15.37 13.6
3/12/2021 8:45:00 AM 1.11 33.998 0.018 4.78 14.73 13.59
3/12/2021 9:00:00 AM 1.15 34.07 0.019 4.75 14.65 13.58
3/12/2021 9:15:00 AM 1.2 34.16 0.019 4.76 14.43 13.58
3/12/2021 9:30:00 AM 1.26 34.268 0.019 4.78 13.81 13.56
3/12/2021 9:45:00 AM 1.33 34.394 0.019 4.78 13.67 13.55
3/12/2021 10:00:00 AM 1.42 34.556 0.019 4.78 13.45 13.53
3/12/2021 10:15:00 AM 1.51 34.718 0.019 4.77 13.16 13.5
3/12/2021 10:30:00 AM 1.6 34.88 0.019 4.78 12.69 13.48
3/12/2021 10:45:00 AM 1.7 35.06 0.018 4.77 12.6 13.44
3/12/2021 11:00:00 AM 1.81 35.258 0.018 4.78 12.45 13.42
3/12/2021 11:15:00 AM 1.92 35.456 0.019 4.76 12.95 13.37
3/12/2021 11:30:00 AM 2.03 35.654 0.019 4.79 12.46 13.34
3/12/2021 11:45:00 AM 2.14 35.852 0.019 4.77 12.47 13.3
3/12/2021 12:00:00 PM 2.26 36.068 0.019 4.79 12 13.26
3/12/2021 12:15:00 PM 2.37 36.266 0.018 4.79 12.68 13.23
3/12/2021 12:30:00 PM 2.48 36.464 0.019 4.8 12.27 13.18
3/12/2021 12:45:00 PM 2.59 36.662 0.019 4.79 12.01 13.14
3/12/2021 1:00:00 PM 2.69 36.842 0.019 4.78 11.97 13.1
3/12/2021 1:15:00 PM 2.79 37.022 0.018 4.8 11.5 13.07
3/12/2021 1:30:00 PM 2.88 37.184 0.018 4.81 11.47 13.03
3/12/2021 1:45:00 PM 2.96 37.328 0.018 4.81 11.82 12.99
3/12/2021 2:00:00 PM 3.03 37.454 0.018 4.8 12.1 12.96
3/12/2021 2:15:00 PM 3.1 37.58 0.018 4.82 11.76 12.93
3/12/2021 2:30:00 PM 3.16 37.688 0.019 4.82 11.65 12.9
3/12/2021 2:45:00 PM 3.21 37.778 0.019 4.8 11.4 12.88
3/12/2021 3:00:00 PM 3.25 37.85 0.02 4.79 11.52 12.85
3/12/2021 3:15:00 PM 3.27 37.886 0.019 4.79 11.6 12.84
3/12/2021 3:30:00 PM 3.29 37.922 0.019 4.8 11.79 12.82
3/12/2021 3:45:00 PM 3.28 37.904 0.019 4.8 12.2 12.81
3/12/2021 4:00:00 PM 3.27 37.886 0.019 4.78 12.14 12.8
3/12/2021 4:15:00 PM 3.25 37.85 0.019 4.78 12.42 12.8
3/12/2021 4:30:00 PM 3.22 37.796 0.019 4.8 12.93 12.8
3/12/2021 4:45:00 PM 3.19 37.742 0.019 4.77 12.44 12.79
3/12/2021 5:00:00 PM 3.15 37.67 0.019 4.77 13.41 12.8
3/12/2021 5:15:00 PM 3.1 37.58 0.019 4.76 13.05 12.81
3/12/2021 5:30:00 PM 3.05 37.49 0.018 4.76 12.67 12.82
3/12/2021 5:45:00 PM 2.99 37.382 0.018 4.76 13.25 12.83
3/12/2021 6:00:00 PM 2.93 37.274 0.018 4.74 12.86 12.84
3/12/2021 6:15:00 PM 2.87 37.166 0.018 4.75 12.42 12.86
3/12/2021 6:30:00 PM 2.81 37.058 0.018 4.75 12.56 12.87
3/12/2021 6:45:00 PM 2.74 36.932 0.018 4.72 12.58 12.9
3/12/2021 7:00:00 PM 2.67 36.806 0.018 4.73 12.33 12.93
3/12/2021 7:15:00 PM 2.6 36.68 0.019 4.74 12.76 12.95
3/12/2021 7:30:00 PM 2.53 36.554 0.018 4.73 12.18 12.98
3/12/2021 7:45:00 PM 2.46 36.428 0.018 4.72 11.84 13
3/12/2021 8:00:00 PM 2.4 36.32 0.017 4.73 11.82 13.03
3/12/2021 8:15:00 PM 2.34 36.212 0.017 4.73 11.68 13.05
3/12/2021 8:30:00 PM 2.28 36.104 0.017 4.74 11.72 13.07
3/12/2021 8:45:00 PM 2.23 36.014 0.018 4.72 11.58 13.1
3/12/2021 9:00:00 PM 2.18 35.924 0.018 4.72 11.39 13.11
3/12/2021 9:15:00 PM 2.14 35.852 0.018 4.71 10.98 13.13
3/12/2021 9:30:00 PM 2.11 35.798 0.018 4.71 10.71 13.15
3/12/2021 9:45:00 PM 2.08 35.744 0.018 4.71 10.63 13.16
3/12/2021 10:00:00 PM 2.05 35.69 0.018 4.74 10.58 13.18
3/12/2021 10:15:00 PM 2.02 35.636 0.018 4.72 10.36 13.19
3/12/2021 10:30:00 PM 1.98 35.564 0.018 4.72 10.14 13.2
3/12/2021 10:45:00 PM 1.95 35.51 0.018 4.72 10.11 13.22
3/12/2021 11:00:00 PM 1.91 35.438 0.018 4.71 10.01 13.22
3/12/2021 11:15:00 PM 1.87 35.366 0.018 4.71 9.85 13.24
3/12/2021 11:30:00 PM 1.84 35.312 0.018 4.7 9.29 13.25
3/12/2021 11:45:00 PM 1.8 35.24 0.017 4.71 9.41 13.27
3/13/2021 12:00:00 AM 1.77 35.186 0.017 4.69 9.27 13.28
3/13/2021 12:15:00 AM 1.73 35.114 0.017 4.7 9.27 13.3
3/13/2021 12:30:00 AM 1.69 35.042 0.017 4.7 8.95 13.31
3/13/2021 12:45:00 AM 1.64 34.952 0.017 4.7 9.11 13.32
3/13/2021 1:00:00 AM 1.6 34.88 0.017 4.7 9.11 13.34
3/13/2021 1:15:00 AM 1.55 34.79 0.017 4.69 9.01 13.37
3/13/2021 1:30:00 AM 1.49 34.682 0.018 4.7 8.88 13.38
3/13/2021 1:45:00 AM 1.44 34.592 0.018 4.7 8.92 13.4
3/13/2021 2:00:00 AM 1.39 34.502 0.018 4.69 8.86 13.43
3/13/2021 2:15:00 AM 1.33 34.394 0.018 4.7 8.97 13.45
3/13/2021 2:30:00 AM 1.28 34.304 0.017 4.7 8.59 13.47
3/13/2021 2:45:00 AM 1.23 34.214 0.017 4.69 8.69 13.49
3/13/2021 3:00:00 AM 1.17 34.106 0.018 4.7 9.08 13.51
3/13/2021 3:15:00 AM 1.12 34.016 0.017 4.7 8.6 13.52
3/13/2021 3:30:00 AM 1.07 33.926 0.017 4.69 8.41 13.54
3/13/2021 3:45:00 AM 1.02 33.836 0.018 4.7 8.33 13.56
3/13/2021 4:00:00 AM 0.98 33.764 0.018 4.69 8.37 13.59
3/13/2021 4:15:00 AM 0.94 33.692 0.017 4.69 8.34 13.6
3/13/2021 4:30:00 AM 0.9 33.62 0.017 4.7 8.07 13.62
3/13/2021 4:45:00 AM 0.86 33.548 0.018 4.7 8.18 13.64
3/13/2021 5:00:00 AM 0.81 33.458 0.018 4.7 7.98 13.65
3/13/2021 5:15:00 AM 0.76 33.368 0.018 4.7 7.95 13.67
3/13/2021 5:30:00 AM 0.73 33.314 0.018 4.69 7.78 13.7
3/13/2021 5:45:00 AM 0.69 33.242 0.018 4.7 7.97 13.71
3/13/2021 6:00:00 AM 0.64 33.152 0.018 4.71 7.68 13.72
3/13/2021 6:15:00 AM 0.6 33.08 0.018 4.69 7.77 13.75
3/13/2021 6:30:00 AM 0.57 33.026 0.018 4.69 7.73 13.76
3/13/2021 6:45:00 AM 0.54 32.972 0.018 4.71 7.46 13.77
3/13/2021 7:00:00 AM 0.52 32.936 0.017 4.7 7.36 13.8
3/13/2021 7:15:00 AM 0.49 32.882 0.018 4.69 7.38 13.79
3/13/2021 7:30:00 AM 0.48 32.864 0.018 4.71 7.43 13.81
3/13/2021 7:45:00 AM 0.46 32.828 0.018 4.71 7.36 13.81
3/13/2021 8:00:00 AM 0.46 32.828 0.018 4.69 7.48 13.83
3/13/2021 8:15:00 AM 0.45 32.81 0.018 4.71 7.36 13.84
3/13/2021 8:30:00 AM 0.47 32.846 0.018 4.71 7.24 13.84
3/13/2021 8:45:00 AM 0.5 32.9 0.018 4.71 7.25 13.85
3/13/2021 9:00:00 AM 0.53 32.954 0.018 4.72 7 13.84
3/13/2021 9:15:00 AM 0.58 33.044 0.018 4.72 7.28 13.84
3/13/2021 9:30:00 AM 0.63 33.134 0.018 4.72 7.25 13.83
3/13/2021 9:45:00 AM 0.71 33.278 0.018 4.74 6.96 13.82
3/13/2021 10:00:00 AM 0.79 33.422 0.018 4.72 6.9 13.8
3/13/2021 10:15:00 AM 0.88 33.584 0.018 4.74 7.09 13.78
3/13/2021 10:30:00 AM 0.98 33.764 0.018 4.72 7.08 13.75
3/13/2021 10:45:00 AM 1.09 33.962 0.018 4.75 6.71 13.72
3/13/2021 11:00:00 AM 1.19 34.142 0.018 4.75 6.54 13.69
3/13/2021 11:15:00 AM 1.3 34.34 0.018 4.75 6.59 13.66
3/13/2021 11:30:00 AM 1.41 34.538 0.018 4.75 6.51 13.63
3/13/2021 11:45:00 AM 1.52 34.736 0.018 4.75 6.48 13.59
3/13/2021 12:00:00 PM 1.64 34.952 0.018 4.77 6.49 13.56
3/13/2021 12:15:00 PM 1.75 35.15 0.017 4.78 6.67 13.51
3/13/2021 12:30:00 PM 1.86 35.348 0.018 4.77 6.76 13.47
3/13/2021 12:45:00 PM 1.98 35.564 0.019 4.79 6.62 13.43
3/13/2021 1:00:00 PM 2.09 35.762 0.019 4.78 6.51 13.38
3/13/2021 1:15:00 PM 2.2 35.96 0.018 4.79 6.64 13.34
3/13/2021 1:30:00 PM 2.29 36.122 0.018 4.81 6.63 13.3
3/13/2021 1:45:00 PM 2.4 36.32 0.018 4.81 6.69 13.25
3/13/2021 2:00:00 PM 2.49 36.482 0.018 4.81 6.52 13.21
3/13/2021 2:15:00 PM 2.57 36.626 0.018 4.81 6.66 13.18
3/13/2021 2:30:00 PM 2.65 36.77 0.018 4.82 6.48 13.14
3/13/2021 2:45:00 PM 2.71 36.878 0.019 4.82 6.29 13.1
3/13/2021 3:00:00 PM 2.76 36.968 0.018 4.84 6.5 13.07
3/13/2021 3:15:00 PM 2.8 37.04 0.018 4.82 6.14 13.04
3/13/2021 3:30:00 PM 2.83 37.094 0.018 4.82 6.13 13.03
3/13/2021 3:45:00 PM 2.85 37.13 0.018 4.83 6.32 13
3/13/2021 4:00:00 PM 2.85 37.13 0.018 4.83 6.21 12.99
3/13/2021 4:15:00 PM 2.85 37.13 0.018 4.84 6.03 12.97
3/13/2021 4:30:00 PM 2.84 37.112 0.018 4.84 6.19 12.96
3/13/2021 4:45:00 PM 2.83 37.094 0.018 4.84 6.29 12.95
3/13/2021 5:00:00 PM 2.8 37.04 0.018 4.85 6.05 12.95
3/13/2021 5:15:00 PM 2.78 37.004 0.018 4.85 6.18 12.94
3/13/2021 5:30:00 PM 2.76 36.968 0.018 4.85 6.04 12.94
3/13/2021 5:45:00 PM 2.74 36.932 0.018 4.84 6.13 12.94
3/13/2021 6:00:00 PM 2.71 36.878 0.019 4.84 6.06 12.94
3/13/2021 6:15:00 PM 2.69 36.842 0.018 4.83 6.29 12.94
3/13/2021 6:30:00 PM 2.66 36.788 0.019 4.84 6.34 12.94
3/13/2021 6:45:00 PM 2.62 36.716 0.019 4.84 6.17 12.95
3/13/2021 7:00:00 PM 2.57 36.626 0.019 4.85 5.98 12.96
3/13/2021 7:15:00 PM 2.52 36.536 0.018 4.84 6.06 12.97
3/13/2021 7:30:00 PM 2.47 36.446 0.019 4.85 5.98 12.99
3/13/2021 7:45:00 PM 2.41 36.338 0.018 4.84 5.81 13.01
3/13/2021 8:00:00 PM 2.35 36.23 0.018 4.85 5.92 13.02
3/13/2021 8:15:00 PM 2.29 36.122 0.019 4.84 6 13.05
3/13/2021 8:30:00 PM 2.23 36.014 0.018 4.84 6.18 13.07
3/13/2021 8:45:00 PM 2.16 35.888 0.018 4.84 5.9 13.09
3/13/2021 9:00:00 PM 2.1 35.78 0.019 4.83 5.72 13.11
3/13/2021 9:15:00 PM 2.03 35.654 0.019 4.84 5.92 13.13
3/13/2021 9:30:00 PM 1.97 35.546 0.019 4.84 5.8 13.16
3/13/2021 9:45:00 PM 1.91 35.438 0.019 4.83 5.62 13.17
3/13/2021 10:00:00 PM 1.85 35.33 0.019 4.83 5.76 13.2
3/13/2021 10:15:00 PM 1.8 35.24 0.019 4.85 5.63 13.21
3/13/2021 10:30:00 PM 1.75 35.15 0.018 4.83 5.71 13.23
3/13/2021 10:45:00 PM 1.7 35.06 0.018 4.82 5.56 13.25
3/13/2021 11:00:00 PM 1.65 34.97 0.019 4.83 5.77 13.26
3/13/2021 11:15:00 PM 1.61 34.898 0.019 4.83 5.55 13.28
3/13/2021 11:30:00 PM 1.57 34.826 0.018 4.83 5.71 13.29
3/13/2021 11:45:00 PM 1.54 34.772 0.019 4.84 5.55 13.3
3/14/2021 12:00:00 AM 1.51 34.718 0.019 4.85 5.76 13.31
3/14/2021 12:15:00 AM 1.49 34.682 0.019 4.84 5.61 13.32
3/14/2021 12:30:00 AM 1.46 34.628 0.019 4.83 5.63 13.33
3/14/2021 12:45:00 AM 1.44 34.592 0.019 4.83 5.55 13.34
3/14/2021 1:00:00 AM 1.42 34.556 0.019 4.83 5.36 13.35
3/14/2021 1:15:00 AM 1.4 34.52 0.019 4.85 5.68 13.35
3/14/2021 1:30:00 AM 1.38 34.484 0.019 4.82 5.55 13.36
3/14/2021 1:45:00 AM 1.36 34.448 0.019 4.84 5.53 13.37
3/14/2021 3:00:00 AM 1.29 34.322 0.019 4.84 5.51 13.39
3/14/2021 3:15:00 AM 1.28 34.304 0.019 4.85 5.18 13.39
3/14/2021 3:30:00 AM 1.25 34.25 0.019 4.85 5.22 13.4
3/14/2021 3:45:00 AM 1.24 34.232 0.019 4.85 5.08 13.4
3/14/2021 4:00:00 AM 1.22 34.196 0.019 4.87 5.25 13.4
3/14/2021 4:15:00 AM 1.21 34.178 0.019 4.85 5.14 13.41
3/14/2021 4:30:00 AM 1.2 34.16 0.019 4.86 5.18 13.42
3/14/2021 4:45:00 AM 1.19 34.142 0.019 4.86 5.26 13.41
3/14/2021 5:00:00 AM 1.19 34.142 0.019 4.84 5.16 13.42
3/14/2021 5:15:00 AM 1.18 34.124 0.019 4.86 5.18 13.42
3/14/2021 5:30:00 AM 1.18 34.124 0.019 4.85 5.16 13.42
3/14/2021 5:45:00 AM 1.16 34.088 0.019 4.86 5.31 13.42
3/14/2021 6:00:00 AM 1.14 34.052 0.019 4.87 5.16 13.43
3/14/2021 6:15:00 AM 1.12 34.016 0.019 4.87 5.11 13.43
3/14/2021 6:30:00 AM 1.1 33.98 0.019 4.84 5.08 13.44
3/14/2021 6:45:00 AM 1.08 33.944 0.019 4.86 5.2 13.45
3/14/2021 7:00:00 AM 1.07 33.926 0.019 4.86 5.02 13.46
3/14/2021 7:15:00 AM 1.06 33.908 0.019 4.9 5.09 13.47
3/14/2021 7:30:00 AM 1.05 33.89 0.019 4.88 5.01 13.48
3/14/2021 7:45:00 AM 1.06 33.908 0.019 4.87 5.17 13.49
3/14/2021 8:00:00 AM 1.08 33.944 0.019 4.89 5.13 13.49
3/14/2021 9:15:00 AM 1.11 33.998 0.019 4.88 5.12 13.49
3/14/2021 9:30:00 AM 1.16 34.088 0.019 4.91 5.16 13.49
3/14/2021 9:45:00 AM 1.23 34.214 0.019 4.87 5.12 13.48
3/14/2021 10:00:00 AM 1.3 34.34 0.019 4.9 4.97 13.47
3/14/2021 10:15:00 AM 1.38 34.484 0.02 4.92 5.08 13.45
3/14/2021 10:30:00 AM 1.48 34.664 0.019 4.91 4.92 13.43
3/14/2021 10:45:00 AM 1.58 34.844 0.02 4.9 4.89 13.4
3/14/2021 11:00:00 AM 1.7 35.06 0.019 4.93 4.84 13.38
3/14/2021 11:15:00 AM 1.81 35.258 0.019 4.93 4.71 13.35
3/14/2021 11:30:00 AM 1.93 35.474 0.02 4.92 4.98 13.33
3/14/2021 11:45:00 AM 2.03 35.654 0.019 4.92 5.03 13.29
3/14/2021 12:00:00 PM 2.15 35.87 0.019 4.92 5 13.25
3/14/2021 12:15:00 PM 2.32 36.176 0.02 4.95 4.91 13.21
3/14/2021 12:30:00 PM 2.48 36.464 0.02 4.95 4.76 13.17
3/14/2021 12:45:00 PM 2.56 36.608 0.02 4.96 4.96 13.14
3/14/2021 1:00:00 PM 2.63 36.734 0.02 4.94 4.88 13.11
3/14/2021 1:15:00 PM 2.67 36.806 0.02 4.96 4.9 13.08
3/14/2021 1:30:00 PM 2.75 36.95 0.02 4.97 5.06 13.06
3/14/2021 1:45:00 PM 2.87 37.166 0.019 4.97 4.8 13.02
3/14/2021 2:00:00 PM 2.87 37.166 0.019 4.99 4.91 13
3/14/2021 2:15:00 PM 2.94 37.292 0.019 4.95 4.78 12.98
3/14/2021 2:30:00 PM 2.96 37.328 0.019 5 4.96 12.95
3/14/2021 2:45:00 PM 2.92 37.256 0.019 4.99 4.69 12.94
3/14/2021 3:00:00 PM 2.89 37.202 0.019 4.99 4.88 12.93
3/14/2021 3:15:00 PM 2.96 37.328 0.019 4.99 4.81 12.92
3/14/2021 3:30:00 PM 3.05 37.49 0.019 5.01 4.98 12.9
3/14/2021 3:45:00 PM 3.09 37.562 0.02 4.97 4.76 12.88
3/14/2021 4:00:00 PM 3.13 37.634 0.019 4.99 4.67 12.86
3/14/2021 4:15:00 PM 3.12 37.616 0.02 4.99 4.76 12.84
3/14/2021 4:30:00 PM 3.14 37.652 0.02 4.99 4.76 12.83
3/14/2021 4:45:00 PM 3.12 37.616 0.02 5.01 4.77 12.84
3/14/2021 5:00:00 PM 3.1 37.58 0.02 4.99 4.89 12.83
3/14/2021 5:15:00 PM 3.12 37.616 0.02 5.01 4.59 12.83
3/14/2021 5:30:00 PM 3.07 37.526 0.02 5.02 4.65 12.82
3/14/2021 5:45:00 PM 3.04 37.472 0.019 5.02 5.04 12.83
3/14/2021 6:00:00 PM 3 37.4 0.02 5.01 4.96 12.83
3/14/2021 6:15:00 PM 2.92 37.256 0.02 4.98 4.65 12.85
3/14/2021 6:30:00 PM 2.82 37.076 0.019 4.97 4.96 12.86
3/14/2021 6:45:00 PM 2.74 36.932 0.02 4.99 4.76 12.87
3/14/2021 7:00:00 PM 2.65 36.77 0.02 4.99 4.76 12.89
3/14/2021 7:15:00 PM 2.58 36.644 0.02 5 4.75 12.91
3/14/2021 7:30:00 PM 2.49 36.482 0.02 4.96 4.62 12.93
3/14/2021 7:45:00 PM 2.41 36.338 0.02 4.97 6.28 12.95
3/14/2021 8:00:00 PM 2.33 36.194 0.019 4.99 4.7 12.98
3/14/2021 8:15:00 PM 2.25 36.05 0.02 4.96 4.7 13.01
3/14/2021 8:30:00 PM 2.17 35.906 0.02 4.98 4.77 13.04
3/14/2021 8:45:00 PM 2.11 35.798 0.02 4.99 4.64 13.06
3/14/2021 9:00:00 PM 2.02 35.636 0.02 4.99 4.53 13.09
3/14/2021 9:15:00 PM 1.95 35.51 0.02 4.95 4.56 13.12
3/14/2021 9:30:00 PM 1.89 35.402 0.02 4.98 4.7 13.15
3/14/2021 9:45:00 PM 1.82 35.276 0.02 4.96 4.67 13.17
3/14/2021 10:00:00 PM 1.74 35.132 0.02 4.99 4.68 13.2
3/14/2021 10:15:00 PM 1.67 35.006 0.02 4.96 4.67 13.24
3/14/2021 10:30:00 PM 1.59 34.862 0.02 4.96 4.76 13.26
3/14/2021 10:45:00 PM 1.51 34.718 0.02 4.99 4.73 13.3
3/14/2021 11:00:00 PM 1.43 34.574 0.02 4.97 4.75 13.33
3/14/2021 11:15:00 PM 1.35 34.43 0.02 4.98 4.72 13.36
3/14/2021 11:30:00 PM 1.28 34.304 0.02 4.98 4.58 13.4
3/14/2021 11:45:00 PM 1.2 34.16 0.02 4.98 4.7 13.43
3/15/2021 12:00:00 AM 1.12 34.016 0.02 4.96 4.64 13.46
3/15/2021 12:15:00 AM 1.05 33.89 0.02 4.98 4.58 13.49
3/15/2021 12:30:00 AM 0.98 33.764 0.02 4.98 4.52 13.52
3/15/2021 12:45:00 AM 0.92 33.656 0.02 4.98 4.57 13.55
3/15/2021 1:00:00 AM 0.88 33.584 0.02 4.99 4.43 13.57
3/15/2021 1:15:00 AM 0.82 33.476 0.021 4.96 4.52 13.59
3/15/2021 1:30:00 AM 0.77 33.386 0.02 4.97 4.65 13.63
3/15/2021 1:45:00 AM 0.72 33.296 0.021 4.99 4.42 13.63
3/15/2021 2:00:00 AM 0.67 33.206 0.02 4.96 4.5 13.67
3/15/2021 2:15:00 AM 0.63 33.134 0.02 4.99 4.53 13.69
3/15/2021 2:30:00 AM 0.58 33.044 0.02 5 4.6 13.69
3/15/2021 2:45:00 AM 0.53 32.954 0.02 4.97 4.39 13.73
3/15/2021 3:00:00 AM 0.49 32.882 0.02 4.99 4.35 13.74
3/15/2021 3:15:00 AM 0.42 32.756 0.02 5 4.39 13.76
3/15/2021 3:30:00 AM 0.35 32.63 0.02 5.01 4.54 13.78
3/15/2021 3:45:00 AM 0.28 32.504 0.02 4.99 4.51 13.81
3/15/2021 4:00:00 AM 0.23 32.414 0.021 4.99 4.5 13.83
3/15/2021 4:15:00 AM 0.16 32.288 0.021 5 4.46 13.86
3/15/2021 4:30:00 AM 0.09 32.162 0.02 5.01 4.44 13.88
3/15/2021 4:45:00 AM 0.02 32.036 0.021 5 4.38 13.9
3/15/2021 5:00:00 AM -0.05 31.91 0.02 5 4.36 13.93
3/15/2021 5:15:00 AM -0.1 31.82 0.021 5 4.39 13.95
3/15/2021 5:30:00 AM -0.1 31.82 0.021 5 4.59 13.97
3/15/2021 5:45:00 AM -0.1 31.82 0.021 4.97 4.4 13.99
3/15/2021 6:00:00 AM -0.09 31.838 0.021 5 4.58 14.01
3/15/2021 6:15:00 AM -0.09 31.838 0.021 4.94 4.41 14.01
3/15/2021 6:30:00 AM -0.09 31.838 0.021 4.9 4.56 14.03
3/15/2021 6:45:00 AM -0.09 31.838 0.021 4.92 4.52 14.03
3/15/2021 7:00:00 AM -0.09 31.838 0.021 4.93 4.51 14.04
3/15/2021 7:15:00 AM -0.09 31.838 0.022 4.95 4.48 14.04
3/15/2021 7:30:00 AM -0.09 31.838 0.022 4.97 4.64 14.05
3/15/2021 7:45:00 AM -0.09 31.838 0.021 4.97 4.42 14.06
3/15/2021 8:00:00 AM -0.09 31.838 0.022 5 4.58 14.06
3/15/2021 8:15:00 AM -0.09 31.838 0.022 5.02 4.58 14.07
3/15/2021 8:30:00 AM -0.09 31.838 0.022 5.04 4.64 14.07
3/15/2021 8:45:00 AM -0.08 31.856 0.022 5.04 4.26 14.08
3/15/2021 9:00:00 AM -0.08 31.856 0.022 5.02 4.42 14.07
3/15/2021 9:15:00 AM -0.08 31.856 0.022 5.02 4.39 14.08
3/15/2021 9:30:00 AM -0.07 31.874 0.023 4.99 4.18 14.08
3/15/2021 9:45:00 AM -0.07 31.874 0.022 4.98 4.49 14.08
3/15/2021 10:00:00 AM -0.07 31.874 0.022 5.04 4.48 14.07
3/15/2021 10:15:00 AM -0.07 31.874 0.022 5.09 4.43 14.06
3/15/2021 10:30:00 AM -0.05 31.91 0.022 5.03 4.69 14.05
3/15/2021 10:45:00 AM -0.03 31.946 0.022 5 4.71 14.04
3/15/2021 11:00:00 AM 0.03 32.054 0.022 5.02 4.93 14.03
3/15/2021 11:15:00 AM 0.1 32.18 0.022 5 4.67 14.02
3/15/2021 11:30:00 AM 0.18 32.324 0.022 5.02 4.65 14.02
3/15/2021 11:45:00 AM 0.31 32.558 0.022 5.06 4.62 13.99
3/15/2021 12:00:00 PM 0.4 32.72 0.021 5.08 4.38 13.98
3/15/2021 12:15:00 PM 0.47 32.846 0.021 5.1 4.49 13.96
3/15/2021 12:30:00 PM 0.55 32.99 0.021 5.07 4.77 13.95
3/15/2021 12:45:00 PM 0.64 33.152 0.021 5.07 5.1 13.9
3/15/2021 1:00:00 PM 0.87 33.566 0.021 5.09 4.45 13.83
3/15/2021 1:15:00 PM 1.1 33.98 0.021 5.09 4.58 13.77
3/15/2021 1:30:00 PM 1.27 34.286 0.021 5.1 4.7 13.72
3/15/2021 1:45:00 PM 1.41 34.538 0.021 5.05 4.82 13.68
3/15/2021 2:00:00 PM 1.49 34.682 0.021 4.98 4.81 13.65
3/15/2021 2:15:00 PM 1.56 34.808 0.02 4.98 5.02 13.63
3/15/2021 2:30:00 PM 1.63 34.934 0.02 4.98 5.1 13.61
3/15/2021 2:45:00 PM 1.68 35.024 0.02 5.01 5.06 13.59
3/15/2021 3:00:00 PM 1.73 35.114 0.019 5.01 5.29 13.57
3/15/2021 3:15:00 PM 1.77 35.186 0.02 5.02 5.04 13.55
3/15/2021 3:30:00 PM 1.79 35.222 0.02 5.05 4.86 13.54
3/15/2021 3:45:00 PM 1.81 35.258 0.02 5.05 4.73 13.52
3/15/2021 4:00:00 PM 1.82 35.276 0.021 5.05 4.81 13.5
3/15/2021 4:15:00 PM 1.81 35.258 0.021 5.05 4.83 13.48
3/15/2021 4:30:00 PM 1.75 35.15 0.021 5.06 4.98 13.48
3/15/2021 4:45:00 PM 1.69 35.042 0.021 5.08 4.89 13.48
3/15/2021 5:00:00 PM 1.67 35.006 0.02 5.08 4.74 13.48
3/15/2021 5:15:00 PM 1.64 34.952 0.021 5.1 4.94 13.48
3/15/2021 5:30:00 PM 1.58 34.844 0.021 5.09 4.89 13.49
3/15/2021 5:45:00 PM 1.52 34.736 0.021 5.09 4.85 13.49
3/15/2021 6:00:00 PM 1.46 34.628 0.021 5.1 4.82 13.49
3/15/2021 6:15:00 PM 1.41 34.538 0.021 5.09 4.7 13.49
3/15/2021 6:30:00 PM 1.36 34.448 0.021 5.09 4.63 13.49
3/15/2021 6:45:00 PM 1.3 34.34 0.021 5.08 4.6 13.49
3/15/2021 7:00:00 PM 1.26 34.268 0.021 5.09 4.65 13.49
3/15/2021 7:15:00 PM 1.24 34.232 0.021 5.09 4.55 13.49
3/15/2021 7:30:00 PM 1.22 34.196 0.021 5.08 4.56 13.48
3/15/2021 7:45:00 PM 1.21 34.178 0.021 5.09 4.59 13.49
3/15/2021 8:00:00 PM 1.2 34.16 0.021 5.09 4.47 13.48
3/15/2021 8:15:00 PM 1.2 34.16 0.021 5.09 4.61 13.48
3/15/2021 8:30:00 PM 1.19 34.142 0.021 5.09 4.5 13.48
3/15/2021 8:45:00 PM 1.18 34.124 0.021 5.09 4.44 13.48
3/15/2021 9:00:00 PM 1.18 34.124 0.021 5.08 4.31 13.48
3/15/2021 9:15:00 PM 1.17 34.106 0.021 5.09 4.4 13.49
3/15/2021 9:30:00 PM 1.15 34.07 0.021 5.09 4.25 13.49
3/15/2021 9:45:00 PM 1.14 34.052 0.021 5.09 4.36 13.48
3/15/2021 10:00:00 PM 1.12 34.016 0.021 5.09 4.54 13.49
3/15/2021 10:15:00 PM 1.09 33.962 0.021 5.08 4.32 13.5
3/15/2021 10:30:00 PM 1.07 33.926 0.021 5.08 4.32 13.51
3/15/2021 10:45:00 PM 1.04 33.872 0.021 5.09 4.13 13.52
3/15/2021 11:00:00 PM 0.99 33.782 0.021 5.08 4.34 13.55
3/15/2021 11:15:00 PM 0.96 33.728 0.022 5.08 4.25 13.56
3/15/2021 11:30:00 PM 0.92 33.656 0.021 5.08 4.33 13.58
3/15/2021 11:45:00 PM 0.87 33.566 0.021 5.08 4.29 13.6
3/16/2021 12:00:00 AM 0.84 33.512 0.021 5.07 4.39 13.61
3/16/2021 12:15:00 AM 0.8 33.44 0.021 5.05 4.37 13.63
3/16/2021 12:30:00 AM 0.76 33.368 0.021 5.05 4.5 13.65
3/16/2021 12:45:00 AM 0.73 33.314 0.021 5.03 4.51 13.66
3/16/2021 1:00:00 AM 0.69 33.242 0.021 5.04 4.19 13.67
3/16/2021 1:15:00 AM 0.67 33.206 0.021 5.05 4.33 13.69
3/16/2021 1:30:00 AM 0.63 33.134 0.021 5.07 4.17 13.7
3/16/2021 1:45:00 AM 0.6 33.08 0.022 5.06 4.33 13.72
3/16/2021 2:00:00 AM 0.57 33.026 0.021 5.07 4.21 13.71
3/16/2021 2:15:00 AM 0.55 32.99 0.022 5.06 4.24 13.73
3/16/2021 2:30:00 AM 0.53 32.954 0.021 5.07 4.17 13.73
3/16/2021 2:45:00 AM 0.51 32.918 0.022 5.07 4.15 13.75
3/16/2021 3:00:00 AM 0.49 32.882 0.021 5.07 4.23 13.74
3/16/2021 3:15:00 AM 0.48 32.864 0.021 5.05 4.2 13.75
3/16/2021 3:30:00 AM 0.46 32.828 0.021 5.04 4.25 13.77
3/16/2021 3:45:00 AM 0.45 32.81 0.021 5.04 4.22 13.76
3/16/2021 4:00:00 AM 0.43 32.774 0.021 5.06 4.19 13.76
3/16/2021 4:15:00 AM 0.42 32.756 0.022 5.06 4.21 13.77
3/16/2021 4:30:00 AM 0.41 32.738 0.022 5.06 4.34 13.77
3/16/2021 4:45:00 AM 0.4 32.72 0.022 5.07 4.18 13.77
3/16/2021 5:00:00 AM 0.4 32.72 0.021 5.07 4.13 13.79
3/16/2021 5:15:00 AM 0.39 32.702 0.022 5.05 4.07 13.78
3/16/2021 5:30:00 AM 0.39 32.702 0.022 5.07 4.31 13.77
3/16/2021 5:45:00 AM 0.39 32.702 0.022 5.06 4.16 13.78
3/16/2021 6:00:00 AM 0.38 32.684 0.022 5.07 4.19 13.78
3/16/2021 6:15:00 AM 0.38 32.684 0.022 5.04 4.26 13.78
3/16/2021 6:30:00 AM 0.36 32.648 0.022 5.03 4.17 13.79
3/16/2021 6:45:00 AM 0.35 32.63 0.022 5.05 4.05 13.79
3/16/2021 7:00:00 AM 0.35 32.63 0.022 5.04 4.03 13.78
3/16/2021 7:15:00 AM 0.35 32.63 0.022 5.05 4.28 13.77
3/16/2021 7:30:00 AM 0.36 32.648 0.022 5.06 3.98 13.78
3/16/2021 7:45:00 AM 0.37 32.666 0.022 5.05 3.96 13.78
3/16/2021 8:00:00 AM 0.38 32.684 0.022 5.06 4.03 13.79
3/16/2021 8:15:00 AM 0.38 32.684 0.022 5.03 4.33 13.78
3/16/2021 8:30:00 AM 0.39 32.702 0.022 5.03 4.11 13.79
3/16/2021 8:45:00 AM 0.41 32.738 0.022 5.04 4.18 13.8
3/16/2021 9:00:00 AM 0.43 32.774 0.022 5.05 4.21 13.78
3/16/2021 9:15:00 AM 0.46 32.828 0.022 5.09 4.05 13.78
3/16/2021 9:30:00 AM 0.49 32.882 0.022 5.11 4.11 13.78
3/16/2021 9:45:00 AM 0.52 32.936 0.022 5.12 4.45 13.79
3/16/2021 10:00:00 AM 0.57 33.026 0.022 5.12 3.85 13.79
3/16/2021 10:15:00 AM 0.6 33.08 0.022 5.12 4.04 13.76
3/16/2021 10:30:00 AM 0.63 33.134 0.022 5.11 3.95 13.76
3/16/2021 10:45:00 AM 0.67 33.206 0.022 5.11 3.89 13.75
3/16/2021 11:00:00 AM 0.7 33.26 0.022 5.12 4.01 13.74
3/16/2021 11:15:00 AM 0.71 33.278 0.022 5.13 3.83 13.73
3/16/2021 11:30:00 AM 0.71 33.278 0.022 5.1 3.94 13.74
3/16/2021 11:45:00 AM 0.72 33.296 0.022 5.06 3.95 13.72
3/16/2021 12:00:00 PM 0.74 33.332 0.022 5.05 4.03 13.73
3/16/2021 12:15:00 PM 0.77 33.386 0.022 5.06 4.02 13.71
3/16/2021 12:30:00 PM 0.81 33.458 0.022 5.05 3.91 13.71
3/16/2021 12:45:00 PM 0.85 33.53 0.022 5.1 3.92 13.71
3/16/2021 1:00:00 PM 0.88 33.584 0.022 5.12 3.99 13.69
3/16/2021 1:15:00 PM 0.91 33.638 0.022 5.13 3.94 13.68
3/16/2021 1:30:00 PM 0.91 33.638 0.022 5.14 4.01 13.68
3/16/2021 1:45:00 PM 0.92 33.656 0.022 5.14 4.02 13.67
3/16/2021 2:00:00 PM 0.92 33.656 0.022 5.14 3.9 13.66
3/16/2021 2:15:00 PM 0.92 33.656 0.022 5.14 3.85 13.67
3/16/2021 2:30:00 PM 0.93 33.674 0.022 5.14 3.9 13.65
3/16/2021 2:45:00 PM 0.93 33.674 0.022 5.13 4.02 13.65
3/16/2021 3:00:00 PM 0.96 33.728 0.022 5.16 3.91 13.64
3/16/2021 3:15:00 PM 0.98 33.764 0.022 5.13 3.9 13.64
3/16/2021 3:30:00 PM 1 33.8 0.022 5.12 4.01 13.63
3/16/2021 3:45:00 PM 1 33.8 0.022 5.14 3.96 13.62
3/16/2021 4:00:00 PM 1.01 33.818 0.022 5.14 3.94 13.61
3/16/2021 4:15:00 PM 1.01 33.818 0.022 5.14 3.78 13.6
3/16/2021 4:30:00 PM 1.02 33.836 0.022 5.14 4.18 13.6
3/16/2021 4:45:00 PM 1.01 33.818 0.022 5.14 3.84 13.6
3/16/2021 5:00:00 PM 1 33.8 0.022 5.15 3.97 13.59
3/16/2021 5:15:00 PM 1 33.8 0.022 5.15 3.88 13.59
3/16/2021 5:30:00 PM 1.01 33.818 0.022 5.14 3.9 13.58
3/16/2021 5:45:00 PM 1.01 33.818 0.022 5.15 3.99 13.58
3/16/2021 6:00:00 PM 1.01 33.818 0.022 5.15 3.99 13.57
3/16/2021 6:15:00 PM 1.01 33.818 0.022 5.16 4.06 13.57
3/16/2021 6:30:00 PM 1.01 33.818 0.022 5.16 3.93 13.56
3/16/2021 6:45:00 PM 1.01 33.818 0.022 5.15 3.98 13.55
3/16/2021 7:00:00 PM 1.02 33.836 0.022 5.14 3.87 13.54
3/16/2021 7:15:00 PM 1.01 33.818 0.022 5.14 4 13.53
3/16/2021 7:30:00 PM 1.01 33.818 0.022 5.12 3.95 13.53
3/16/2021 7:45:00 PM 1 33.8 0.022 5.13 4.02 13.52
3/16/2021 8:00:00 PM 1 33.8 0.022 5.13 4.07 13.52
3/16/2021 8:15:00 PM 1 33.8 0.022 5.13 3.97 13.51
3/16/2021 8:30:00 PM 1 33.8 0.022 5.14 4 13.52
3/16/2021 8:45:00 PM 0.99 33.782 0.022 5.13 3.97 13.52
3/16/2021 9:00:00 PM 0.99 33.782 0.023 5.13 4.04 13.51
3/16/2021 9:15:00 PM 0.98 33.764 0.022 5.11 4.08 13.52
3/16/2021 9:30:00 PM 0.98 33.764 0.022 5.13 4.24 13.51
3/16/2021 9:45:00 PM 0.98 33.764 0.022 5.12 4.1 13.51
3/16/2021 10:00:00 PM 0.98 33.764 0.022 5.07 3.98 13.52
3/16/2021 10:15:00 PM 0.98 33.764 0.022 5.07 4.01 13.52
3/16/2021 10:30:00 PM 0.98 33.764 0.022 5.07 4.05 13.52
3/16/2021 10:45:00 PM 0.98 33.764 0.022 5.07 4.02 13.52
3/16/2021 11:00:00 PM 0.98 33.764 0.022 5.05 3.96 13.52
3/16/2021 11:15:00 PM 0.98 33.764 0.022 5.07 4.08 13.53
3/16/2021 11:30:00 PM 0.99 33.782 0.022 5.08 3.93 13.52
3/16/2021 11:45:00 PM 0.99 33.782 0.023 5.08 3.92 13.52
3/17/2021 12:00:00 AM 0.99 33.782 0.023 5.07 3.96 13.52
3/17/2021 12:15:00 AM 1 33.8 0.022 5.09 4.02 13.51
3/17/2021 12:30:00 AM 1 33.8 0.022 5.09 4.07 13.51
3/17/2021 12:45:00 AM 1 33.8 0.023 5.1 4.02 13.51
3/17/2021 1:00:00 AM 1 33.8 0.022 5.1 4.12 13.51
3/17/2021 1:15:00 AM 1 33.8 0.022 5.1 3.94 13.51
3/17/2021 1:30:00 AM 1 33.8 0.022 5.07 4.13 13.51
3/17/2021 1:45:00 AM 1.01 33.818 0.023 5.09 3.97 13.5
3/17/2021 2:00:00 AM 1.01 33.818 0.022 5.1 4.06 13.51
3/17/2021 2:15:00 AM 1.01 33.818 0.023 5.12 3.99 13.5
3/17/2021 2:30:00 AM 1.01 33.818 0.022 5.1 3.94 13.51
3/17/2021 2:45:00 AM 1.01 33.818 0.023 5.09 3.97 13.5
3/17/2021 3:00:00 AM 1.01 33.818 0.023 5.09 4.05 13.5
3/17/2021 3:15:00 AM 1.01 33.818 0.023 5.09 3.98 13.5
3/17/2021 3:30:00 AM 1.01 33.818 0.023 5.1 4.02 13.5
3/17/2021 3:45:00 AM 1.02 33.836 0.023 5.11 3.87 13.51
3/17/2021 4:00:00 AM 1.02 33.836 0.023 5.11 3.94 13.5
3/17/2021 4:15:00 AM 1.02 33.836 0.023 5.11 3.93 13.5
3/17/2021 4:30:00 AM 1.02 33.836 0.023 5.11 3.94 13.5
3/17/2021 4:45:00 AM 1.03 33.854 0.022 5.1 4.05 13.5
3/17/2021 5:00:00 AM 1.03 33.854 0.022 5.1 4.07 13.5
3/17/2021 5:15:00 AM 1.03 33.854 0.023 5.1 3.98 13.5
3/17/2021 5:30:00 AM 1.04 33.872 0.023 5.12 4.06 13.49
3/17/2021 5:45:00 AM 1.04 33.872 0.023 5.12 4.03 13.5
3/17/2021 6:00:00 AM 1.04 33.872 0.023 5.11 4 13.5
3/17/2021 6:15:00 AM 1.05 33.89 0.022 5.13 3.97 13.49
3/17/2021 6:30:00 AM 1.05 33.89 0.023 5.13 4.06 13.49
3/17/2021 6:45:00 AM 1.05 33.89 0.023 5.13 3.92 13.49
3/17/2021 7:00:00 AM 1.06 33.908 0.023 5.12 3.89 13.49
3/17/2021 7:15:00 AM 1.05 33.89 0.023 5.12 3.97 13.5
3/17/2021 7:30:00 AM 1.06 33.908 0.023 5.12 3.98 13.5
3/17/2021 7:45:00 AM 1.07 33.926 0.023 5.12 3.94 13.5
3/17/2021 8:00:00 AM 1.08 33.944 0.022 5.11 4.03 13.5
3/17/2021 8:15:00 AM 1.09 33.962 0.022 5.13 3.93 13.5
3/17/2021 8:30:00 AM 1.11 33.998 0.023 5.14 3.98 13.51
3/17/2021 8:45:00 AM 1.14 34.052 0.022 5.13 3.86 13.52
3/17/2021 9:00:00 AM 1.17 34.106 0.023 5.15 3.96 13.52
3/17/2021 9:15:00 AM 1.2 34.16 0.023 5.15 4.09 13.52
3/17/2021 9:30:00 AM 1.24 34.232 0.023 5.13 3.92 13.52
3/17/2021 9:45:00 AM 1.27 34.286 0.023 5.13 4 13.51
3/17/2021 10:00:00 AM 1.31 34.358 0.023 5.15 3.98 13.51
3/17/2021 10:15:00 AM 1.35 34.43 0.023 5.13 3.79 13.5
3/17/2021 10:30:00 AM 1.4 34.52 0.023 5.14 3.94 13.49
3/17/2021 10:45:00 AM 1.46 34.628 0.023 5.15 3.92 13.48
3/17/2021 11:00:00 AM 1.52 34.736 0.023 5.16 3.96 13.47
3/17/2021 11:15:00 AM 1.59 34.862 0.023 5.17 3.9 13.44
3/17/2021 11:30:00 AM 1.66 34.988 0.023 5.16 3.91 13.43
3/17/2021 11:45:00 AM 1.74 35.132 0.023 5.16 3.98 13.42
3/17/2021 12:00:00 PM 1.83 35.294 0.023 5.19 3.95 13.4
3/17/2021 12:15:00 PM 1.94 35.492 0.023 5.17 3.86 13.37
3/17/2021 12:30:00 PM 2.05 35.69 0.023 5.17 3.97 13.34
3/17/2021 12:45:00 PM 2.18 35.924 0.023 5.19 4.01 13.31
3/17/2021 1:00:00 PM 2.34 36.212 0.023 5.18 3.91 13.28
3/17/2021 1:15:00 PM 2.52 36.536 0.023 5.2 3.79 13.23
3/17/2021 1:30:00 PM 2.72 36.896 0.023 5.22 3.86 13.18
3/17/2021 1:45:00 PM 2.92 37.256 0.023 5.22 3.91 13.13
3/17/2021 2:00:00 PM 3.13 37.634 0.023 5.22 3.98 13.07
3/17/2021 2:15:00 PM 3.3 37.94 0.023 5.24 3.96 13.02
3/17/2021 2:30:00 PM 3.44 38.192 0.023 5.24 4.05 12.96
3/17/2021 2:45:00 PM 3.58 38.444 0.023 5.24 4.21 12.92
3/17/2021 3:00:00 PM 3.71 38.678 0.023 5.24 3.92 12.87
3/17/2021 3:15:00 PM 3.82 38.876 0.023 5.25 4.01 12.82
3/17/2021 3:30:00 PM 3.92 39.056 0.023 5.26 3.93 12.77
3/17/2021 3:45:00 PM 3.98 39.164 0.023 5.27 3.85 12.74
3/17/2021 4:00:00 PM 4.02 39.236 0.023 5.26 3.99 12.71
3/17/2021 4:15:00 PM 4.04 39.272 0.023 5.24 3.9 12.69
3/17/2021 4:30:00 PM 4.03 39.254 0.023 5.23 3.95 12.67
3/17/2021 4:45:00 PM 4.02 39.236 0.023 5.25 3.99 12.67
3/17/2021 5:00:00 PM 3.98 39.164 0.023 5.23 4.23 12.66
3/17/2021 5:15:00 PM 3.89 39.002 0.023 5.23 4.02 12.68
3/17/2021 5:30:00 PM 3.83 38.894 0.023 5.24 4.16 12.67
3/17/2021 5:45:00 PM 3.75 38.75 0.023 5.23 4.02 12.69
3/17/2021 6:00:00 PM 3.67 38.606 0.023 5.23 4.41 12.69
3/17/2021 6:15:00 PM 3.58 38.444 0.023 5.22 4.31 12.71
3/17/2021 6:30:00 PM 3.49 38.282 0.023 5.22 4.32 12.71
3/17/2021 6:45:00 PM 3.43 38.174 0.023 5.21 4.32 12.71
3/17/2021 7:00:00 PM 3.37 38.066 0.023 5.21 4.43 12.71
3/17/2021 7:15:00 PM 3.33 37.994 0.023 5.22 4.36 12.71
3/17/2021 7:30:00 PM 3.28 37.904 0.023 5.22 4.34 12.71
3/17/2021 7:45:00 PM 3.23 37.814 0.023 5.22 4.2 12.71
3/17/2021 8:00:00 PM 3.16 37.688 0.023 5.23 4.27 12.72
3/17/2021 8:15:00 PM 3.11 37.598 0.023 5.2 4.3 12.73
3/17/2021 8:30:00 PM 3.06 37.508 0.023 5.21 4.13 12.73
3/17/2021 8:45:00 PM 3.03 37.454 0.023 5.22 4.36 12.74
3/17/2021 9:00:00 PM 3.02 37.436 0.023 5.21 4.27 12.75
3/17/2021 9:15:00 PM 3 37.4 0.023 5.2 4.36 12.76
3/17/2021 9:30:00 PM 2.99 37.382 0.023 5.22 4.33 12.76
3/17/2021 9:45:00 PM 2.99 37.382 0.023 5.2 4.13 12.76
3/17/2021 10:00:00 PM 2.99 37.382 0.022 5.21 4.17 12.75
3/17/2021 10:15:00 PM 2.99 37.382 0.023 5.22 4.25 12.75
3/17/2021 10:30:00 PM 2.99 37.382 0.023 5.22 4.27 12.76
3/17/2021 10:45:00 PM 3 37.4 0.023 5.22 4.21 12.75
3/17/2021 11:00:00 PM 3 37.4 0.022 5.22 4.16 12.76
3/17/2021 11:15:00 PM 3 37.4 0.022 5.21 4.32 12.74
3/17/2021 11:30:00 PM 3.01 37.418 0.023 5.21 4.02 12.75
3/17/2021 11:45:00 PM 3.02 37.436 0.023 5.19 4 12.75
3/18/2021 12:00:00 AM 3.02 37.436 0.023 5.22 4.09 12.74
3/18/2021 12:15:00 AM 3.02 37.436 0.023 5.22 4.07 12.74
3/18/2021 12:30:00 AM 3.03 37.454 0.023 5.22 4.13 12.73
3/18/2021 12:45:00 AM 3.03 37.454 0.023 5.21 4.15 12.74
3/18/2021 1:00:00 AM 3.03 37.454 0.023 5.2 4.13 12.72
3/18/2021 1:15:00 AM 3.03 37.454 0.023 5.21 4.01 12.73
3/18/2021 1:30:00 AM 3.03 37.454 0.023 5.21 4.38 12.73
3/18/2021 1:45:00 AM 3.03 37.454 0.023 5.22 3.94 12.72
3/18/2021 2:00:00 AM 3.02 37.436 0.022 5.22 4.14 12.73
3/18/2021 2:15:00 AM 3.02 37.436 0.022 5.23 4.18 12.74
3/18/2021 2:30:00 AM 3.01 37.418 0.022 5.2 4.03 12.74
3/18/2021 2:45:00 AM 3 37.4 0.022 5.22 4.02 12.75
3/18/2021 3:00:00 AM 2.98 37.364 0.022 5.21 4.02 12.74
3/18/2021 3:15:00 AM 2.98 37.364 0.023 5.2 3.94 12.75
3/18/2021 3:30:00 AM 2.96 37.328 0.023 5.19 4.07 12.75
3/18/2021 3:45:00 AM 2.95 37.31 0.023 5.19 4.07 12.75
3/18/2021 4:00:00 AM 2.93 37.274 0.023 5.2 4.03 12.76
3/18/2021 4:15:00 AM 2.92 37.256 0.023 5.21 4.09 12.77
3/18/2021 4:30:00 AM 2.9 37.22 0.023 5.2 4.09 12.77
3/18/2021 4:45:00 AM 2.88 37.184 0.022 5.22 4.07 12.78
3/18/2021 5:00:00 AM 2.87 37.166 0.023 5.19 4.11 12.77
3/18/2021 5:15:00 AM 2.86 37.148 0.023 5.2 3.99 12.77
3/18/2021 5:30:00 AM 2.84 37.112 0.022 5.2 4.16 12.78
3/18/2021 5:45:00 AM 2.82 37.076 0.023 5.2 4.11 12.79
3/18/2021 6:00:00 AM 2.81 37.058 0.023 5.2 3.98 12.79
3/18/2021 6:15:00 AM 2.8 37.04 0.023 5.2 3.97 12.79
3/18/2021 6:30:00 AM 2.78 37.004 0.023 5.19 4.05 12.8
3/18/2021 6:45:00 AM 2.77 36.986 0.023 5.18 4.01 12.81
3/18/2021 7:00:00 AM 2.77 36.986 0.023 5.18 4.03 12.8
3/18/2021 7:15:00 AM 2.76 36.968 0.023 5.21 4.05 12.81
3/18/2021 7:30:00 AM 2.75 36.95 0.023 5.19 3.88 12.81
3/18/2021 7:45:00 AM 2.74 36.932 0.023 5.2 4.05 12.82
3/18/2021 8:00:00 AM 2.74 36.932 0.023 5.2 3.99 12.82
3/18/2021 8:15:00 AM 2.73 36.914 0.023 5.23 4.06 12.82
3/18/2021 8:30:00 AM 2.73 36.914 0.023 5.21 4.03 12.83
3/18/2021 8:45:00 AM 2.73 36.914 0.023 5.2 4.07 12.84
3/18/2021 9:00:00 AM 2.73 36.914 0.023 5.21 4.39 12.84
3/18/2021 9:15:00 AM 2.73 36.914 0.024 5.21 4.58 12.84
3/18/2021 9:30:00 AM 2.73 36.914 0.024 5.22 4.78 12.85
3/18/2021 9:45:00 AM 2.74 36.932 0.024 5.24 5.05 12.85
3/18/2021 10:00:00 AM 2.75 36.95 0.024 5.23 4.72 12.86
3/18/2021 10:15:00 AM 2.75 36.95 0.024 5.23 4.74 12.85
3/18/2021 10:30:00 AM 2.76 36.968 0.024 5.22 4.64 12.86
3/18/2021 10:45:00 AM 2.78 37.004 0.024 5.22 5.39 12.85
3/18/2021 11:00:00 AM 2.79 37.022 0.024 5.22 5.69 12.85
3/18/2021 11:15:00 AM 2.81 37.058 0.025 5.22 6.39 12.85
3/18/2021 11:30:00 AM 2.82 37.076 0.025 5.24 6.64 12.85
3/18/2021 11:45:00 AM 2.84 37.112 0.025 5.23 6.82 12.84
3/18/2021 12:00:00 PM 2.87 37.166 0.025 5.23 6.06 12.85
3/18/2021 12:15:00 PM 2.9 37.22 0.025 5.24 6.29 12.85
3/18/2021 12:30:00 PM 2.93 37.274 0.024 5.25 6.34 12.85
3/18/2021 12:45:00 PM 2.95 37.31 0.025 5.26 6.52 12.84
3/18/2021 1:00:00 PM 2.98 37.364 0.024 5.26 7.33 12.85
3/18/2021 1:15:00 PM 3.01 37.418 0.024 5.26 7.13 12.84
3/18/2021 1:30:00 PM 3.04 37.472 0.024 5.26 8.16 12.83
3/18/2021 1:45:00 PM 3.06 37.508 0.024 5.22 9 12.83
3/18/2021 2:00:00 PM 3.09 37.562 0.024 5.21 8.64 12.82
3/18/2021 2:15:00 PM 3.1 37.58 0.024 5.21 9.8 12.81
3/18/2021 2:30:00 PM 3.09 37.562 0.024 5.26 10.06 12.8
3/18/2021 2:45:00 PM 3.07 37.526 0.024 5.2 11.32 12.8
3/18/2021 3:00:00 PM 3.05 37.49 0.023 5.2 11.54 12.8
3/18/2021 3:15:00 PM 3.04 37.472 0.023 5.2 11.64 12.79
3/18/2021 3:30:00 PM 3.01 37.418 0.023 5.18 11.67 12.79
3/18/2021 3:45:00 PM 2.99 37.382 0.023 5.17 11.4 12.79
3/18/2021 4:00:00 PM 2.98 37.364 0.023 5.14 11.26 12.8
3/18/2021 4:15:00 PM 2.97 37.346 0.023 5.16 11.35 12.8
3/18/2021 4:30:00 PM 2.96 37.328 0.022 5.13 12 12.8
3/18/2021 4:45:00 PM 2.95 37.31 0.022 5.13 12.44 12.8
3/18/2021 5:00:00 PM 2.93 37.274 0.022 5.09 12.19 12.8
3/18/2021 5:15:00 PM 2.92 37.256 0.022 5.1 13 12.8
3/18/2021 5:30:00 PM 2.9 37.22 0.022 5.1 12.35 12.8
3/18/2021 5:45:00 PM 2.88 37.184 0.022 5.09 13.41 12.8
3/18/2021 6:00:00 PM 2.86 37.148 0.022 5.09 13.58 12.81
3/18/2021 6:15:00 PM 2.84 37.112 0.022 5.09 13.92 12.81
3/18/2021 6:30:00 PM 2.81 37.058 0.022 5.09 14.75 12.82
3/18/2021 6:45:00 PM 2.78 37.004 0.022 5.08 14.75 12.83
3/18/2021 7:00:00 PM 2.74 36.932 0.022 5.06 15.52 12.84
3/18/2021 7:15:00 PM 2.71 36.878 0.022 5.05 15.06 12.86
3/18/2021 7:30:00 PM 2.67 36.806 0.022 5.04 15.94 12.87
3/18/2021 7:45:00 PM 2.64 36.752 0.021 5.02 16 12.88
3/18/2021 8:00:00 PM 2.6 36.68 0.022 4.99 15.98 12.9
3/18/2021 8:15:00 PM 2.57 36.626 0.021 4.98 17.33 12.91
3/18/2021 8:30:00 PM 2.52 36.536 0.021 4.97 16.17 12.92
3/18/2021 8:45:00 PM 2.48 36.464 0.021 4.96 16.9 12.94
3/18/2021 9:00:00 PM 2.44 36.392 0.02 4.94 17.39 12.95
3/18/2021 9:15:00 PM 2.4 36.32 0.02 4.92 17.57 12.96
3/18/2021 9:30:00 PM 2.37 36.266 0.02 4.91 17.55 12.98
3/18/2021 9:45:00 PM 2.34 36.212 0.02 4.91 18.4 12.99
3/18/2021 10:00:00 PM 2.3 36.14 0.02 4.87 17.42 13.01
3/18/2021 10:15:00 PM 2.26 36.068 0.019 4.88 17.57 13.02
3/18/2021 10:30:00 PM 2.22 35.996 0.019 4.86 17.24 13.04
3/18/2021 10:45:00 PM 2.17 35.906 0.019 4.86 17.47 13.06
3/18/2021 11:00:00 PM 2.13 35.834 0.019 4.85 17.23 13.07
3/18/2021 11:15:00 PM 2.08 35.744 0.019 4.83 16.47 13.09
3/18/2021 11:30:00 PM 2.05 35.69 0.019 4.83 15.82 13.1
3/18/2021 11:45:00 PM 2.01 35.618 0.019 4.82 15.48 13.12
3/19/2021 12:00:00 AM 1.97 35.546 0.019 4.8 14.66 13.13
3/19/2021 12:15:00 AM 1.94 35.492 0.019 4.8 15.66 13.14
3/19/2021 12:30:00 AM 1.9 35.42 0.019 4.78 14.48 13.15
3/19/2021 12:45:00 AM 1.87 35.366 0.019 4.78 16 13.17
3/19/2021 1:00:00 AM 1.84 35.312 0.018 4.78 14.66 13.18
3/19/2021 1:15:00 AM 1.8 35.24 0.018 4.77 30.64 13.2
3/19/2021 1:30:00 AM 1.77 35.186 0.018 4.77 13.21 13.21
3/19/2021 1:45:00 AM 1.73 35.114 0.018 4.78 12.9 13.23
3/19/2021 2:00:00 AM 1.7 35.06 0.018 4.75 14.73 13.24
3/19/2021 2:15:00 AM 1.67 35.006 0.018 4.75 11.22 13.25
3/19/2021 2:30:00 AM 1.63 34.934 0.018 4.74 11.66 13.27
3/19/2021 2:45:00 AM 1.59 34.862 0.018 4.73 10.93 13.28
3/19/2021 3:00:00 AM 1.54 34.772 0.018 4.75 9.95 13.3
3/19/2021 3:15:00 AM 1.49 34.682 0.018 4.73 13.19 13.31
3/19/2021 3:30:00 AM 1.45 34.61 0.018 4.75 14.55 13.33
3/19/2021 3:45:00 AM 1.4 34.52 0.018 4.74 9.34 13.35
3/19/2021 4:00:00 AM 1.35 34.43 0.018 4.75 9.5 13.36
3/19/2021 4:15:00 AM 1.3 34.34 0.018 4.72 9.16 13.38
3/19/2021 4:30:00 AM 1.24 34.232 0.018 4.74 8.85 13.41
3/19/2021 4:45:00 AM 1.19 34.142 0.018 4.73 8.13 13.42
3/19/2021 5:00:00 AM 1.14 34.052 0.017 4.73 8.54 13.45
3/19/2021 5:15:00 AM 1.09 33.962 0.017 4.73 8.66 13.47
3/19/2021 5:30:00 AM 1.04 33.872 0.018 4.71 9.03 13.49
3/19/2021 5:45:00 AM 0.98 33.764 0.018 4.73 8.14 13.51
3/19/2021 6:00:00 AM 0.94 33.692 0.018 4.73 8.02 13.54
3/19/2021 6:15:00 AM 0.88 33.584 0.018 4.72 8.04 13.56
3/19/2021 6:30:00 AM 0.82 33.476 0.018 4.74 8.14 13.58
3/19/2021 6:45:00 AM 0.77 33.386 0.018 4.71 7.93 13.61
3/19/2021 7:00:00 AM 0.72 33.296 0.018 4.72 7.93 13.63
3/19/2021 7:15:00 AM 0.67 33.206 0.018 4.71 7.85 13.65
3/19/2021 7:30:00 AM 0.62 33.116 0.018 4.72 7.57 13.68
3/19/2021 7:45:00 AM 0.58 33.044 0.018 4.72 7.64 13.69
3/19/2021 8:00:00 AM 0.55 32.99 0.018 4.72 7.32 13.72
3/19/2021 8:15:00 AM 0.53 32.954 0.018 4.69 7.13 13.75
3/19/2021 8:30:00 AM 0.5 32.9 0.018 4.71 7.22 13.76
3/19/2021 8:45:00 AM 0.49 32.882 0.018 4.73 7.25 13.78
3/19/2021 9:00:00 AM 0.47 32.846 0.018 4.71 7.32 13.81
3/19/2021 9:15:00 AM 0.44 32.792 0.017 4.71 7.12 13.83
3/19/2021 9:30:00 AM 0.44 32.792 0.018 4.73 7.07 13.84
3/19/2021 9:45:00 AM 0.46 32.828 0.018 4.72 7.06 13.84
3/19/2021 10:00:00 AM 0.48 32.864 0.018 4.72 6.72 13.85
3/19/2021 10:15:00 AM 0.52 32.936 0.018 4.74 6.64 13.85
3/19/2021 10:30:00 AM 0.58 33.044 0.018 4.75 6.92 13.85
3/19/2021 10:45:00 AM 0.64 33.152 0.018 4.75 6.79 13.83
3/19/2021 11:00:00 AM 0.72 33.296 0.018 4.75 6.82 13.83
3/19/2021 11:15:00 AM 0.81 33.458 0.018 4.76 6.5 13.8
3/19/2021 11:30:00 AM 0.9 33.62 0.018 4.76 6.56 13.79
3/19/2021 11:45:00 AM 1 33.8 0.018 4.77 6.47 13.77
3/19/2021 12:00:00 PM 1.11 33.998 0.018 4.78 6.52 13.74
3/19/2021 12:15:00 PM 1.22 34.196 0.018 4.78 6.58 13.71
3/19/2021 12:30:00 PM 1.32 34.376 0.018 4.78 6.58 13.68
3/19/2021 12:45:00 PM 1.45 34.61 0.018 4.78 6.46 13.64
3/19/2021 1:00:00 PM 1.57 34.826 0.018 4.77 6.47 13.6
3/19/2021 1:15:00 PM 1.69 35.042 0.018 4.79 6.5 13.57
3/19/2021 1:30:00 PM 1.82 35.276 0.018 4.8 6.12 13.53
3/19/2021 1:45:00 PM 1.94 35.492 0.018 4.78 6.37 13.49
3/19/2021 2:00:00 PM 2.05 35.69 0.018 4.81 6.14 13.45
3/19/2021 2:15:00 PM 2.16 35.888 0.018 4.83 6.04 13.4
3/19/2021 2:30:00 PM 2.26 36.068 0.018 4.82 6.11 13.36
3/19/2021 2:45:00 PM 2.36 36.248 0.018 4.84 6.21 13.32
3/19/2021 3:00:00 PM 2.44 36.392 0.018 4.84 6.06 13.29
3/19/2021 3:15:00 PM 2.52 36.536 0.018 4.85 6.11 13.25
3/19/2021 3:30:00 PM 2.6 36.68 0.018 4.82 5.85 13.22
3/19/2021 3:45:00 PM 2.65 36.77 0.018 4.86 6.01 13.19
3/19/2021 4:00:00 PM 2.7 36.86 0.019 4.83 5.87 13.17
3/19/2021 4:15:00 PM 2.73 36.914 0.018 4.85 5.86 13.14
3/19/2021 4:30:00 PM 2.75 36.95 0.018 4.86 5.67 13.12
3/19/2021 4:45:00 PM 2.76 36.968 0.018 4.86 5.52 13.11
3/19/2021 5:00:00 PM 2.76 36.968 0.018 4.85 5.95 13.1
3/19/2021 5:15:00 PM 2.75 36.95 0.018 4.85 5.68 13.09
3/19/2021 5:30:00 PM 2.73 36.914 0.018 4.86 5.59 13.08
3/19/2021 5:45:00 PM 2.7 36.86 0.018 4.86 5.56 13.07
3/19/2021 6:00:00 PM 2.67 36.806 0.018 4.86 5.4 13.08
3/19/2021 6:15:00 PM 2.64 36.752 0.018 4.86 5.61 13.07
3/19/2021 6:30:00 PM 2.6 36.68 0.018 4.86 5.49 13.08
3/19/2021 6:45:00 PM 2.57 36.626 0.018 4.84 5.53 13.08
3/19/2021 7:00:00 PM 2.53 36.554 0.018 4.84 5.58 13.09
3/19/2021 7:15:00 PM 2.5 36.5 0.018 4.84 5.43 13.09
3/19/2021 7:30:00 PM 2.45 36.41 0.018 4.85 5.46 13.1
3/19/2021 7:45:00 PM 2.41 36.338 0.018 4.85 5.78 13.12
3/19/2021 8:00:00 PM 2.36 36.248 0.018 4.86 5.58 13.14
3/19/2021 8:15:00 PM 2.32 36.176 0.018 4.83 5.49 13.14
3/19/2021 8:30:00 PM 2.27 36.086 0.018 4.85 5.59 13.16
3/19/2021 8:45:00 PM 2.23 36.014 0.018 4.83 5.5 13.18
3/19/2021 9:00:00 PM 2.18 35.924 0.018 4.84 5.5 13.2
3/19/2021 9:15:00 PM 2.12 35.816 0.018 4.83 5.51 13.22
3/19/2021 9:30:00 PM 2.07 35.726 0.018 4.82 5.39 13.23
3/19/2021 9:45:00 PM 2.01 35.618 0.018 4.82 5.48 13.26
3/19/2021 10:00:00 PM 1.96 35.528 0.018 4.83 5.36 13.28
3/19/2021 10:15:00 PM 1.91 35.438 0.019 4.84 5.38 13.3
3/19/2021 10:30:00 PM 1.85 35.33 0.018 4.83 5.38 13.33
3/19/2021 10:45:00 PM 1.8 35.24 0.018 4.83 5.32 13.35
3/19/2021 11:00:00 PM 1.75 35.15 0.018 4.85 5.36 13.37
3/19/2021 11:15:00 PM 1.69 35.042 0.018 4.82 5.37 13.39
3/19/2021 11:30:00 PM 1.64 34.952 0.018 4.86 5.19 13.41
3/19/2021 11:45:00 PM 1.58 34.844 0.018 4.83 5.14 13.43
3/20/2021 12:00:00 AM 1.53 34.754 0.018 4.86 5.16 13.45
3/20/2021 12:15:00 AM 1.48 34.664 0.018 4.86 5.21 13.47
3/20/2021 12:30:00 AM 1.43 34.574 0.018 4.86 5.01 13.49
3/20/2021 12:45:00 AM 1.38 34.484 0.018 4.85 5.12 13.51
3/20/2021 1:00:00 AM 1.33 34.394 0.019 4.88 5.14 13.54
3/20/2021 1:15:00 AM 1.29 34.322 0.019 4.85 5.24 13.55
3/20/2021 1:30:00 AM 1.24 34.232 0.019 4.84 4.98 13.57
3/20/2021 1:45:00 AM 1.2 34.16 0.019 4.86 4.96 13.59
3/20/2021 2:00:00 AM 1.15 34.07 0.019 4.84 4.94 13.61
3/20/2021 2:15:00 AM 1.11 33.998 0.018 4.85 5 13.62
3/20/2021 2:30:00 AM 1.07 33.926 0.019 4.85 4.86 13.64
3/20/2021 2:45:00 AM 1.03 33.854 0.019 4.84 4.79 13.66
3/20/2021 3:00:00 AM 0.99 33.782 0.019 4.85 4.88 13.67
3/20/2021 3:15:00 AM 0.96 33.728 0.019 4.87 4.94 13.69
3/20/2021 3:30:00 AM 0.92 33.656 0.019 4.83 4.74 13.7
3/20/2021 3:45:00 AM 0.88 33.584 0.019 4.85 4.77 13.71
3/20/2021 4:00:00 AM 0.84 33.512 0.019 4.85 4.73 13.73
3/20/2021 4:15:00 AM 0.8 33.44 0.019 4.85 4.83 13.75
3/20/2021 4:30:00 AM 0.76 33.368 0.019 4.87 4.72 13.76
3/20/2021 4:45:00 AM 0.73 33.314 0.019 4.83 4.7 13.78
3/20/2021 5:00:00 AM 0.69 33.242 0.019 4.86 4.75 13.78
3/20/2021 5:15:00 AM 0.65 33.17 0.019 4.85 4.76 13.8
3/20/2021 5:30:00 AM 0.62 33.116 0.019 4.86 4.78 13.81
3/20/2021 5:45:00 AM 0.58 33.044 0.019 4.85 4.63 13.84
3/20/2021 6:00:00 AM 0.54 32.972 0.019 4.86 4.62 13.85
3/20/2021 6:15:00 AM 0.5 32.9 0.019 4.85 4.62 13.87
3/20/2021 6:30:00 AM 0.47 32.846 0.019 4.84 4.73 13.9
3/20/2021 6:45:00 AM 0.43 32.774 0.019 4.87 4.71 13.91
3/20/2021 7:00:00 AM 0.39 32.702 0.019 4.85 4.79 13.92
3/20/2021 7:15:00 AM 0.36 32.648 0.019 4.87 4.53 13.93
3/20/2021 7:30:00 AM 0.33 32.594 0.019 4.85 4.65 13.96
3/20/2021 7:45:00 AM 0.3 32.54 0.019 4.84 4.56 13.97
3/20/2021 8:00:00 AM 0.28 32.504 0.019 4.85 4.46 13.99
3/20/2021 8:15:00 AM 0.27 32.486 0.019 4.84 4.53 14
3/20/2021 8:30:00 AM 0.27 32.486 0.019 4.88 4.56 14.01
3/20/2021 8:45:00 AM 0.28 32.504 0.019 4.85 4.54 14.03
3/20/2021 9:00:00 AM 0.31 32.558 0.019 4.86 4.51 14.03
3/20/2021 9:15:00 AM 0.36 32.648 0.019 4.87 4.45 14.03
3/20/2021 9:30:00 AM 0.42 32.756 0.019 4.88 4.46 14.02
3/20/2021 9:45:00 AM 0.5 32.9 0.02 4.89 4.48 14.02
3/20/2021 10:00:00 AM 0.6 33.08 0.02 4.89 4.51 14
3/20/2021 10:15:00 AM 0.71 33.278 0.02 4.94 4.39 13.98
3/20/2021 10:30:00 AM 0.84 33.512 0.02 4.91 4.45 13.94
3/20/2021 10:45:00 AM 0.99 33.782 0.019 4.93 4.39 13.92
3/20/2021 11:00:00 AM 1.15 34.07 0.019 4.94 4.59 13.88
3/20/2021 11:15:00 AM 1.32 34.376 0.019 4.95 4.42 13.83
3/20/2021 11:30:00 AM 1.49 34.682 0.02 4.96 4.32 13.78
3/20/2021 11:45:00 AM 1.66 34.988 0.019 4.92 4.48 13.72
3/20/2021 12:00:00 PM 1.83 35.294 0.019 4.94 4.33 13.68
3/20/2021 12:15:00 PM 2.01 35.618 0.02 4.97 4.34 13.62
3/20/2021 12:30:00 PM 2.19 35.942 0.019 4.98 4.33 13.56
3/20/2021 12:45:00 PM 2.36 36.248 0.019 4.99 4.42 13.51
3/20/2021 1:00:00 PM 2.51 36.518 0.02 4.99 4.49 13.46
3/20/2021 1:15:00 PM 2.66 36.788 0.02 4.99 4.41 13.41
3/20/2021 1:30:00 PM 2.81 37.058 0.019 5.01 4.28 13.36
3/20/2021 1:45:00 PM 2.95 37.31 0.019 5.02 4.46 13.31
3/20/2021 2:00:00 PM 3.09 37.562 0.019 5 4.38 13.25
3/20/2021 2:15:00 PM 3.23 37.814 0.02 5.03 4.32 13.2
3/20/2021 2:30:00 PM 3.36 38.048 0.019 5.03 4.39 13.15
3/20/2021 2:45:00 PM 3.48 38.264 0.019 5.02 4.43 13.11
3/20/2021 3:00:00 PM 3.59 38.462 0.02 5.02 4.4 13.06
3/20/2021 3:15:00 PM 3.68 38.624 0.019 5.04 4.48 13.01
3/20/2021 3:30:00 PM 3.76 38.768 0.019 5.04 4.32 12.97
3/20/2021 3:45:00 PM 3.83 38.894 0.02 5.05 4.35 12.94
3/20/2021 4:00:00 PM 3.89 39.002 0.02 5.06 4.35 12.91
3/20/2021 4:15:00 PM 3.93 39.074 0.02 5.06 4.3 12.88
3/20/2021 4:30:00 PM 3.97 39.146 0.02 5.07 4.31 12.84
3/20/2021 4:45:00 PM 3.99 39.182 0.02 5.07 4.34 12.82
3/20/2021 5:00:00 PM 4 39.2 0.02 5.06 4.28 12.8
3/20/2021 5:15:00 PM 4 39.2 0.02 5.06 4.33 12.77
3/20/2021 5:30:00 PM 4 39.2 0.02 5.06 4.27 12.76
3/20/2021 5:45:00 PM 3.98 39.164 0.02 5.05 4.33 12.75
3/20/2021 6:00:00 PM 3.96 39.128 0.02 5.02 4.29 12.73
3/20/2021 6:15:00 PM 3.93 39.074 0.02 5.03 4.3 12.73
3/20/2021 6:30:00 PM 3.9 39.02 0.02 5.04 4.36 12.72
3/20/2021 6:45:00 PM 3.88 38.984 0.02 5.03 4.22 12.71
3/20/2021 7:00:00 PM 3.85 38.93 0.02 5.05 4.24 12.7
3/20/2021 7:15:00 PM 3.82 38.876 0.02 5.03 4.26 12.69
3/20/2021 7:30:00 PM 3.8 38.84 0.02 5.05 4.22 12.69
3/20/2021 7:45:00 PM 3.77 38.786 0.02 5.04 4.2 12.69
3/20/2021 8:00:00 PM 3.73 38.714 0.02 5.03 4.21 12.69
3/20/2021 8:15:00 PM 3.69 38.642 0.019 5.03 4.37 12.7
3/20/2021 8:30:00 PM 3.65 38.57 0.019 5.04 4.29 12.7
3/20/2021 8:45:00 PM 3.6 38.48 0.02 5.04 4.36 12.72
3/20/2021 9:00:00 PM 3.54 38.372 0.019 5.03 4.3 12.73
3/20/2021 9:15:00 PM 3.49 38.282 0.019 5.02 4.19 12.75
3/20/2021 9:30:00 PM 3.43 38.174 0.019 5.04 4.26 12.77
3/20/2021 9:45:00 PM 3.37 38.066 0.02 5.03 4.25 12.8
3/20/2021 10:00:00 PM 3.31 37.958 0.02 5.02 4.24 12.82
3/20/2021 10:15:00 PM 3.25 37.85 0.02 5.02 4.35 12.84
3/20/2021 10:30:00 PM 3.18 37.724 0.02 5 4.3 12.86
3/20/2021 10:45:00 PM 3.11 37.598 0.02 5.02 4.18 12.89
3/20/2021 11:00:00 PM 3.04 37.472 0.02 5.02 4.3 12.9
3/20/2021 11:15:00 PM 2.98 37.364 0.02 5.02 4.29 12.94
3/20/2021 11:30:00 PM 2.9 37.22 0.02 5.01 4.31 12.96
3/20/2021 11:45:00 PM 2.83 37.094 0.02 5.01 4.23 12.98
3/21/2021 12:00:00 AM 2.75 36.95 0.02 5.02 4.36 13.01
3/21/2021 12:15:00 AM 2.68 36.824 0.02 5.01 4.29 13.04
3/21/2021 12:30:00 AM 2.61 36.698 0.02 5.01 4.51 13.06
3/21/2021 12:45:00 AM 2.54 36.572 0.02 5.01 4.32 13.09
3/21/2021 1:00:00 AM 2.47 36.446 0.02 5 4.43 13.11
3/21/2021 1:15:00 AM 2.4 36.32 0.02 4.98 4.33 13.13
3/21/2021 1:30:00 AM 2.34 36.212 0.02 4.97 4.24 13.16
3/21/2021 1:45:00 AM 2.27 36.086 0.02 4.96 4.32 13.18
3/21/2021 2:00:00 AM 2.2 35.96 0.02 4.97 4.34 13.2
3/21/2021 2:15:00 AM 2.14 35.852 0.02 4.98 4.2 13.23
3/21/2021 2:30:00 AM 2.08 35.744 0.02 4.98 4.26 13.25
3/21/2021 2:45:00 AM 2.02 35.636 0.02 4.98 4.32 13.28
3/21/2021 3:00:00 AM 1.96 35.528 0.02 4.95 4.1 13.29
3/21/2021 3:15:00 AM 1.91 35.438 0.02 4.97 4.24 13.31
3/21/2021 3:30:00 AM 1.85 35.33 0.02 4.98 4.11 13.33
3/21/2021 3:45:00 AM 1.79 35.222 0.02 5 4.28 13.35
3/21/2021 4:00:00 AM 1.74 35.132 0.02 5.01 4.22 13.37
3/21/2021 4:15:00 AM 1.69 35.042 0.02 5.01 4.28 13.39
3/21/2021 4:30:00 AM 1.63 34.934 0.02 5.01 4.23 13.41
3/21/2021 4:45:00 AM 1.58 34.844 0.02 5.02 4.2 13.43
3/21/2021 5:00:00 AM 1.53 34.754 0.02 5.01 4.16 13.45
3/21/2021 5:15:00 AM 1.48 34.664 0.02 5 4.23 13.48
3/21/2021 5:30:00 AM 1.44 34.592 0.02 5.02 4.2 13.49
3/21/2021 5:45:00 AM 1.39 34.502 0.02 5.01 4.11 13.51
3/21/2021 6:00:00 AM 1.34 34.412 0.02 4.98 4.09 13.53
3/21/2021 6:15:00 AM 1.29 34.322 0.02 4.98 4.17 13.55
3/21/2021 6:30:00 AM 1.24 34.232 0.02 5 4.21 13.57
3/21/2021 6:45:00 AM 1.2 34.16 0.02 5.01 4.17 13.59
3/21/2021 7:00:00 AM 1.15 34.07 0.02 5.01 4.15 13.6
3/21/2021 7:15:00 AM 1.11 33.998 0.02 5.01 4.09 13.63
3/21/2021 7:30:00 AM 1.07 33.926 0.02 5.01 4.15 13.64
3/21/2021 7:45:00 AM 1.03 33.854 0.02 5.01 4.01 13.67
3/21/2021 8:00:00 AM 1.01 33.818 0.02 5 3.99 13.69
3/21/2021 8:15:00 AM 0.99 33.782 0.02 5.01 4.09 13.71
3/21/2021 8:30:00 AM 0.99 33.782 0.02 4.99 3.93 13.72
3/21/2021 8:45:00 AM 1 33.8 0.02 4.96 3.97 13.73
3/21/2021 9:00:00 AM 1.04 33.872 0.02 4.97 3.97 13.75
3/21/2021 9:15:00 AM 1.09 33.962 0.02 4.96 4.06 13.75
3/21/2021 9:30:00 AM 1.16 34.088 0.02 4.99 4.04 13.74
3/21/2021 9:45:00 AM 1.26 34.268 0.02 4.99 4.06 13.73
3/21/2021 10:00:00 AM 1.38 34.484 0.02 5 3.92 13.71
3/21/2021 10:15:00 AM 1.51 34.718 0.02 5.02 3.89 13.69
3/21/2021 10:30:00 AM 1.66 34.988 0.02 5.04 3.84 13.66
3/21/2021 10:45:00 AM 1.82 35.276 0.02 5.03 3.84 13.62
3/21/2021 11:00:00 AM 1.99 35.582 0.02 5.03 4.04 13.58
3/21/2021 11:15:00 AM 2.17 35.906 0.02 5.04 3.89 13.53
3/21/2021 11:30:00 AM 2.36 36.248 0.02 5.06 3.92 13.48
3/21/2021 11:45:00 AM 2.56 36.608 0.02 5.05 3.91 13.42
3/21/2021 12:00:00 PM 2.76 36.968 0.02 5.06 3.86 13.36
3/21/2021 12:15:00 PM 2.97 37.346 0.02 5.07 3.96 13.3
3/21/2021 12:30:00 PM 3.17 37.706 0.02 5.08 3.88 13.25
3/21/2021 12:45:00 PM 3.38 38.084 0.02 5.09 3.97 13.17
3/21/2021 1:00:00 PM 3.58 38.444 0.02 5.11 3.96 13.1
3/21/2021 1:15:00 PM 3.77 38.786 0.02 5.09 3.88 13.05
3/21/2021 1:30:00 PM 3.95 39.11 0.02 5.09 3.93 12.99
3/21/2021 1:45:00 PM 4.12 39.416 0.02 5.11 3.96 12.93
3/21/2021 2:00:00 PM 4.27 39.686 0.02 5.13 3.89 12.87
3/21/2021 2:15:00 PM 4.42 39.956 0.02 5.13 3.85 12.82
3/21/2021 2:30:00 PM 4.55 40.19 0.02 5.11 3.95 12.76
3/21/2021 2:45:00 PM 4.67 40.406 0.02 5.14 3.95 12.72
3/21/2021 3:00:00 PM 4.78 40.604 0.02 5.15 3.86 12.67
3/21/2021 3:15:00 PM 4.88 40.784 0.02 5.16 3.8 12.62
3/21/2021 3:30:00 PM 4.97 40.946 0.02 5.15 4 12.58
3/21/2021 3:45:00 PM 5.04 41.072 0.02 5.16 3.97 12.55
3/21/2021 4:00:00 PM 5.1 41.18 0.02 5.15 3.98 12.51
3/21/2021 4:15:00 PM 5.14 41.252 0.02 5.15 3.94 12.48
3/21/2021 4:30:00 PM 5.17 41.306 0.02 5.15 3.86 12.45
3/21/2021 4:45:00 PM 5.18 41.324 0.02 5.14 4 12.43
3/21/2021 5:00:00 PM 5.18 41.324 0.02 5.15 3.98 12.41
3/21/2021 5:15:00 PM 5.16 41.288 0.02 5.14 4.07 12.39
3/21/2021 5:30:00 PM 5.13 41.234 0.02 5.15 4.09 12.38
3/21/2021 5:45:00 PM 5.1 41.18 0.02 5.15 4.03 12.37
3/21/2021 6:00:00 PM 5.05 41.09 0.02 5.15 4.16 12.36
3/21/2021 6:15:00 PM 5 41 0.02 5.12 4.15 12.36
3/21/2021 6:30:00 PM 4.95 40.91 0.02 5.12 4.07 12.36
3/21/2021 6:45:00 PM 4.9 40.82 0.02 5.13 4.26 12.36
3/21/2021 7:00:00 PM 4.85 40.73 0.02 5.12 4.11 12.34
3/21/2021 7:15:00 PM 4.81 40.658 0.02 5.12 4.16 12.34
3/21/2021 7:30:00 PM 4.77 40.586 0.02 5.12 4.07 12.33
3/21/2021 7:45:00 PM 4.73 40.514 0.02 5.13 4.22 12.33
3/21/2021 8:00:00 PM 4.7 40.46 0.02 5.1 4.27 12.33
3/21/2021 8:15:00 PM 4.65 40.37 0.02 5.08 4.28 12.34
3/21/2021 8:30:00 PM 4.6 40.28 0.02 5.09 4.66 12.36
3/21/2021 8:45:00 PM 4.55 40.19 0.02 5.08 4.36 12.36
3/21/2021 9:00:00 PM 4.5 40.1 0.02 5.08 4.22 12.38
3/21/2021 9:15:00 PM 4.44 39.992 0.02 5.11 4.49 12.39
3/21/2021 9:30:00 PM 4.38 39.884 0.02 5.12 4.07 12.4
3/21/2021 9:45:00 PM 4.32 39.776 0.02 5.1 4.18 12.43
3/21/2021 10:00:00 PM 4.26 39.668 0.02 5.1 4.31 12.44
3/21/2021 10:15:00 PM 4.2 39.56 0.02 5.09 4.32 12.46
3/21/2021 10:30:00 PM 4.14 39.452 0.02 5.08 4.04 12.49
3/21/2021 10:45:00 PM 4.07 39.326 0.02 5.07 4.17 12.51
3/21/2021 11:00:00 PM 4.01 39.218 0.02 5.1 4.07 12.53
3/21/2021 11:15:00 PM 3.94 39.092 0.02 5.11 4.06 12.55
3/21/2021 11:30:00 PM 3.87 38.966 0.021 5.09 4.19 12.57
3/21/2021 11:45:00 PM 3.8 38.84 0.02 5.08 4.19 12.6
3/22/2021 12:00:00 AM 3.72 38.696 0.02 5.08 4.33 12.62
3/22/2021 12:15:00 AM 3.65 38.57 0.02 5.08 4.21 12.65
3/22/2021 12:30:00 AM 3.57 38.426 0.02 5.08 4.21 12.68
3/22/2021 12:45:00 AM 3.49 38.282 0.02 5.07 4.15 12.71
3/22/2021 1:00:00 AM 3.41 38.138 0.02 5.06 4.24 12.73
3/22/2021 1:15:00 AM 3.33 37.994 0.02 5.05 4.14 12.76
3/22/2021 1:30:00 AM 3.25 37.85 0.021 5.04 4.15 12.78
3/22/2021 1:45:00 AM 3.18 37.724 0.02 5.06 4.14 12.81
3/22/2021 2:00:00 AM 3.1 37.58 0.02 5.06 3.97 12.84
3/22/2021 2:15:00 AM 3.03 37.454 0.02 5.06 4.01 12.86
3/22/2021 2:30:00 AM 2.95 37.31 0.02 5.06 4.13 12.88
3/22/2021 2:45:00 AM 2.88 37.184 0.02 5.05 4.06 12.91
3/22/2021 3:00:00 AM 2.81 37.058 0.02 5.04 4.08 12.93
3/22/2021 3:15:00 AM 2.74 36.932 0.02 5.06 3.93 12.96
3/22/2021 3:30:00 AM 2.68 36.824 0.02 5.05 3.98 12.98
3/22/2021 3:45:00 AM 2.61 36.698 0.021 5.06 4.08 13
3/22/2021 4:00:00 AM 2.55 36.59 0.021 5.05 4.36 13.02
3/22/2021 4:15:00 AM 2.48 36.464 0.02 5.07 4.05 13.04
3/22/2021 4:30:00 AM 2.42 36.356 0.02 5.04 3.93 13.07
3/22/2021 4:45:00 AM 2.37 36.266 0.02 5.03 3.98 13.09
3/22/2021 5:00:00 AM 2.31 36.158 0.02 5.03 3.96 13.11
3/22/2021 5:15:00 AM 2.25 36.05 0.02 5.02 3.91 13.14
3/22/2021 5:30:00 AM 2.19 35.942 0.02 5.03 3.94 13.15
3/22/2021 5:45:00 AM 2.14 35.852 0.02 5.03 3.98 13.17
3/22/2021 6:00:00 AM 2.09 35.762 0.02 5.04 3.87 13.19
3/22/2021 6:15:00 AM 2.03 35.654 0.021 5.03 3.94 13.21
3/22/2021 6:30:00 AM 1.98 35.564 0.021 5.01 4.01 13.24
3/22/2021 6:45:00 AM 1.93 35.474 0.021 4.99 3.87 13.25
3/22/2021 7:00:00 AM 1.88 35.384 0.021 5.02 3.94 13.28
3/22/2021 7:15:00 AM 1.83 35.294 0.02 5.02 3.93 13.3
3/22/2021 7:30:00 AM 1.79 35.222 0.02 5.03 3.93 13.32
3/22/2021 7:45:00 AM 1.75 35.15 0.02 5.01 3.94 13.35
3/22/2021 8:00:00 AM 1.72 35.096 0.02 5.03 3.87 13.36
3/22/2021 8:15:00 AM 1.7 35.06 0.02 5.05 4.04 13.39
3/22/2021 8:30:00 AM 1.69 35.042 0.02 5.03 4 13.4
3/22/2021 8:45:00 AM 1.7 35.06 0.02 5.03 4.05 13.42
3/22/2021 9:00:00 AM 1.73 35.114 0.02 5.04 4.01 13.43
3/22/2021 9:15:00 AM 1.78 35.204 0.02 5.05 3.92 13.43
3/22/2021 9:30:00 AM 1.86 35.348 0.02 5.06 3.94 13.42
3/22/2021 9:45:00 AM 1.96 35.528 0.02 5.06 3.87 13.42
3/22/2021 10:00:00 AM 2.08 35.744 0.02 5.07 3.9 13.39
3/22/2021 10:15:00 AM 2.21 35.978 0.02 5.07 3.89 13.36
3/22/2021 10:30:00 AM 2.37 36.266 0.02 5.06 3.84 13.34
3/22/2021 10:45:00 AM 2.53 36.554 0.02 5.09 3.86 13.3
3/22/2021 11:00:00 AM 2.71 36.878 0.02 5.1 3.89 13.27
3/22/2021 11:15:00 AM 2.89 37.202 0.02 5.11 3.91 13.21
3/22/2021 11:30:00 AM 3.09 37.562 0.02 5.11 3.82 13.17
3/22/2021 11:45:00 AM 3.29 37.922 0.021 5.11 3.85 13.11
3/22/2021 12:00:00 PM 3.5 38.3 0.02 5.13 3.78 13.05
3/22/2021 12:15:00 PM 3.71 38.678 0.02 5.12 3.9 12.99
3/22/2021 12:30:00 PM 3.93 39.074 0.021 5.15 3.8 12.92
3/22/2021 12:45:00 PM 4.14 39.452 0.02 5.16 3.78 12.86
3/22/2021 1:00:00 PM 4.34 39.812 0.02 5.15 3.81 12.79
3/22/2021 1:15:00 PM 4.53 40.154 0.021 5.17 3.82 12.73
3/22/2021 1:30:00 PM 4.71 40.478 0.02 5.17 3.82 12.67
3/22/2021 1:45:00 PM 4.88 40.784 0.02 5.19 3.76 12.61
3/22/2021 2:00:00 PM 5.03 41.054 0.02 5.19 3.77 12.56
3/22/2021 2:15:00 PM 5.18 41.324 0.021 5.2 3.81 12.51
3/22/2021 2:30:00 PM 5.31 41.558 0.02 5.22 3.76 12.45
3/22/2021 2:45:00 PM 5.42 41.756 0.02 5.2 3.86 12.41
3/22/2021 3:00:00 PM 5.53 41.954 0.02 5.2 4.05 12.37
3/22/2021 3:15:00 PM 5.62 42.116 0.02 5.2 5.19 12.32
3/22/2021 3:30:00 PM 5.71 42.278 0.02 5.2 4.73 12.28
3/22/2021 3:45:00 PM 5.78 42.404 0.02 5.2 4.16 12.25
3/22/2021 4:00:00 PM 5.83 42.494 0.02 5.22 4.06 12.22
3/22/2021 4:15:00 PM 5.86 42.548 0.02 5.21 4.06 12.19
3/22/2021 4:30:00 PM 5.88 42.584 0.02 5.22 4.01 12.16
3/22/2021 4:45:00 PM 5.88 42.584 0.02 5.2 4.02 12.14
3/22/2021 5:00:00 PM 5.87 42.566 0.02 5.21 4 12.13
3/22/2021 5:15:00 PM 5.84 42.512 0.02 5.23 4.16 12.12
3/22/2021 5:30:00 PM 5.81 42.458 0.02 5.2 4.16 12.1
3/22/2021 5:45:00 PM 5.76 42.368 0.02 5.18 3.99 12.1
3/22/2021 6:00:00 PM 5.71 42.278 0.02 5.21 3.92 12.09
3/22/2021 6:15:00 PM 5.66 42.188 0.02 5.21 4.14 12.09
3/22/2021 6:30:00 PM 5.61 42.098 0.02 5.2 4.08 12.09
3/22/2021 6:45:00 PM 5.55 41.99 0.02 5.2 4.19 12.08
3/22/2021 7:00:00 PM 5.5 41.9 0.02 5.19 4.17 12.07
3/22/2021 7:15:00 PM 5.46 41.828 0.02 5.19 4.1 12.06
3/22/2021 7:30:00 PM 5.42 41.756 0.02 5.2 4.22 12.05
3/22/2021 7:45:00 PM 5.39 41.702 0.02 5.18 4.17 12.05
3/22/2021 8:00:00 PM 5.35 41.63 0.02 5.17 4.18 12.04
3/22/2021 8:15:00 PM 5.32 41.576 0.02 5.16 4.19 12.04
3/22/2021 8:30:00 PM 5.29 41.522 0.021 5.18 5.03 12.04
3/22/2021 8:45:00 PM 5.25 41.45 0.02 5.17 4.21 12.05
3/22/2021 9:00:00 PM 5.2 41.36 0.021 5.16 4.22 12.06
3/22/2021 9:15:00 PM 5.15 41.27 0.02 5.17 4.18 12.07
3/22/2021 9:30:00 PM 5.1 41.18 0.02 5.16 4.22 12.09
3/22/2021 9:45:00 PM 5.05 41.09 0.02 5.16 4.21 12.11
3/22/2021 10:00:00 PM 4.99 40.982 0.02 5.15 4.33 12.12
3/22/2021 10:15:00 PM 4.93 40.874 0.02 5.15 4.27 12.14
3/22/2021 10:30:00 PM 4.87 40.766 0.02 5.15 4.15 12.17
3/22/2021 10:45:00 PM 4.8 40.64 0.02 5.14 4.15 12.19
3/22/2021 11:00:00 PM 4.73 40.514 0.02 5.14 4.14 12.2
3/22/2021 11:15:00 PM 4.66 40.388 0.02 5.12 4.22 12.23
3/22/2021 11:30:00 PM 4.58 40.244 0.02 5.13 4.21 12.25
3/22/2021 11:45:00 PM 4.51 40.118 0.02 5.14 4.07 12.28
3/23/2021 12:00:00 AM 4.43 39.974 0.02 5.15 4.17 12.31
3/23/2021 12:15:00 AM 4.35 39.83 0.02 5.13 4.13 12.33
3/23/2021 12:30:00 AM 4.27 39.686 0.02 5.12 4.09 12.36
3/23/2021 12:45:00 AM 4.19 39.542 0.02 5.14 4.19 12.4
3/23/2021 1:00:00 AM 4.1 39.38 0.02 5.11 4.09 12.42
3/23/2021 1:15:00 AM 4.02 39.236 0.02 5.12 4.22 12.45
3/23/2021 1:30:00 AM 3.94 39.092 0.02 5.12 4.51 12.48
3/23/2021 1:45:00 AM 3.85 38.93 0.02 5.11 4.78 12.51
3/23/2021 2:00:00 AM 3.77 38.786 0.021 5.1 4.66 12.54
3/23/2021 2:15:00 AM 3.68 38.624 0.02 5.11 4.29 12.56
3/23/2021 2:30:00 AM 3.6 38.48 0.02 5.11 4.25 12.6
3/23/2021 2:45:00 AM 3.53 38.354 0.02 5.1 4.16 12.62
3/23/2021 3:00:00 AM 3.46 38.228 0.02 5.1 4.12 12.64
3/23/2021 3:15:00 AM 3.38 38.084 0.02 5.09 4.26 12.67
3/23/2021 3:30:00 AM 3.31 37.958 0.02 5.12 4.18 12.69
3/23/2021 3:45:00 AM 3.24 37.832 0.021 5.07 4.12 12.73
3/23/2021 4:00:00 AM 3.16 37.688 0.021 5.1 4.19 12.75
3/23/2021 4:15:00 AM 3.1 37.58 0.02 5.09 4.03 12.77
3/23/2021 4:30:00 AM 3.03 37.454 0.02 5.1 4.13 12.79
3/23/2021 4:45:00 AM 2.96 37.328 0.02 5.09 3.97 12.82
3/23/2021 5:00:00 AM 2.9 37.22 0.02 5.09 4.12 12.83
3/23/2021 5:15:00 AM 2.84 37.112 0.02 5.08 4.03 12.86
3/23/2021 5:30:00 AM 2.78 37.004 0.02 5.08 4.05 12.87
3/23/2021 5:45:00 AM 2.72 36.896 0.02 5.08 4.02 12.9
3/23/2021 6:00:00 AM 2.66 36.788 0.021 5.09 4.1 12.92
3/23/2021 6:15:00 AM 2.6 36.68 0.021 5.09 4.14 12.95
3/23/2021 6:30:00 AM 2.54 36.572 0.021 5.08 4.04 12.97
3/23/2021 6:45:00 AM 2.49 36.482 0.02 5.06 4.17 12.98
3/23/2021 7:00:00 AM 2.43 36.374 0.02 5.07 4.04 13
3/23/2021 7:15:00 AM 2.38 36.284 0.02 5.05 3.96 13.03
3/23/2021 7:30:00 AM 2.33 36.194 0.02 5.08 3.97 13.05
3/23/2021 7:45:00 AM 2.29 36.122 0.02 5.06 4.02 13.08
3/23/2021 8:00:00 AM 2.26 36.068 0.02 5.09 4.11 13.1
3/23/2021 8:15:00 AM 2.24 36.032 0.02 5.08 3.98 13.13
3/23/2021 8:30:00 AM 2.23 36.014 0.02 5.09 3.89 13.15
3/23/2021 8:45:00 AM 2.25 36.05 0.02 5.07 3.92 13.16
3/23/2021 9:00:00 AM 2.28 36.104 0.02 5.08 3.97 13.17
3/23/2021 9:15:00 AM 2.33 36.194 0.021 5.09 3.98 13.18
3/23/2021 9:30:00 AM 2.41 36.338 0.02 5.09 3.9 13.18
3/23/2021 9:45:00 AM 2.51 36.518 0.021 5.11 3.94 13.17
3/23/2021 10:00:00 AM 2.64 36.752 0.021 5.12 3.95 13.15
3/23/2021 10:15:00 AM 2.77 36.986 0.021 5.12 3.88 13.13
3/23/2021 10:30:00 AM 2.93 37.274 0.02 5.12 3.84 13.1
3/23/2021 10:45:00 AM 3.09 37.562 0.02 5.14 4.01 13.07
3/23/2021 11:00:00 AM 3.28 37.904 0.021 5.15 3.83 13.03
3/23/2021 11:15:00 AM 3.48 38.264 0.02 5.16 3.8 12.97
3/23/2021 11:30:00 AM 3.69 38.642 0.02 5.16 3.96 12.93
3/23/2021 11:45:00 AM 3.9 39.02 0.021 5.16 3.82 12.87
3/23/2021 12:00:00 PM 4.11 39.398 0.02 5.19 3.88 12.81
3/23/2021 12:15:00 PM 4.33 39.794 0.02 5.18 3.93 12.75
3/23/2021 12:30:00 PM 4.55 40.19 0.02 5.21 3.71 12.69
3/23/2021 12:45:00 PM 4.77 40.586 0.02 5.2 3.79 12.62
3/23/2021 1:00:00 PM 4.95 40.91 0.02 5.22 3.85 12.56
3/23/2021 1:15:00 PM 5.1 41.18 0.021 5.23 3.83 12.5
3/23/2021 1:30:00 PM 5.26 41.468 0.02 5.23 3.85 12.45
3/23/2021 1:45:00 PM 5.43 41.774 0.02 5.25 3.93 12.4
3/23/2021 2:00:00 PM 5.58 42.044 0.02 5.24 3.88 12.35
3/23/2021 2:15:00 PM 5.72 42.296 0.02 5.24 3.88 12.3
3/23/2021 2:30:00 PM 5.84 42.512 0.02 5.26 3.88 12.26
3/23/2021 2:45:00 PM 5.95 42.71 0.02 5.26 3.94 12.22
3/23/2021 3:00:00 PM 6.03 42.854 0.02 5.27 3.93 12.18
3/23/2021 3:15:00 PM 6.06 42.908 0.021 5.26 3.85 12.15
3/23/2021 3:30:00 PM 6.07 42.926 0.021 5.26 3.91 12.13
3/23/2021 3:45:00 PM 6.11 42.998 0.02 5.26 4.1 12.1
3/23/2021 4:00:00 PM 6.16 43.088 0.02 5.26 3.88 12.08
3/23/2021 4:15:00 PM 6.2 43.16 0.02 5.26 4.03 12.05
3/23/2021 4:30:00 PM 6.2 43.16 0.02 5.28 4.01 12.03
3/23/2021 4:45:00 PM 6.2 43.16 0.02 5.28 4.07 12.02
3/23/2021 5:00:00 PM 6.19 43.142 0.02 5.26 3.98 12
3/23/2021 5:15:00 PM 6.2 43.16 0.02 5.27 4.09 11.98
3/23/2021 5:30:00 PM 6.19 43.142 0.02 5.28 4.13 11.96
3/23/2021 5:45:00 PM 6.16 43.088 0.02 5.27 4.15 11.94
3/23/2021 6:00:00 PM 6.13 43.034 0.02 5.27 4.1 11.93
3/23/2021 6:15:00 PM 6.11 42.998 0.021 5.27 4.28 11.92
3/23/2021 6:30:00 PM 6.1 42.98 0.02 5.26 4.16 11.91
3/23/2021 6:45:00 PM 6.08 42.944 0.021 5.26 4.35 11.89
3/23/2021 7:00:00 PM 6.07 42.926 0.021 5.26 4.36 11.88
3/23/2021 7:15:00 PM 6.05 42.89 0.02 5.25 4.53 11.87
3/23/2021 7:30:00 PM 6.03 42.854 0.021 5.26 4.63 11.85
3/23/2021 7:45:00 PM 6.01 42.818 0.021 5.23 4.44 11.84
3/23/2021 8:00:00 PM 5.99 42.782 0.021 5.24 4.53 11.83
3/23/2021 8:15:00 PM 5.97 42.746 0.02 5.25 4.4 11.82
3/23/2021 8:30:00 PM 5.95 42.71 0.02 5.24 4.58 11.82
3/23/2021 8:45:00 PM 5.93 42.674 0.021 5.23 4.58 11.82
3/23/2021 9:00:00 PM 5.91 42.638 0.02 5.23 4.6 11.82
3/23/2021 9:15:00 PM 5.89 42.602 0.021 5.22 4.56 11.83
3/23/2021 9:30:00 PM 5.86 42.548 0.021 5.24 4.49 11.84
3/23/2021 9:45:00 PM 5.84 42.512 0.021 5.23 4.61 11.84
3/23/2021 10:00:00 PM 5.81 42.458 0.02 5.23 4.34 11.85
3/23/2021 10:15:00 PM 5.78 42.404 0.02 5.23 4.77 11.86
3/23/2021 10:30:00 PM 5.74 42.332 0.021 5.23 4.41 11.87
3/23/2021 10:45:00 PM 5.7 42.26 0.021 5.23 4.48 11.88
3/23/2021 11:00:00 PM 5.66 42.188 0.02 5.22 4.47 11.89
3/23/2021 11:15:00 PM 5.61 42.098 0.02 5.23 4.4 11.91
3/23/2021 11:30:00 PM 5.56 42.008 0.021 5.23 4.42 11.92
3/23/2021 11:45:00 PM 5.51 41.918 0.02 5.22 4.54 11.94
3/24/2021 12:00:00 AM 5.46 41.828 0.021 5.23 4.4 11.95
3/24/2021 12:15:00 AM 5.42 41.756 0.02 5.21 4.45 11.97
3/24/2021 12:30:00 AM 5.37 41.666 0.021 5.21 4.46 11.99
3/24/2021 12:45:00 AM 5.33 41.594 0.02 5.22 4.48 12
3/24/2021 1:00:00 AM 5.29 41.522 0.021 5.22 4.41 12.01
3/24/2021 1:15:00 AM 5.27 41.486 0.021 5.22 4.33 12.03
3/24/2021 1:30:00 AM 5.26 41.468 0.021 5.23 4.3 12.03
3/24/2021 1:45:00 AM 5.25 41.45 0.021 5.22 4.3 12.05
3/24/2021 2:00:00 AM 5.23 41.414 0.021 5.21 4.2 12.06
3/24/2021 2:15:00 AM 5.2 41.36 0.021 5.22 4.23 12.06
3/24/2021 2:30:00 AM 5.19 41.342 0.021 5.22 4.25 12.07
3/24/2021 2:45:00 AM 5.17 41.306 0.021 5.22 4.31 12.08
3/24/2021 3:00:00 AM 5.15 41.27 0.021 5.24 4.29 12.09
3/24/2021 3:15:00 AM 5.12 41.216 0.021 5.23 4.36 12.09
3/24/2021 3:30:00 AM 5.09 41.162 0.021 5.22 4.21 12.1
3/24/2021 3:45:00 AM 5.07 41.126 0.02 5.21 4.36 12.11
3/24/2021 4:00:00 AM 5.04 41.072 0.02 5.22 4.22 12.11
3/24/2021 4:15:00 AM 5.01 41.018 0.021 5.21 4.39 12.12
3/24/2021 4:30:00 AM 4.98 40.964 0.021 5.22 4.28 12.13
3/24/2021 4:45:00 AM 4.95 40.91 0.02 5.21 4.22 12.13
3/24/2021 5:00:00 AM 4.92 40.856 0.02 5.21 4.22 12.14
3/24/2021 5:15:00 AM 4.9 40.82 0.021 5.23 4.15 12.15
3/24/2021 5:30:00 AM 4.89 40.802 0.02 5.2 4.32 12.16
3/24/2021 5:45:00 AM 4.88 40.784 0.02 5.21 4.31 12.16
3/24/2021 6:00:00 AM 4.87 40.766 0.02 5.21 4.27 12.17
3/24/2021 6:15:00 AM 4.87 40.766 0.02 5.22 4.24 12.17
3/24/2021 6:30:00 AM 4.87 40.766 0.021 5.2 4.31 12.18
3/24/2021 6:45:00 AM 4.86 40.748 0.021 5.23 4.39 12.17
3/24/2021 7:00:00 AM 4.86 40.748 0.02 5.22 4.38 12.17
3/24/2021 7:15:00 AM 4.86 40.748 0.021 5.23 4.48 12.18
3/24/2021 7:30:00 AM 4.86 40.748 0.021 5.23 4.29 12.18
3/24/2021 7:45:00 AM 4.87 40.766 0.021 5.22 4.36 12.17
3/24/2021 8:00:00 AM 4.87 40.766 0.02 5.21 4.36 12.18
3/24/2021 8:15:00 AM 4.89 40.802 0.021 5.23 4.33 12.18
3/24/2021 8:30:00 AM 4.91 40.838 0.021 5.23 4.43 12.19
3/24/2021 8:45:00 AM 4.94 40.892 0.02 5.23 4.2 12.19
3/24/2021 9:00:00 AM 4.97 40.946 0.02 5.23 4.44 12.19
3/24/2021 9:15:00 AM 5 41 0.021 5.25 4.37 12.2
3/24/2021 9:30:00 AM 5.02 41.036 0.021 5.24 4.43 12.2
3/24/2021 9:45:00 AM 5.05 41.09 0.021 5.24 4.45 12.2
3/24/2021 10:00:00 AM 5.08 41.144 0.021 5.26 4.53 12.19
3/24/2021 10:15:00 AM 5.12 41.216 0.021 5.26 4.62 12.19
3/24/2021 10:30:00 AM 5.16 41.288 0.021 5.25 4.65 12.19
3/24/2021 10:45:00 AM 5.22 41.396 0.021 5.28 4.82 12.18
3/24/2021 11:00:00 AM 5.27 41.486 0.021 5.3 4.85 12.17
3/24/2021 11:15:00 AM 5.31 41.558 0.021 5.27 5.04 12.16
3/24/2021 11:30:00 AM 5.35 41.63 0.021 5.29 5.25 12.15
3/24/2021 11:45:00 AM 5.4 41.72 0.021 5.3 5.73 12.13
3/24/2021 12:00:00 PM 5.45 41.81 0.021 5.3 5.94 12.12
3/24/2021 12:15:00 PM 5.49 41.882 0.021 5.31 5.55 12.11
3/24/2021 12:30:00 PM 5.55 41.99 0.021 5.32 5.65 12.1
3/24/2021 12:45:00 PM 5.63 42.134 0.021 5.33 5.93 12.08
3/24/2021 1:00:00 PM 5.68 42.224 0.021 5.33 6.29 12.07
3/24/2021 1:15:00 PM 5.72 42.296 0.021 5.34 6.8 12.05
3/24/2021 1:30:00 PM 5.75 42.35 0.021 5.36 6.82 12.03
3/24/2021 1:45:00 PM 5.77 42.386 0.021 5.34 8 12.02
3/24/2021 2:00:00 PM 5.8 42.44 0.022 5.34 8.71 12.01
3/24/2021 2:15:00 PM 5.82 42.476 0.022 5.35 8.59 12.01
3/24/2021 2:30:00 PM 5.85 42.53 0.022 5.35 8.42 11.99
3/24/2021 2:45:00 PM 5.85 42.53 0.022 5.33 9.03 11.98
3/24/2021 3:00:00 PM 5.86 42.548 0.022 5.33 10.18 11.98
3/24/2021 3:15:00 PM 5.85 42.53 0.022 5.32 9.78 11.97
3/24/2021 3:30:00 PM 5.85 42.53 0.022 5.34 12.39 11.97
3/24/2021 3:45:00 PM 5.83 42.494 0.022 5.38 11.63 11.96
3/24/2021 4:00:00 PM 5.82 42.476 0.022 5.34 15.13 11.95
3/24/2021 4:15:00 PM 5.81 42.458 0.022 5.33 16.75 11.95
3/24/2021 4:30:00 PM 5.81 42.458 0.022 5.32 15.2 11.94
3/24/2021 4:45:00 PM 5.8 42.44 0.022 5.32 13.68 11.94
3/24/2021 5:00:00 PM 5.79 42.422 0.021 5.29 14 11.93
3/24/2021 5:15:00 PM 5.79 42.422 0.021 5.3 13.34 11.93
3/24/2021 5:30:00 PM 5.78 42.404 0.021 5.28 12.81 11.93
3/24/2021 5:45:00 PM 5.78 42.404 0.021 5.26 11.49 11.93
3/24/2021 6:00:00 PM 5.79 42.422 0.021 5.28 11.49 11.93
3/24/2021 6:15:00 PM 5.79 42.422 0.021 5.27 11.66 11.92
3/24/2021 6:30:00 PM 5.79 42.422 0.021 5.27 11 11.91
3/24/2021 6:45:00 PM 5.79 42.422 0.02 5.24 10.52 11.91
3/24/2021 7:00:00 PM 5.79 42.422 0.02 5.24 10.27 11.9
3/24/2021 7:15:00 PM 5.78 42.404 0.02 5.23 10.39 11.9
3/24/2021 7:30:00 PM 5.77 42.386 0.02 5.23 11.17 11.9
3/24/2021 7:45:00 PM 5.76 42.368 0.02 5.23 11.68 11.89
3/24/2021 8:00:00 PM 5.75 42.35 0.02 5.23 12.2 11.89
3/24/2021 8:15:00 PM 5.74 42.332 0.02 5.23 11.82 11.89
3/24/2021 8:30:00 PM 5.73 42.314 0.02 5.23 12.12 11.89
3/24/2021 8:45:00 PM 5.72 42.296 0.02 5.21 11.43 11.89
3/24/2021 9:00:00 PM 5.7 42.26 0.02 5.21 11.57 11.89
3/24/2021 9:15:00 PM 5.7 42.26 0.02 5.21 11.46 11.9
3/24/2021 9:30:00 PM 5.68 42.224 0.02 5.2 10.7 11.9
3/24/2021 9:45:00 PM 5.67 42.206 0.02 5.19 10.51 11.91
3/24/2021 10:00:00 PM 5.66 42.188 0.02 5.19 10.23 11.91
3/24/2021 10:15:00 PM 5.65 42.17 0.02 5.2 9.94 11.91
3/24/2021 10:30:00 PM 5.65 42.17 0.019 5.17 9.89 11.91
3/24/2021 10:45:00 PM 5.63 42.134 0.019 5.19 9.56 11.91
3/24/2021 11:00:00 PM 5.62 42.116 0.019 5.16 9.29 11.92
3/24/2021 11:15:00 PM 5.6 42.08 0.019 5.18 9.54 11.93
3/24/2021 11:30:00 PM 5.57 42.026 0.019 5.14 10.77 11.94
3/24/2021 11:45:00 PM 5.56 42.008 0.019 5.16 9.54 11.94
3/25/2021 12:00:00 AM 5.54 41.972 0.019 5.13 9.31 11.94
3/25/2021 12:15:00 AM 5.52 41.936 0.019 5.14 8.61 11.95
3/25/2021 12:30:00 AM 5.5 41.9 0.019 5.13 8.2 11.96
3/25/2021 12:45:00 AM 5.49 41.882 0.019 5.11 8.14 11.96
3/25/2021 1:00:00 AM 5.47 41.846 0.019 5.12 7.97 11.96
3/25/2021 1:15:00 AM 5.45 41.81 0.019 5.12 7.49 11.97
3/25/2021 1:30:00 AM 5.43 41.774 0.019 5.11 7.58 11.97
3/25/2021 1:45:00 AM 5.42 41.756 0.019 5.1 7.55 11.98
3/25/2021 2:00:00 AM 5.41 41.738 0.019 5.08 7.84 11.98
3/25/2021 2:15:00 AM 5.4 41.72 0.019 5.1 7.54 11.98
3/25/2021 2:30:00 AM 5.39 41.702 0.019 5.09 8.85 11.98
3/25/2021 2:45:00 AM 5.38 41.684 0.019 5.06 7.16 11.98
3/25/2021 3:00:00 AM 5.37 41.666 0.019 5.06 7.25 11.98
3/25/2021 3:15:00 AM 5.36 41.648 0.019 5.08 6.95 11.99
3/25/2021 3:30:00 AM 5.36 41.648 0.019 5.09 7.13 11.99
3/25/2021 3:45:00 AM 5.35 41.63 0.019 5.09 6.69 11.99
3/25/2021 4:00:00 AM 5.34 41.612 0.019 5.12 6.7 11.99
3/25/2021 4:15:00 AM 5.34 41.612 0.019 5.08 6.68 11.99
3/25/2021 4:30:00 AM 5.33 41.594 0.019 5.11 6.66 11.99
3/25/2021 4:45:00 AM 5.33 41.594 0.019 5.1 6.64 11.99
3/25/2021 5:00:00 AM 5.32 41.576 0.019 5.08 6.56 11.99
3/25/2021 5:15:00 AM 5.32 41.576 0.019 5.11 6.5 12
3/25/2021 5:30:00 AM 5.31 41.558 0.019 5.08 6.25 12
3/25/2021 5:45:00 AM 5.31 41.558 0.019 5.1 6.47 12
3/25/2021 6:00:00 AM 5.3 41.54 0.019 5.09 6.51 12.01
3/25/2021 6:15:00 AM 5.29 41.522 0.019 5.08 6.86 12.01
3/25/2021 6:30:00 AM 5.28 41.504 0.019 5.1 6.28 12.01
3/25/2021 6:45:00 AM 5.28 41.504 0.019 5.1 6.16 12.01
3/25/2021 7:00:00 AM 5.28 41.504 0.019 5.11 6.32 12.02
3/25/2021 7:15:00 AM 5.28 41.504 0.019 5.09 6.18 12.02
3/25/2021 7:30:00 AM 5.28 41.504 0.019 5.09 6.38 12.02
3/25/2021 7:45:00 AM 5.29 41.522 0.019 5.1 6.38 12.03
3/25/2021 8:00:00 AM 5.3 41.54 0.019 5.14 6.18 12.04
3/25/2021 8:15:00 AM 5.33 41.594 0.019 5.13 5.87 12.05
3/25/2021 8:30:00 AM 5.36 41.648 0.019 5.12 5.96 12.06
3/25/2021 8:45:00 AM 5.4 41.72 0.019 5.11 5.69 12.06
3/25/2021 9:00:00 AM 5.43 41.774 0.019 5.14 5.71 12.06
3/25/2021 9:15:00 AM 5.5 41.9 0.019 5.14 5.74 12.06
3/25/2021 9:30:00 AM 5.54 41.972 0.019 5.12 5.72 12.06
3/25/2021 9:45:00 AM 5.61 42.098 0.019 5.16 5.63 12.05
3/25/2021 10:00:00 AM 5.68 42.224 0.019 5.17 5.84 12.05
3/25/2021 10:15:00 AM 5.78 42.404 0.019 5.18 5.74 12.03
3/25/2021 10:30:00 AM 5.9 42.62 0.019 5.21 5.57 12.01
3/25/2021 10:45:00 AM 5.99 42.782 0.019 5.17 5.73 12
3/25/2021 11:00:00 AM 6.1 42.98 0.019 5.19 5.64 11.97
3/25/2021 11:15:00 AM 6.25 43.25 0.019 5.18 5.71 11.94
3/25/2021 11:30:00 AM 6.4 43.52 0.019 5.21 5.72 11.91
3/25/2021 11:45:00 AM 6.55 43.79 0.019 5.24 5.67 11.88
3/25/2021 12:00:00 PM 6.72 44.096 0.019 5.24 5.7 11.83
3/25/2021 12:15:00 PM 6.88 44.384 0.019 5.23 6.04 11.79
3/25/2021 12:30:00 PM 7.03 44.654 0.019 5.23 5.9 11.76
3/25/2021 12:45:00 PM 7.18 44.924 0.019 5.28 5.95 11.72
3/25/2021 1:00:00 PM 7.34 45.212 0.019 5.25 5.94 11.68
3/25/2021 1:15:00 PM 7.5 45.5 0.019 5.29 5.9 11.63
3/25/2021 1:30:00 PM 7.62 45.716 0.019 5.29 6.01 11.6
3/25/2021 1:45:00 PM 7.75 45.95 0.019 5.28 6.05 11.56
3/25/2021 2:00:00 PM 7.9 46.22 0.019 5.31 6.1 11.51
3/25/2021 2:15:00 PM 8.03 46.454 0.019 5.28 5.7 11.47
3/25/2021 2:30:00 PM 8.14 46.652 0.019 5.28 6.08 11.43
3/25/2021 2:45:00 PM 8.24 46.832 0.019 5.32 6.03 11.4
3/25/2021 3:00:00 PM 8.35 47.03 0.019 5.31 6.02 11.35
3/25/2021 3:15:00 PM 8.45 47.21 0.019 5.34 5.94 11.32
3/25/2021 3:30:00 PM 8.51 47.318 0.019 5.35 6.23 11.29
3/25/2021 3:45:00 PM 8.55 47.39 0.019 5.36 6.49 11.25
3/25/2021 4:00:00 PM 8.59 47.462 0.019 5.35 6.33 11.23
3/25/2021 4:15:00 PM 8.63 47.534 0.019 5.37 6.18 11.2
3/25/2021 4:30:00 PM 8.66 47.588 0.019 5.35 6.35 11.18
3/25/2021 4:45:00 PM 8.69 47.642 0.019 5.37 6.37 11.16
3/25/2021 5:00:00 PM 8.74 47.732 0.019 5.36 6.62 11.14
3/25/2021 5:15:00 PM 8.77 47.786 0.019 5.38 6.44 11.12
3/25/2021 5:30:00 PM 8.8 47.84 0.019 5.39 6.45 11.09
3/25/2021 5:45:00 PM 8.82 47.876 0.019 5.4 6.28 11.07
3/25/2021 6:00:00 PM 8.83 47.894 0.019 5.4 6.27 11.06
3/25/2021 6:15:00 PM 8.83 47.894 0.019 5.38 6.4 11.05
3/25/2021 6:30:00 PM 8.83 47.894 0.019 5.36 6.62 11.03
3/25/2021 6:45:00 PM 8.82 47.876 0.019 5.36 6.5 11.01
3/25/2021 7:00:00 PM 8.81 47.858 0.019 5.39 6.51 10.99
3/25/2021 7:15:00 PM 8.79 47.822 0.019 5.36 6.47 10.99
3/25/2021 7:30:00 PM 8.77 47.786 0.019 5.35 6.37 10.97
3/25/2021 7:45:00 PM 8.74 47.732 0.019 5.34 6.48 10.97
3/25/2021 8:00:00 PM 8.71 47.678 0.019 5.34 6.42 10.96
3/25/2021 8:15:00 PM 8.69 47.642 0.019 5.34 6.41 10.96
3/25/2021 8:30:00 PM 8.66 47.588 0.019 5.34 6.39 10.97
3/25/2021 8:45:00 PM 8.63 47.534 0.019 5.33 6.35 10.97
3/25/2021 9:00:00 PM 8.61 47.498 0.019 5.33 7.41 10.98
3/25/2021 9:15:00 PM 8.6 47.48 0.019 5.33 6.1 10.98
3/25/2021 9:30:00 PM 8.57 47.426 0.019 5.35 5.82 10.99
3/25/2021 9:45:00 PM 8.55 47.39 0.018 5.34 6.03 11
3/25/2021 10:00:00 PM 8.51 47.318 0.019 5.34 5.77 11
3/25/2021 10:15:00 PM 8.47 47.246 0.019 5.34 6.01 11.02
3/25/2021 10:30:00 PM 8.42 47.156 0.019 5.38 5.97 11.03
3/25/2021 10:45:00 PM 8.38 47.084 0.019 5.34 5.96 11.04
3/25/2021 11:00:00 PM 8.33 46.994 0.019 5.33 5.73 11.05
3/25/2021 11:15:00 PM 8.29 46.922 0.019 5.34 5.82 11.06
3/25/2021 11:30:00 PM 8.25 46.85 0.019 5.37 6 11.07
3/25/2021 11:45:00 PM 8.21 46.778 0.019 5.37 5.83 11.08
3/26/2021 12:00:00 AM 8.17 46.706 0.019 5.37 6.16 11.09
3/26/2021 12:15:00 AM 8.15 46.67 0.019 5.37 6.39 11.1
3/26/2021 12:30:00 AM 8.13 46.634 0.019 5.4 6.19 11.1
3/26/2021 12:45:00 AM 8.11 46.598 0.019 5.38 6.18 11.11
3/26/2021 1:00:00 AM 8.09 46.562 0.019 5.41 5.97 11.12
3/26/2021 1:15:00 AM 8.09 46.562 0.019 5.41 5.94 11.12
3/26/2021 1:30:00 AM 8.08 46.544 0.019 5.41 6.22 11.12
3/26/2021 1:45:00 AM 8.06 46.508 0.019 5.42 6.26 11.12
3/26/2021 2:00:00 AM 8.06 46.508 0.019 5.39 6.74 11.1
3/26/2021 2:15:00 AM 8.06 46.508 0.019 5.42 6.64 11.11
3/26/2021 2:30:00 AM 8.05 46.49 0.019 5.4 6.4 11.1
3/26/2021 2:45:00 AM 8.06 46.508 0.019 5.42 6.53 11.1
3/26/2021 3:00:00 AM 8.05 46.49 0.019 5.44 6.66 11.1
3/26/2021 3:15:00 AM 8.06 46.508 0.019 5.42 6.61 11.09
3/26/2021 3:30:00 AM 8.06 46.508 0.019 5.43 6.5 11.1
3/26/2021 3:45:00 AM 8.06 46.508 0.019 5.43 6.46 11.1
3/26/2021 4:00:00 AM 8.07 46.526 0.019 5.43 6.38 11.08
3/26/2021 4:15:00 AM 8.08 46.544 0.02 5.44 6.37 11.08
3/26/2021 4:30:00 AM 8.11 46.598 0.019 5.44 6.21 11.07
3/26/2021 4:45:00 AM 8.12 46.616 0.019 5.45 6.15 11.06
3/26/2021 5:00:00 AM 8.11 46.598 0.019 5.44 6.22 11.06
3/26/2021 5:15:00 AM 8.09 46.562 0.02 5.42 6.37 11.05
3/26/2021 5:30:00 AM 8.1 46.58 0.02 5.43 6.25 11.04
3/26/2021 5:45:00 AM 8.1 46.58 0.02 5.47 6.13 11.04
3/26/2021 6:00:00 AM 8.1 46.58 0.02 5.46 5.93 11.04
3/26/2021 6:15:00 AM 8.1 46.58 0.019 5.45 5.96 11.03
3/26/2021 6:30:00 AM 8.11 46.598 0.02 5.46 6.12 11.03
3/26/2021 6:45:00 AM 8.12 46.616 0.02 5.45 6.17 11.03
3/26/2021 7:00:00 AM 8.14 46.652 0.019 5.46 6.27 11.02
3/26/2021 7:15:00 AM 8.16 46.688 0.019 5.48 6.36 11.02
3/26/2021 7:30:00 AM 8.18 46.724 0.02 5.49 6.4 11.02
3/26/2021 7:45:00 AM 8.21 46.778 0.02 5.51 6.43 11.01
3/26/2021 8:00:00 AM 8.26 46.868 0.02 5.5 6.78 11.03
3/26/2021 8:15:00 AM 8.32 46.976 0.02 5.5 6.24 11.01
3/26/2021 8:30:00 AM 8.37 47.066 0.02 5.52 6.06 11.02
3/26/2021 8:45:00 AM 8.43 47.174 0.02 5.53 6.32 11.01
3/26/2021 9:00:00 AM 8.49 47.282 0.02 5.55 6.19 11
3/26/2021 9:15:00 AM 8.57 47.426 0.02 5.56 6.08 10.99
3/26/2021 9:30:00 AM 8.68 47.624 0.02 5.57 6.05 10.98
3/26/2021 9:45:00 AM 8.8 47.84 0.02 5.59 5.72 10.97
3/26/2021 10:00:00 AM 8.93 48.074 0.02 5.61 5.94 10.95
3/26/2021 10:15:00 AM 9.05 48.29 0.02 5.61 6.05 10.93
3/26/2021 10:30:00 AM 9.17 48.506 0.02 5.62 5.99 10.91
3/26/2021 10:45:00 AM 9.29 48.722 0.02 5.64 6.36 10.89
3/26/2021 11:00:00 AM 9.45 49.01 0.02 5.66 6.28 10.86
3/26/2021 11:15:00 AM 9.63 49.334 0.02 5.67 6.14 10.83
3/26/2021 11:30:00 AM 9.78 49.604 0.02 5.67 6.26 10.8
3/26/2021 11:45:00 AM 9.84 49.712 0.02 5.68 6.12 10.77
3/26/2021 12:00:00 PM 9.94 49.892 0.02 5.69 6.55 10.74
3/26/2021 12:15:00 PM 10.01 50.018 0.02 5.7 6.37 10.72
3/26/2021 12:30:00 PM 10.11 50.198 0.02 5.71 6.15 10.7
3/26/2021 12:45:00 PM 10.19 50.342 0.02 5.7 6.18 10.69
3/26/2021 1:00:00 PM 10.27 50.486 0.02 5.72 5.97 10.67
3/26/2021 1:15:00 PM 10.32 50.576 0.02 5.72 6.46 10.66
3/26/2021 1:30:00 PM 10.34 50.612 0.02 5.71 6.21 10.64
3/26/2021 1:45:00 PM 10.34 50.612 0.02 5.7 6.33 10.63
3/26/2021 2:00:00 PM 10.45 50.81 0.02 5.74 6.5 10.61
3/26/2021 2:15:00 PM 10.6 51.08 0.02 5.73 6.82 10.59
3/26/2021 2:30:00 PM 10.73 51.314 0.02 5.75 6.87 10.56
3/26/2021 2:45:00 PM 10.78 51.404 0.02 5.77 7.22 10.55
3/26/2021 3:00:00 PM 10.82 51.476 0.02 5.77 6.4 10.53
3/26/2021 3:15:00 PM 10.86 51.548 0.02 5.75 6.75 10.51
3/26/2021 3:30:00 PM 10.87 51.566 0.02 5.76 6.6 10.5
3/26/2021 3:45:00 PM 10.87 51.566 0.02 5.74 6.93 10.49
3/26/2021 4:00:00 PM 10.93 51.674 0.02 5.76 6.7 10.49
3/26/2021 4:15:00 PM 10.95 51.71 0.02 5.77 6.95 10.47
3/26/2021 4:30:00 PM 10.94 51.692 0.02 5.76 6.62 10.48
3/26/2021 4:45:00 PM 10.9 51.62 0.02 5.76 6.73 10.47
3/26/2021 5:00:00 PM 10.86 51.548 0.02 5.76 6.51 10.46
3/26/2021 5:15:00 PM 10.8 51.44 0.02 5.76 6.79 10.47
3/26/2021 5:30:00 PM 10.75 51.35 0.02 5.76 6.46 10.48
3/26/2021 5:45:00 PM 10.67 51.206 0.02 5.74 7.1 10.48
3/26/2021 6:00:00 PM 10.59 51.062 0.02 5.74 6.45 10.5
3/26/2021 6:15:00 PM 10.54 50.972 0.02 5.74 6.3 10.51
3/26/2021 6:30:00 PM 10.48 50.864 0.021 5.74 6.4 10.5
3/26/2021 6:45:00 PM 10.42 50.756 0.02 5.73 6.11 10.5
3/26/2021 7:00:00 PM 10.36 50.648 0.02 5.72 6.23 10.51
3/26/2021 7:15:00 PM 10.29 50.522 0.02 5.71 6.21 10.5
3/26/2021 7:30:00 PM 10.23 50.414 0.02 5.72 6.05 10.51
3/26/2021 7:45:00 PM 10.18 50.324 0.021 5.73 6.06 10.51
3/26/2021 8:00:00 PM 10.13 50.234 0.02 5.73 6.45 10.52
3/26/2021 8:15:00 PM 10.09 50.162 0.02 5.74 6.31 10.52
3/26/2021 8:30:00 PM 10.06 50.108 0.02 5.71 6.05 10.53
3/26/2021 8:45:00 PM 10.04 50.072 0.021 5.71 6.05 10.54
3/26/2021 9:00:00 PM 10.02 50.036 0.02 5.72 5.95 10.54
3/26/2021 9:15:00 PM 9.99 49.982 0.02 5.71 5.88 10.55
3/26/2021 9:30:00 PM 9.95 49.91 0.02 5.71 6.02 10.56
3/26/2021 9:45:00 PM 9.91 49.838 0.02 5.71 6.23 10.57
3/26/2021 10:00:00 PM 9.87 49.766 0.021 5.71 6.15 10.59
3/26/2021 10:15:00 PM 9.82 49.676 0.021 5.71 6.03 10.6
3/26/2021 10:30:00 PM 9.77 49.586 0.021 5.69 5.79 10.61
3/26/2021 10:45:00 PM 9.72 49.496 0.021 5.7 5.82 10.63
3/26/2021 11:00:00 PM 9.66 49.388 0.021 5.67 6.16 10.64
3/26/2021 11:15:00 PM 9.58 49.244 0.021 5.68 6.12 10.66
3/26/2021 11:30:00 PM 9.5 49.1 0.021 5.66 5.88 10.68
3/26/2021 11:45:00 PM 9.43 48.974 0.021 5.66 6.16 10.7
3/27/2021 12:00:00 AM 9.37 48.866 0.021 5.66 5.76 10.72
3/27/2021 12:15:00 AM 9.31 48.758 0.02 5.66 5.96 10.74
3/27/2021 12:30:00 AM 9.26 48.668 0.021 5.66 6.41 10.76
3/27/2021 12:45:00 AM 9.2 48.56 0.021 5.66 6.16 10.77
3/27/2021 1:00:00 AM 9.15 48.47 0.021 5.65 6.32 10.79
3/27/2021 1:15:00 AM 9.1 48.38 0.021 5.65 6.21 10.8
3/27/2021 1:30:00 AM 9.05 48.29 0.021 5.65 6.35 10.82
3/27/2021 1:45:00 AM 9.01 48.218 0.021 5.66 6.23 10.83
3/27/2021 2:00:00 AM 8.96 48.128 0.021 5.66 6.26 10.85
3/27/2021 2:15:00 AM 8.92 48.056 0.021 5.68 9.86 10.86
3/27/2021 2:30:00 AM 8.88 47.984 0.021 5.68 6.54 10.87
3/27/2021 2:45:00 AM 8.84 47.912 0.021 5.66 6.98 10.88
3/27/2021 3:00:00 AM 8.8 47.84 0.021 5.65 6.98 10.89
3/27/2021 3:15:00 AM 8.77 47.786 0.021 5.64 6.69 10.9
3/27/2021 3:30:00 AM 8.74 47.732 0.021 5.66 6.51 10.91
3/27/2021 3:45:00 AM 8.7 47.66 0.021 5.67 6.13 10.92
3/27/2021 4:00:00 AM 8.67 47.606 0.021 5.66 6.42 10.94
3/27/2021 4:15:00 AM 8.63 47.534 0.021 5.65 5.91 10.94
3/27/2021 4:30:00 AM 8.6 47.48 0.021 5.65 6.54 10.95
3/27/2021 4:45:00 AM 8.57 47.426 0.021 5.64 6.35 10.96
3/27/2021 5:00:00 AM 8.54 47.372 0.021 5.62 6.32 10.97
3/27/2021 5:15:00 AM 8.51 47.318 0.021 5.62 6.46 10.98
3/27/2021 5:30:00 AM 8.48 47.264 0.021 5.62 6.21 11
3/27/2021 5:45:00 AM 8.45 47.21 0.021 5.63 7.55 10.99
3/27/2021 6:00:00 AM 8.42 47.156 0.021 5.63 7.9 11
3/27/2021 6:15:00 AM 8.4 47.12 0.021 5.6 6.3 11.01
3/27/2021 6:30:00 AM 8.36 47.048 0.021 5.6 6.2 11.02
3/27/2021 6:45:00 AM 8.33 46.994 0.021 5.6 6.3 11.04
3/27/2021 7:00:00 AM 8.29 46.922 0.021 5.6 6.22 11.05
3/27/2021 7:15:00 AM 8.26 46.868 0.021 5.59 6.61 11.06
3/27/2021 7:30:00 AM 8.22 46.796 0.022 5.58 6.3 11.07
3/27/2021 7:45:00 AM 8.18 46.724 0.021 5.6 6.2 11.1
3/27/2021 8:00:00 AM 8.14 46.652 0.021 5.61 6.47 11.13
3/27/2021 8:15:00 AM 8.14 46.652 0.021 5.62 6.16 11.15
3/27/2021 8:30:00 AM 8.14 46.652 0.021 5.61 5.93 11.17
3/27/2021 8:45:00 AM 8.15 46.67 0.021 5.61 6.19 11.19
3/27/2021 9:00:00 AM 8.16 46.688 0.021 5.63 6.09 11.21
3/27/2021 9:15:00 AM 8.19 46.742 0.021 5.63 6.26 11.22
3/27/2021 9:30:00 AM 8.24 46.832 0.021 5.65 5.89 11.23
3/27/2021 9:45:00 AM 8.31 46.958 0.021 5.65 5.9 11.23
3/27/2021 10:00:00 AM 8.41 47.138 0.021 5.68 6.24 11.23
3/27/2021 10:15:00 AM 8.5 47.3 0.022 5.68 5.96 11.22
3/27/2021 10:30:00 AM 8.6 47.48 0.021 5.69 6.14 11.21
3/27/2021 10:45:00 AM 8.67 47.606 0.021 5.71 6.19 11.2
3/27/2021 11:00:00 AM 8.74 47.732 0.021 5.72 6.14 11.19
3/27/2021 11:15:00 AM 8.84 47.912 0.021 5.71 6.11 11.17
3/27/2021 11:30:00 AM 8.89 48.002 0.021 5.71 6.02 11.15
3/27/2021 11:45:00 AM 8.93 48.074 0.021 5.7 6.25 11.14
3/27/2021 12:00:00 PM 8.94 48.092 0.021 5.72 6.25 11.13
3/27/2021 12:15:00 PM 9.02 48.236 0.022 5.71 6.21 11.11
3/27/2021 12:30:00 PM 9.3 48.74 0.021 5.76 6.05 11.08
3/27/2021 12:45:00 PM 9.57 49.226 0.022 5.8 6.16 11.03
3/27/2021 1:00:00 PM 9.77 49.586 0.022 5.8 5.9 11
3/27/2021 1:15:00 PM 9.95 49.91 0.021 5.82 5.94 10.97
3/27/2021 1:30:00 PM 10.11 50.198 0.021 5.82 5.93 10.92
3/27/2021 1:45:00 PM 10.23 50.414 0.022 5.81 5.9 10.89
3/27/2021 2:00:00 PM 10.34 50.612 0.022 5.81 5.69 10.86
3/27/2021 2:15:00 PM 10.45 50.81 0.022 5.83 5.59 10.83
3/27/2021 2:30:00 PM 10.57 51.026 0.021 5.84 5.9 10.8
3/27/2021 2:45:00 PM 10.65 51.17 0.021 5.83 5.92 10.78
3/27/2021 3:00:00 PM 10.71 51.278 0.021 5.84 5.58 10.75
3/27/2021 3:15:00 PM 10.73 51.314 0.021 5.83 5.95 10.73
3/27/2021 3:30:00 PM 10.75 51.35 0.021 5.84 6 10.72
3/27/2021 3:45:00 PM 10.77 51.386 0.021 5.83 6 10.71
3/27/2021 4:00:00 PM 10.75 51.35 0.021 5.84 5.89 10.69
3/27/2021 4:15:00 PM 10.73 51.314 0.021 5.86 5.83 10.68
3/27/2021 4:30:00 PM 10.69 51.242 0.021 5.83 6.15 10.68
3/27/2021 4:45:00 PM 10.65 51.17 0.021 5.82 7.1 10.66
3/27/2021 5:00:00 PM 10.62 51.116 0.021 5.83 6.81 10.65
3/27/2021 5:15:00 PM 10.59 51.062 0.021 5.82 6.83 10.66
3/27/2021 5:30:00 PM 10.56 51.008 0.021 5.8 6.52 10.65
3/27/2021 5:45:00 PM 10.54 50.972 0.021 5.81 6.17 10.64
3/27/2021 6:00:00 PM 10.52 50.936 0.021 5.82 9.66 10.64
3/27/2021 6:15:00 PM 10.5 50.9 0.021 5.83 6.22 10.63
3/27/2021 6:30:00 PM 10.46 50.828 0.021 5.85 6.37 10.63
3/27/2021 6:45:00 PM 10.43 50.774 0.021 5.83 6.4 10.61
3/27/2021 7:00:00 PM 10.4 50.72 0.021 5.83 6.31 10.6
3/27/2021 7:15:00 PM 10.36 50.648 0.021 5.8 6.2 10.58
3/27/2021 7:30:00 PM 10.32 50.576 0.021 5.78 6.32 10.56
3/27/2021 7:45:00 PM 10.29 50.522 0.021 5.78 6.02 10.54
3/27/2021 8:00:00 PM 10.26 50.468 0.022 5.77 6.33 10.53
3/27/2021 8:15:00 PM 10.23 50.414 0.022 5.75 6.14 10.52
3/27/2021 8:30:00 PM 10.19 50.342 0.022 5.73 6.39 10.52
3/27/2021 8:45:00 PM 10.15 50.27 0.022 5.73 5.99 10.52
3/27/2021 9:00:00 PM 10.1 50.18 0.022 5.71 5.95 10.52
3/27/2021 9:15:00 PM 10.05 50.09 0.022 5.72 5.92 10.53
3/27/2021 9:30:00 PM 10 50 0.021 5.72 6.08 10.54
3/27/2021 9:45:00 PM 9.94 49.892 0.021 5.73 6.04 10.55
3/27/2021 10:00:00 PM 9.89 49.802 0.022 5.71 5.98 10.56
3/27/2021 10:15:00 PM 9.83 49.694 0.022 5.72 5.9 10.57
3/27/2021 10:30:00 PM 9.78 49.604 0.022 5.72 5.88 10.59
3/27/2021 10:45:00 PM 9.72 49.496 0.022 5.74 5.72 10.6
3/27/2021 11:00:00 PM 9.67 49.406 0.022 5.71 5.81 10.61
3/27/2021 11:15:00 PM 9.61 49.298 0.022 5.71 5.69 10.62
3/27/2021 11:30:00 PM 9.55 49.19 0.022 5.71 5.72 10.64
3/27/2021 11:45:00 PM 9.49 49.082 0.022 5.71 6.24 10.64
3/28/2021 12:00:00 AM 9.43 48.974 0.022 5.73 6.21 10.67
3/28/2021 12:15:00 AM 9.38 48.884 0.022 5.7 5.83 10.68
3/28/2021 12:30:00 AM 9.33 48.794 0.022 5.71 5.85 10.69
3/28/2021 12:45:00 AM 9.28 48.704 0.022 5.7 5.89 10.7
3/28/2021 1:00:00 AM 9.24 48.632 0.021 5.71 5.66 10.72
3/28/2021 1:15:00 AM 9.2 48.56 0.022 5.72 5.49 10.72
3/28/2021 1:30:00 AM 9.16 48.488 0.022 5.69 5.48 10.73
3/28/2021 1:45:00 AM 9.11 48.398 0.022 5.71 5.46 10.74
3/28/2021 2:00:00 AM 9.07 48.326 0.022 5.71 5.84 10.75
3/28/2021 2:15:00 AM 9.02 48.236 0.022 5.7 5.75 10.76
3/28/2021 2:30:00 AM 8.98 48.164 0.022 5.7 5.54 10.77
3/28/2021 2:45:00 AM 8.94 48.092 0.022 5.72 5.52 10.78
3/28/2021 3:00:00 AM 8.9 48.02 0.022 5.69 5.75 10.79
3/28/2021 3:15:00 AM 8.85 47.93 0.022 5.69 5.55 10.8
3/28/2021 3:30:00 AM 8.8 47.84 0.022 5.69 5.55 10.81
3/28/2021 3:45:00 AM 8.75 47.75 0.022 5.7 5.65 10.82
3/28/2021 4:00:00 AM 8.7 47.66 0.022 5.68 5.51 10.83
3/28/2021 4:15:00 AM 8.65 47.57 0.022 5.68 5.46 10.84
3/28/2021 4:30:00 AM 8.62 47.516 0.022 5.68 8.6 10.85
3/28/2021 4:45:00 AM 8.59 47.462 0.022 5.69 5.89 10.86
3/28/2021 5:00:00 AM 8.59 47.462 0.022 5.69 5.67 10.87
3/28/2021 5:15:00 AM 8.59 47.462 0.022 5.69 5.59 10.87
3/28/2021 5:30:00 AM 8.59 47.462 0.022 5.69 5.32 10.87
3/28/2021 5:45:00 AM 8.59 47.462 0.022 5.7 5.38 10.87
3/28/2021 6:00:00 AM 8.59 47.462 0.022 5.7 5.45 10.87
3/28/2021 6:15:00 AM 8.59 47.462 0.022 5.71 5.41 10.87
3/28/2021 6:30:00 AM 8.58 47.444 0.022 5.69 5.47 10.87
3/28/2021 6:45:00 AM 8.58 47.444 0.022 5.7 5.64 10.87
3/28/2021 7:00:00 AM 8.57 47.426 0.022 5.69 5.34 10.87
3/28/2021 7:15:00 AM 8.56 47.408 0.022 5.69 5.33 10.87
3/28/2021 7:30:00 AM 8.56 47.408 0.022 5.7 5.34 10.87
3/28/2021 7:45:00 AM 8.55 47.39 0.022 5.69 5.73 10.88
3/28/2021 8:00:00 AM 8.55 47.39 0.022 5.71 5.54 10.88
3/28/2021 8:15:00 AM 8.54 47.372 0.022 5.7 5.16 10.9
3/28/2021 8:30:00 AM 8.54 47.372 0.022 5.71 5.41 10.9
3/28/2021 8:45:00 AM 8.54 47.372 0.022 5.71 5.56 10.92
3/28/2021 9:00:00 AM 8.54 47.372 0.022 5.68 5.51 10.94
3/28/2021 9:15:00 AM 8.55 47.39 0.022 5.72 5.55 10.95
3/28/2021 9:30:00 AM 8.56 47.408 0.022 5.72 5.49 10.96
3/28/2021 9:45:00 AM 8.57 47.426 0.022 5.73 5.77 10.97
3/28/2021 10:00:00 AM 8.57 47.426 0.022 5.72 5.56 10.97
3/28/2021 10:15:00 AM 8.58 47.444 0.023 5.74 5.83 10.97
3/28/2021 10:30:00 AM 8.6 47.48 0.022 5.74 5.74 10.98
3/28/2021 10:45:00 AM 8.63 47.534 0.022 5.76 5.47 10.99
3/28/2021 11:00:00 AM 8.67 47.606 0.022 5.75 5.38 10.99
3/28/2021 11:15:00 AM 8.71 47.678 0.022 5.76 5.46 10.99
3/28/2021 11:30:00 AM 8.76 47.768 0.022 5.78 5.81 10.98
3/28/2021 11:45:00 AM 8.82 47.876 0.022 5.77 5.54 10.98
3/28/2021 12:00:00 PM 8.87 47.966 0.022 5.76 5.51 10.97
3/28/2021 12:15:00 PM 8.9 48.02 0.022 5.79 5.75 10.96
3/28/2021 12:30:00 PM 8.94 48.092 0.022 5.78 5.41 10.94
3/28/2021 12:45:00 PM 9.02 48.236 0.022 5.78 5.85 10.94
3/28/2021 1:00:00 PM 9.14 48.452 0.022 5.82 5.76 10.92
3/28/2021 1:15:00 PM 9.23 48.614 0.022 5.8 6.13 10.9
3/28/2021 1:30:00 PM 9.32 48.776 0.022 5.82 5.73 10.89
3/28/2021 1:45:00 PM 9.38 48.884 0.022 5.81 5.85 10.87
3/28/2021 2:00:00 PM 9.4 48.92 0.022 5.82 6.5 10.84
3/28/2021 2:15:00 PM 9.41 48.938 0.022 5.82 5.91 10.82
3/28/2021 2:30:00 PM 9.43 48.974 0.022 5.82 6.33 10.81
3/28/2021 2:45:00 PM 9.46 49.028 0.022 5.83 6.1 10.79
3/28/2021 3:00:00 PM 9.49 49.082 0.022 5.84 6.11 10.78
3/28/2021 3:15:00 PM 9.52 49.136 0.022 5.83 6.07 10.76
3/28/2021 3:30:00 PM 9.58 49.244 0.022 5.84 6.24 10.75
3/28/2021 3:45:00 PM 9.65 49.37 0.022 5.85 6 10.75
3/28/2021 4:00:00 PM 9.68 49.424 0.022 5.84 5.9 10.71
3/28/2021 4:15:00 PM 9.68 49.424 0.022 5.84 5.77 10.7
3/28/2021 4:30:00 PM 9.66 49.388 0.022 5.84 5.9 10.68
3/28/2021 4:45:00 PM 9.64 49.352 0.022 5.84 5.95 10.67
3/28/2021 5:00:00 PM 9.62 49.316 0.022 5.83 6.1 10.65
3/28/2021 5:15:00 PM 9.6 49.28 0.022 5.83 6.15 10.65
3/28/2021 5:30:00 PM 9.58 49.244 0.023 5.83 6.37 10.65
3/28/2021 5:45:00 PM 9.54 49.172 0.023 5.84 6.21 10.65
3/28/2021 6:00:00 PM 9.49 49.082 0.023 5.83 6 10.65
3/28/2021 6:15:00 PM 9.45 49.01 0.023 5.82 6.58 10.63
3/28/2021 6:30:00 PM 9.39 48.902 0.024 5.81 6.2 10.64
3/28/2021 6:45:00 PM 9.34 48.812 0.023 5.81 6.57 10.65
3/28/2021 7:00:00 PM 9.28 48.704 0.023 5.81 6.49 10.66
3/28/2021 7:15:00 PM 9.22 48.596 0.023 5.79 6.29 10.66
3/28/2021 7:30:00 PM 9.16 48.488 0.023 5.79 6.24 10.67
3/28/2021 7:45:00 PM 9.09 48.362 0.023 5.78 6.2 10.67
3/28/2021 8:00:00 PM 9.02 48.236 0.023 5.8 6.72 10.68
3/28/2021 8:15:00 PM 8.95 48.11 0.023 5.77 6.74 10.69
3/28/2021 8:30:00 PM 8.88 47.984 0.023 5.76 7.12 10.7
3/28/2021 8:45:00 PM 8.82 47.876 0.023 5.79 7.4 10.71
3/28/2021 9:00:00 PM 8.76 47.768 0.023 5.77 6.99 10.72
3/28/2021 9:15:00 PM 8.7 47.66 0.023 5.77 7.16 10.74
3/28/2021 9:30:00 PM 8.64 47.552 0.023 5.75 7.17 10.76
3/28/2021 9:45:00 PM 8.59 47.462 0.023 5.74 7.06 10.77
3/28/2021 10:00:00 PM 8.53 47.354 0.022 5.75 7.01 10.79
3/28/2021 10:15:00 PM 8.45 47.21 0.022 5.73 6.79 10.82
3/28/2021 10:30:00 PM 8.36 47.048 0.023 5.75 6.61 10.82
3/28/2021 10:45:00 PM 8.28 46.904 0.022 5.74 6.64 10.85
3/28/2021 11:00:00 PM 8.21 46.778 0.023 5.73 6.68 10.87
3/28/2021 11:15:00 PM 8.14 46.652 0.023 5.73 6.27 10.89
3/28/2021 11:30:00 PM 8.08 46.544 0.023 5.71 6.47 10.9
3/28/2021 11:45:00 PM 8 46.4 0.023 5.7 6.42 10.93
3/29/2021 12:00:00 AM 7.93 46.274 0.023 5.7 6.23 10.95
3/29/2021 12:15:00 AM 7.87 46.166 0.023 5.71 6.37 10.97
3/29/2021 12:30:00 AM 7.79 46.022 0.023 5.69 6.22 11
3/29/2021 12:45:00 AM 7.72 45.896 0.023 5.69 6.31 11.01
3/29/2021 1:00:00 AM 7.66 45.788 0.023 5.68 6.55 11.04
3/29/2021 1:15:00 AM 7.6 45.68 0.022 5.69 6.23 11.06
3/29/2021 1:30:00 AM 7.55 45.59 0.022 5.67 6.35 11.08
3/29/2021 1:45:00 AM 7.47 45.446 0.022 5.68 6.27 11.1
3/29/2021 2:00:00 AM 7.39 45.302 0.023 5.66 6.3 11.12
3/29/2021 2:15:00 AM 7.33 45.194 0.023 5.64 5.97 11.14
3/29/2021 2:30:00 AM 7.26 45.068 0.022 5.66 5.96 11.17
3/29/2021 2:45:00 AM 7.18 44.924 0.023 5.66 5.96 11.18
3/29/2021 3:00:00 AM 7.1 44.78 0.023 5.65 6.05 11.21
3/29/2021 3:15:00 AM 7.03 44.654 0.023 5.63 5.66 11.24
3/29/2021 3:30:00 AM 6.95 44.51 0.023 5.63 5.94 11.26
3/29/2021 3:45:00 AM 6.87 44.366 0.022 5.64 5.92 11.27
3/29/2021 4:00:00 AM 6.82 44.276 0.022 5.63 6.05 11.3
3/29/2021 4:15:00 AM 6.76 44.168 0.023 5.63 6.17 11.32
3/29/2021 4:30:00 AM 6.7 44.06 0.023 5.61 6.37 11.34
3/29/2021 4:45:00 AM 6.66 43.988 0.023 5.63 5.89 11.36
3/29/2021 5:00:00 AM 6.6 43.88 0.023 5.62 6 11.37
3/29/2021 5:15:00 AM 6.54 43.772 0.022 5.62 6.01 11.4
3/29/2021 5:30:00 AM 6.48 43.664 0.023 5.61 5.93 11.42
3/29/2021 5:45:00 AM 6.42 43.556 0.023 5.6 5.89 11.44
3/29/2021 6:00:00 AM 6.36 43.448 0.023 5.61 5.73 11.46
3/29/2021 6:15:00 AM 6.31 43.358 0.023 5.59 6.07 11.48
3/29/2021 6:30:00 AM 6.26 43.268 0.023 5.58 5.83 11.5
3/29/2021 6:45:00 AM 6.2 43.16 0.023 5.57 5.96 11.52
3/29/2021 7:00:00 AM 6.15 43.07 0.023 5.58 5.59 11.54
3/29/2021 7:15:00 AM 6.1 42.98 0.023 5.58 5.67 11.56
3/29/2021 7:30:00 AM 6.06 42.908 0.023 5.58 5.76 11.59
3/29/2021 7:45:00 AM 6.01 42.818 0.023 5.58 5.71 11.62
3/29/2021 8:00:00 AM 5.98 42.764 0.023 5.59 5.64 11.64
3/29/2021 8:15:00 AM 5.95 42.71 0.023 5.58 5.39 11.68
3/29/2021 8:30:00 AM 5.93 42.674 0.023 5.59 5.31 11.7
3/29/2021 8:45:00 AM 5.91 42.638 0.022 5.59 5.52 11.74
3/29/2021 9:00:00 AM 5.89 42.602 0.023 5.59 5.37 11.76
3/29/2021 9:15:00 AM 5.86 42.548 0.023 5.58 5.43 11.78
3/29/2021 9:30:00 AM 5.83 42.494 0.023 5.6 5.35 11.79
3/29/2021 9:45:00 AM 5.79 42.422 0.023 5.57 5.29 11.82
3/29/2021 10:00:00 AM 5.79 42.422 0.022 5.59 5.41 11.85
3/29/2021 10:15:00 AM 5.82 42.476 0.023 5.6 5.23 11.86
3/29/2021 10:30:00 AM 5.88 42.584 0.022 5.6 5.22 11.88
3/29/2021 10:45:00 AM 5.92 42.656 0.023 5.61 5.18 11.89
3/29/2021 11:00:00 AM 5.96 42.728 0.022 5.62 5.33 11.91
3/29/2021 11:15:00 AM 6.05 42.89 0.023 5.62 5.12 11.91
3/29/2021 11:30:00 AM 6.16 43.088 0.022 5.64 5.19 11.9
3/29/2021 11:45:00 AM 6.31 43.358 0.022 5.65 5.19 11.89
3/29/2021 12:00:00 PM 6.51 43.718 0.022 5.65 5.13 11.86
3/29/2021 12:15:00 PM 6.7 44.06 0.023 5.66 4.96 11.83
3/29/2021 12:30:00 PM 6.77 44.186 0.022 5.67 5.01 11.8
3/29/2021 12:45:00 PM 6.82 44.276 0.023 5.66 5 11.78
3/29/2021 1:00:00 PM 6.97 44.546 0.022 5.69 4.93 11.77
3/29/2021 1:15:00 PM 7.18 44.924 0.022 5.7 5.08 11.72
3/29/2021 1:30:00 PM 7.32 45.176 0.023 5.7 4.88 11.68
3/29/2021 1:45:00 PM 7.47 45.446 0.022 5.71 4.98 11.65
3/29/2021 2:00:00 PM 7.61 45.698 0.022 5.7 4.81 11.61
3/29/2021 2:15:00 PM 7.74 45.932 0.023 5.71 4.88 11.57
3/29/2021 2:30:00 PM 7.85 46.13 0.022 5.74 5.03 11.54
3/29/2021 2:45:00 PM 7.92 46.256 0.022 5.74 4.91 11.51
3/29/2021 3:00:00 PM 8 46.4 0.022 5.75 4.88 11.49
3/29/2021 3:15:00 PM 8.07 46.526 0.022 5.73 4.83 11.47
3/29/2021 3:30:00 PM 8.11 46.598 0.022 5.73 4.9 11.45
3/29/2021 3:45:00 PM 8.14 46.652 0.022 5.74 5.03 11.44
3/29/2021 4:00:00 PM 8.15 46.67 0.022 5.76 4.93 11.42
3/29/2021 4:15:00 PM 8.13 46.634 0.022 5.75 4.96 11.41
3/29/2021 4:30:00 PM 8.11 46.598 0.022 5.75 4.91 11.4
3/29/2021 4:45:00 PM 8.06 46.508 0.023 5.73 5 11.41
3/29/2021 5:00:00 PM 7.99 46.382 0.023 5.73 4.79 11.41
3/29/2021 5:15:00 PM 7.92 46.256 0.022 5.74 4.94 11.4
3/29/2021 5:30:00 PM 7.84 46.112 0.022 5.73 4.84 11.42
3/29/2021 5:45:00 PM 7.74 45.932 0.022 5.72 4.88 11.43
3/29/2021 6:00:00 PM 7.65 45.77 0.023 5.69 4.71 11.43
3/29/2021 6:15:00 PM 7.55 45.59 0.022 5.7 4.97 11.45
3/29/2021 6:30:00 PM 7.45 45.41 0.022 5.69 4.91 11.46
3/29/2021 6:45:00 PM 7.35 45.23 0.023 5.7 4.87 11.47
3/29/2021 7:00:00 PM 7.26 45.068 0.022 5.67 4.6 11.46
3/29/2021 7:15:00 PM 7.18 44.924 0.022 5.66 4.82 11.45
3/29/2021 7:30:00 PM 7.13 44.834 0.022 5.67 4.95 11.44
3/29/2021 7:45:00 PM 7.08 44.744 0.022 5.66 4.81 11.43
3/29/2021 8:00:00 PM 7.04 44.672 0.022 5.67 4.9 11.43
3/29/2021 8:15:00 PM 6.99 44.582 0.022 5.65 4.8 11.43
3/29/2021 8:30:00 PM 6.95 44.51 0.022 5.66 4.95 11.44
3/29/2021 8:45:00 PM 6.91 44.438 0.022 5.65 4.98 11.43
3/29/2021 9:00:00 PM 6.87 44.366 0.022 5.65 4.93 11.45
3/29/2021 9:15:00 PM 6.82 44.276 0.023 5.64 5.1 11.46
3/29/2021 9:30:00 PM 6.77 44.186 0.023 5.64 5.04 11.47
3/29/2021 9:45:00 PM 6.73 44.114 0.023 5.63 4.83 11.48
3/29/2021 10:00:00 PM 6.68 44.024 0.023 5.62 4.82 11.49
3/29/2021 10:15:00 PM 6.63 43.934 0.023 5.62 4.91 11.51
3/29/2021 10:30:00 PM 6.58 43.844 0.023 5.61 4.94 11.52
3/29/2021 10:45:00 PM 6.53 43.754 0.022 5.62 4.86 11.53
3/29/2021 11:00:00 PM 6.48 43.664 0.023 5.62 5.21 11.55
3/29/2021 11:15:00 PM 6.43 43.574 0.022 5.61 4.88 11.57
3/29/2021 11:30:00 PM 6.37 43.466 0.022 5.6 4.81 11.58
3/29/2021 11:45:00 PM 6.32 43.376 0.023 5.59 5.07 11.6
3/30/2021 12:00:00 AM 6.25 43.25 0.022 5.59 5 11.62
3/30/2021 12:15:00 AM 6.19 43.142 0.023 5.58 4.94 11.64
3/30/2021 12:30:00 AM 6.12 43.016 0.022 5.58 4.99 11.67
3/30/2021 12:45:00 AM 6.05 42.89 0.023 5.59 4.84 11.69
3/30/2021 1:00:00 AM 5.98 42.764 0.023 5.58 5 11.71
3/30/2021 1:15:00 AM 5.91 42.638 0.022 5.58 4.91 11.73
3/30/2021 1:30:00 AM 5.84 42.512 0.023 5.57 5.24 11.75
3/30/2021 1:45:00 AM 5.76 42.368 0.023 5.55 4.82 11.77
3/30/2021 2:00:00 AM 5.69 42.242 0.023 5.57 4.87 11.79
3/30/2021 2:15:00 AM 5.62 42.116 0.023 5.57 4.81 11.82
3/30/2021 2:30:00 AM 5.54 41.972 0.023 5.55 4.8 11.84
3/30/2021 2:45:00 AM 5.47 41.846 0.023 5.57 4.83 11.88
3/30/2021 3:00:00 AM 5.4 41.72 0.023 5.55 4.86 11.9
3/30/2021 3:15:00 AM 5.33 41.594 0.023 5.55 5.01 11.91
3/30/2021 3:30:00 AM 5.26 41.468 0.023 5.54 4.9 11.94
3/30/2021 3:45:00 AM 5.19 41.342 0.023 5.53 4.97 11.96
3/30/2021 4:00:00 AM 5.12 41.216 0.023 5.53 4.88 11.98
3/30/2021 4:15:00 AM 5.05 41.09 0.023 5.54 4.9 12
3/30/2021 4:30:00 AM 4.99 40.982 0.023 5.54 4.88 12.03
3/30/2021 4:45:00 AM 4.92 40.856 0.023 5.52 5.08 12.05
3/30/2021 5:00:00 AM 4.86 40.748 0.023 5.51 4.86 12.07
3/30/2021 5:15:00 AM 4.79 40.622 0.023 5.53 4.78 12.09
3/30/2021 5:30:00 AM 4.73 40.514 0.023 5.52 4.88 12.11
3/30/2021 5:45:00 AM 4.67 40.406 0.023 5.51 4.87 12.13
3/30/2021 6:00:00 AM 4.61 40.298 0.023 5.51 4.76 12.16
3/30/2021 6:15:00 AM 4.55 40.19 0.023 5.49 4.8 12.18
3/30/2021 6:30:00 AM 4.49 40.082 0.023 5.5 4.88 12.2
3/30/2021 6:45:00 AM 4.44 39.992 0.023 5.5 4.96 12.22
3/30/2021 7:00:00 AM 4.38 39.884 0.023 5.51 4.96 12.24
3/30/2021 7:15:00 AM 4.33 39.794 0.022 5.49 4.86 12.27
3/30/2021 7:30:00 AM 4.29 39.722 0.023 5.49 4.82 12.29
3/30/2021 7:45:00 AM 4.25 39.65 0.023 5.48 4.84 12.33
3/30/2021 8:00:00 AM 4.23 39.614 0.023 5.51 4.58 12.36
3/30/2021 8:15:00 AM 4.22 39.596 0.023 5.5 4.74 12.38
3/30/2021 8:30:00 AM 4.23 39.614 0.023 5.51 4.8 12.41
3/30/2021 8:45:00 AM 4.27 39.686 0.023 5.52 4.76 12.43
3/30/2021 9:00:00 AM 4.33 39.794 0.023 5.51 4.76 12.44
3/30/2021 9:15:00 AM 4.41 39.938 0.023 5.53 4.58 12.44
3/30/2021 9:30:00 AM 4.51 40.118 0.023 5.56 4.65 12.44
3/30/2021 9:45:00 AM 4.63 40.334 0.023 5.55 4.74 12.43
3/30/2021 10:00:00 AM 4.77 40.586 0.023 5.58 4.58 12.41
3/30/2021 10:15:00 AM 4.93 40.874 0.023 5.58 4.79 12.39
3/30/2021 10:30:00 AM 5.11 41.198 0.024 5.59 4.7 12.35
3/30/2021 10:45:00 AM 5.29 41.522 0.023 5.61 4.63 12.32
3/30/2021 11:00:00 AM 5.49 41.882 0.023 5.61 4.55 12.28
3/30/2021 11:15:00 AM 5.7 42.26 0.023 5.63 4.65 12.24
3/30/2021 11:30:00 AM 5.91 42.638 0.024 5.64 4.66 12.19
3/30/2021 11:45:00 AM 6.13 43.034 0.023 5.65 4.43 12.15
3/30/2021 12:00:00 PM 6.35 43.43 0.023 5.66 4.59 12.09
3/30/2021 12:15:00 PM 6.58 43.844 0.023 5.67 4.61 12.03
3/30/2021 12:30:00 PM 6.83 44.294 0.023 5.71 4.6 11.97
3/30/2021 12:45:00 PM 7.04 44.672 0.023 5.71 4.55 11.91
3/30/2021 1:00:00 PM 7.28 45.104 0.023 5.74 4.57 11.85
3/30/2021 1:15:00 PM 7.5 45.5 0.023 5.75 4.53 11.78
3/30/2021 1:30:00 PM 7.73 45.914 0.023 5.77 4.55 11.71
3/30/2021 1:45:00 PM 7.93 46.274 0.023 5.77 4.56 11.66
3/30/2021 2:00:00 PM 8.14 46.652 0.023 5.79 4.57 11.6
3/30/2021 2:15:00 PM 8.3 46.94 0.023 5.79 4.6 11.54
3/30/2021 2:30:00 PM 8.46 47.228 0.023 5.83 4.61 11.5
3/30/2021 2:45:00 PM 8.59 47.462 0.023 5.8 4.5 11.45
3/30/2021 3:00:00 PM 8.72 47.696 0.023 5.83 4.45 11.41
3/30/2021 3:15:00 PM 8.82 47.876 0.023 5.82 4.54 11.37
3/30/2021 3:30:00 PM 8.91 48.038 0.023 5.84 4.61 11.33
3/30/2021 3:45:00 PM 8.98 48.164 0.023 5.85 4.63 11.31
3/30/2021 4:00:00 PM 9.03 48.254 0.023 5.86 4.62 11.28
3/30/2021 4:15:00 PM 9.06 48.308 0.023 5.85 4.55 11.26
3/30/2021 4:30:00 PM 9.07 48.326 0.022 5.85 4.53 11.24
3/30/2021 4:45:00 PM 9.05 48.29 0.023 5.84 4.47 11.23
3/30/2021 5:00:00 PM 9.02 48.236 0.023 5.84 4.66 11.2
3/30/2021 5:15:00 PM 8.96 48.128 0.023 5.82 4.71 11.2
3/30/2021 5:30:00 PM 8.87 47.966 0.023 5.84 4.63 11.2
3/30/2021 5:45:00 PM 8.79 47.822 0.023 5.83 4.52 11.21
3/30/2021 6:00:00 PM 8.72 47.696 0.023 5.83 4.69 11.2
3/30/2021 6:15:00 PM 8.64 47.552 0.023 5.85 4.92 11.2
3/30/2021 6:30:00 PM 8.55 47.39 0.023 5.81 4.96 11.2
3/30/2021 6:45:00 PM 8.46 47.228 0.023 5.82 4.96 11.2
3/30/2021 7:00:00 PM 8.38 47.084 0.023 5.8 4.81 11.19
3/30/2021 7:15:00 PM 8.28 46.904 0.023 5.77 4.65 11.18
3/30/2021 7:30:00 PM 8.21 46.778 0.023 5.78 4.63 11.16
3/30/2021 7:45:00 PM 8.14 46.652 0.023 5.8 4.78 11.15
3/30/2021 8:00:00 PM 8.09 46.562 0.023 5.79 4.6 11.14
3/30/2021 8:15:00 PM 8.04 46.472 0.023 5.77 4.6 11.13
3/30/2021 8:30:00 PM 8 46.4 0.023 5.76 4.66 11.13
3/30/2021 8:45:00 PM 7.97 46.346 0.023 5.76 4.65 11.12
3/30/2021 9:00:00 PM 7.93 46.274 0.024 5.77 4.75 11.13
3/30/2021 9:15:00 PM 7.91 46.238 0.023 5.77 4.64 11.12
3/30/2021 9:30:00 PM 7.88 46.184 0.023 5.76 4.77 11.13
3/30/2021 9:45:00 PM 7.86 46.148 0.023 5.77 5 11.14
3/30/2021 10:00:00 PM 7.83 46.094 0.023 5.76 4.67 11.14
3/30/2021 10:15:00 PM 7.82 46.076 0.023 5.74 4.77 11.15
3/30/2021 10:30:00 PM 7.8 46.04 0.023 5.75 4.89 11.15
3/30/2021 10:45:00 PM 7.78 46.004 0.023 5.75 4.57 11.15
3/30/2021 11:00:00 PM 7.77 45.986 0.024 5.74 4.69 11.15
3/30/2021 11:15:00 PM 7.76 45.968 0.023 5.74 4.75 11.16
3/30/2021 11:30:00 PM 7.75 45.95 0.023 5.76 4.6 11.16
3/30/2021 11:45:00 PM 7.74 45.932 0.024 5.75 4.64 11.16
3/31/2021 12:00:00 AM 7.74 45.932 0.023 5.74 4.82 11.16
3/31/2021 12:15:00 AM 7.73 45.914 0.024 5.75 4.62 11.16
3/31/2021 12:30:00 AM 7.73 45.914 0.024 5.76 4.71 11.16
3/31/2021 12:45:00 AM 7.71 45.878 0.024 5.74 4.63 11.16
3/31/2021 1:00:00 AM 7.7 45.86 0.024 5.73 4.49 11.18
3/31/2021 1:15:00 AM 7.68 45.824 0.023 5.73 4.61 11.18
3/31/2021 1:30:00 AM 7.67 45.806 0.023 5.74 4.5 11.18
3/31/2021 1:45:00 AM 7.65 45.77 0.023 5.74 4.61 11.18
3/31/2021 2:00:00 AM 7.63 45.734 0.023 5.74 4.64 11.19
3/31/2021 2:15:00 AM 7.61 45.698 0.023 5.72 4.6 11.2
3/31/2021 2:30:00 AM 7.58 45.644 0.023 5.72 4.54 11.19
3/31/2021 2:45:00 AM 7.55 45.59 0.023 5.73 4.64 11.2
3/31/2021 3:00:00 AM 7.52 45.536 0.024 5.71 4.64 11.21
3/31/2021 3:15:00 AM 7.5 45.5 0.023 5.72 4.42 11.22
3/31/2021 3:30:00 AM 7.48 45.464 0.024 5.71 4.5 11.23
3/31/2021 3:45:00 AM 7.45 45.41 0.023 5.72 4.53 11.22
3/31/2021 4:00:00 AM 7.44 45.392 0.023 5.72 4.64 11.24
3/31/2021 4:15:00 AM 7.41 45.338 0.024 5.72 4.54 11.23
3/31/2021 4:30:00 AM 7.39 45.302 0.023 5.73 4.53 11.24
3/31/2021 4:45:00 AM 7.37 45.266 0.023 5.71 4.53 11.25
3/31/2021 5:00:00 AM 7.34 45.212 0.023 5.71 4.54 11.26
3/31/2021 5:15:00 AM 7.31 45.158 0.024 5.72 4.63 11.26
3/31/2021 5:30:00 AM 7.28 45.104 0.023 5.72 4.52 11.27
3/31/2021 5:45:00 AM 7.26 45.068 0.024 5.72 4.61 11.28
3/31/2021 6:00:00 AM 7.24 45.032 0.023 5.71 4.61 11.29
3/31/2021 6:15:00 AM 7.23 45.014 0.023 5.71 4.68 11.29
3/31/2021 6:30:00 AM 7.21 44.978 0.024 5.72 4.62 11.3
3/31/2021 6:45:00 AM 7.2 44.96 0.024 5.7 4.4 11.3
3/31/2021 7:00:00 AM 7.19 44.942 0.023 5.73 4.58 11.31
3/31/2021 7:15:00 AM 7.19 44.942 0.023 5.71 4.73 11.32
3/31/2021 7:30:00 AM 7.18 44.924 0.023 5.71 4.56 11.33
3/31/2021 7:45:00 AM 7.19 44.942 0.023 5.73 4.54 11.35
3/31/2021 8:00:00 AM 7.2 44.96 0.023 5.73 4.66 11.38
3/31/2021 8:15:00 AM 7.21 44.978 0.024 5.74 4.53 11.39
3/31/2021 8:30:00 AM 7.24 45.032 0.024 5.76 4.58 11.41
3/31/2021 8:45:00 AM 7.28 45.104 0.025 5.76 4.39 11.43
3/31/2021 9:00:00 AM 7.33 45.194 0.024 5.77 4.55 11.45
3/31/2021 9:15:00 AM 7.38 45.284 0.024 5.8 4.46 11.46
3/31/2021 9:30:00 AM 7.44 45.392 0.024 5.78 4.33 11.47
3/31/2021 9:45:00 AM 7.49 45.482 0.024 5.79 4.52 11.46
3/31/2021 10:00:00 AM 7.56 45.608 0.023 5.81 4.4 11.47
3/31/2021 10:15:00 AM 7.65 45.77 0.024 5.8 4.58 11.46
3/31/2021 10:30:00 AM 7.73 45.914 0.024 5.82 4.44 11.45
3/31/2021 10:45:00 AM 7.79 46.022 0.024 5.83 4.52 11.43
3/31/2021 11:00:00 AM 7.84 46.112 0.024 5.82 4.62 11.42
3/31/2021 11:15:00 AM 7.87 46.166 0.023 5.82 4.48 11.41
3/31/2021 11:30:00 AM 7.89 46.202 0.023 5.83 4.59 11.4
3/31/2021 11:45:00 AM 7.92 46.256 0.023 5.83 4.5 11.39
3/31/2021 12:00:00 PM 7.95 46.31 0.023 5.81 4.47 11.36
3/31/2021 12:15:00 PM 7.99 46.382 0.024 5.83 4.45 11.36
3/31/2021 12:30:00 PM 8.02 46.436 0.024 5.84 4.44 11.35
3/31/2021 12:45:00 PM